Provisional Data: East Branch Octoraro Creek at Street Road


Please select a monitoring station.
Please select start date.
Please select start date.

Toggle Unit: C/F Toggle Unit: C/F
Sample Time Temperature (C) Temperature (F) Specific Conductivity (mS/cm) pH   Turbidity (NTU+) DO (mg/L)
12/23/2022 7:00:00 PM 4.31 39.758 0.213 7.21 79.51 11.75
12/23/2022 7:15:00 PM 4.17 39.506 0.214 7.21 86.21 11.8
12/23/2022 7:30:00 PM 4.03 39.254 0.216 7.21 73.54 11.85
12/23/2022 7:45:00 PM 3.86 38.948 0.217 7.23 80.99 11.9
12/23/2022 8:00:00 PM 3.71 38.678 0.218 7.21 74.55 11.94
12/23/2022 8:15:00 PM 3.55 38.39 0.219 7.21 85.99 11.99
12/23/2022 8:30:00 PM 3.4 38.12 0.221 7.23 76.2 12.03
12/23/2022 8:45:00 PM 3.23 37.814 0.222 7.2 74.96 12.07
12/23/2022 9:00:00 PM 3.07 37.526 0.223 7.2 72.01 12.12
12/23/2022 9:15:00 PM 2.93 37.274 0.224 7.21 68.14 12.18
12/23/2022 9:30:00 PM 2.8 37.04 0.225 7.2 70.85 12.23
12/23/2022 9:45:00 PM 2.67 36.806 0.225 7.19 65.19 12.27
12/23/2022 10:00:00 PM 2.53 36.554 0.225 7.18 63.98 12.32
12/23/2022 10:15:00 PM 2.4 36.32 0.225 7.17 58.96 12.37
12/23/2022 10:30:00 PM 2.26 36.068 0.225 7.17 60 12.41
12/23/2022 10:45:00 PM 2.13 35.834 0.225 7.18 55.35 12.46
12/23/2022 11:00:00 PM 2.03 35.654 0.225 7.16 52.07 12.51
12/23/2022 11:15:00 PM 1.92 35.456 0.225 7.17 56.2 12.54
12/23/2022 11:30:00 PM 1.8 35.24 0.226 7.17 52.62 12.59
12/23/2022 11:45:00 PM 1.7 35.06 0.226 7.17 49.61 12.64
12/24/2022 12:00:00 AM 1.57 34.826 0.227 7.16 53.8 12.69
12/24/2022 12:15:00 AM 1.48 34.664 0.228 7.15 48.79 12.74
12/24/2022 12:30:00 AM 1.39 34.502 0.229 7.14 46.01 12.78
12/24/2022 12:45:00 AM 1.29 34.322 0.23 7.15 44.63 12.82
12/24/2022 1:00:00 AM 1.18 34.124 0.231 7.13 48.93 12.86
12/24/2022 1:15:00 AM 1.07 33.926 0.232 7.12 47.89 12.91
12/24/2022 1:30:00 AM 1 33.8 0.233 7.13 41.37 12.94
12/24/2022 1:45:00 AM 0.91 33.638 0.234 7.12 39.1 12.99
12/24/2022 2:00:00 AM 0.82 33.476 0.235 7.13 41.42 13.02
12/24/2022 2:15:00 AM 0.71 33.278 0.236 7.11 41.47 13.08
12/24/2022 2:30:00 AM 0.62 33.116 0.238 7.12 47.52 13.12
12/24/2022 2:45:00 AM 0.51 32.918 0.239 7.12 53.89 13.16
12/24/2022 3:00:00 AM 0.41 32.738 0.24 7.12 47.16 13.2
12/24/2022 3:15:00 AM 0.29 32.522 0.242 7.11 38.11 13.25
12/24/2022 3:30:00 AM 0.18 32.324 0.243 7.12 43.18 13.29
12/24/2022 3:45:00 AM 0.08 32.144 0.244 7.11 43.72 13.35
12/24/2022 4:00:00 AM -0.02 31.964 0.246 7.11 41.58 13.39
12/24/2022 4:15:00 AM -0.08 31.856 0.247 7.1 37.7 13.44
12/24/2022 4:30:00 AM -0.07 31.874 0.248 7.11 41.63 13.49
12/24/2022 4:45:00 AM -0.06 31.892 0.249 7.11 35.95 13.53
12/24/2022 5:00:00 AM -0.06 31.892 0.25 7.09 34.93 13.56
12/24/2022 5:15:00 AM -0.06 31.892 0.25 7.09 34.1 13.59
12/24/2022 5:30:00 AM -0.05 31.91 0.251 7.09 35.74 13.6
12/24/2022 5:45:00 AM -0.05 31.91 0.251 7.08 35.58 13.62
12/24/2022 6:00:00 AM -0.05 31.91 0.252 7.08 36.44 13.64
12/24/2022 6:15:00 AM -0.04 31.928 0.253 7.1 35.31 13.61
12/24/2022 6:30:00 AM -0.04 31.928 0.253 7.04 35.44 13.65
12/24/2022 6:45:00 AM -0.04 31.928 0.254 7.05 32.45 13.64
12/24/2022 7:00:00 AM -0.04 31.928 0.254 7.06 34.08 13.6
12/24/2022 7:15:00 AM -0.04 31.928 0.254 7.05 103.74 13.54
12/24/2022 7:30:00 AM -0.04 31.928 0.255 7.02 101.52 13.49
12/24/2022 7:45:00 AM -0.04 31.928 0.256 7.02 39.39 13.55
12/24/2022 8:00:00 AM -0.04 31.928 0.256 7.05 159.37 13.52
12/24/2022 8:15:00 AM -0.04 31.928 0.256 7.01 134.48 13.54
12/24/2022 8:30:00 AM -0.04 31.928 0.257 7.03 79.53 13.56
12/24/2022 8:45:00 AM -0.04 31.928 0.257 7.03 42.38 13.55
12/24/2022 9:00:00 AM -0.04 31.928 0.258 7.03 62.89 13.64
12/24/2022 9:15:00 AM -0.04 31.928 0.258 7.03 32.89 13.7
12/24/2022 9:30:00 AM -0.03 31.946 0.258 7.03 49.9 13.7
12/24/2022 9:45:00 AM -0.03 31.946 0.259 7.03 37.82 13.77
12/24/2022 10:00:00 AM -0.03 31.946 0.259 7.01 31.06 13.81
12/24/2022 10:15:00 AM -0.03 31.946 0.259 7.04 27.97 13.84
12/24/2022 10:30:00 AM -0.03 31.946 0.259 7.02 29.38 13.84
12/24/2022 10:45:00 AM -0.02 31.964 0.259 7.04 27.84 13.93
12/24/2022 11:00:00 AM -0.01 31.982 0.26 7.06 27.59 14.01
12/24/2022 11:15:00 AM 0.02 32.036 0.26 7.09 27.03 14.13
12/24/2022 11:30:00 AM 0.07 32.126 0.26 7.1 27.25 14.21
12/24/2022 11:45:00 AM 0.1 32.18 0.26 7.11 23.87 14.24
12/24/2022 12:00:00 PM 0.09 32.162 0.26 7.11 23.48 14.27
12/24/2022 12:15:00 PM 0.06 32.108 0.26 7.13 23.9 14.29
12/24/2022 12:30:00 PM 0.04 32.072 0.261 7.13 27.19 14.3
12/24/2022 12:45:00 PM 0.02 32.036 0.261 7.13 33.3 14.31
12/24/2022 1:00:00 PM 0.01 32.018 0.261 7.13 34.36 14.31
12/24/2022 1:15:00 PM 0.07 32.126 0.261 7.15 35.54 14.32
12/24/2022 1:30:00 PM 0.11 32.198 0.261 7.13 38.68 14.32
12/24/2022 1:45:00 PM 0.14 32.252 0.262 7.15 35.58 14.33
12/24/2022 2:00:00 PM 0.14 32.252 0.262 7.15 36.69 14.34
12/24/2022 2:15:00 PM 0.13 32.234 0.262 7.15 30.41 14.34
12/24/2022 2:30:00 PM 0.09 32.162 0.263 7.14 35.33 14.35
12/24/2022 2:45:00 PM 0.1 32.18 0.263 7.16 32.88 14.35
12/24/2022 3:00:00 PM 0.07 32.126 0.264 7.15 35 14.34
12/24/2022 3:15:00 PM 0.03 32.054 0.264 7.16 39 14.33
12/24/2022 3:30:00 PM 0.04 32.072 0.265 7.15 42.2 14.33
12/24/2022 3:45:00 PM 0.02 32.036 0.265 7.14 32.95 14.32
12/24/2022 4:00:00 PM -0.01 31.982 0.266 7.15 35.76 14.32
12/24/2022 4:15:00 PM -0.03 31.946 0.266 7.17 38.38 14.31
12/24/2022 4:30:00 PM -0.06 31.892 0.267 7.15 37.93 14.29
12/24/2022 4:45:00 PM -0.06 31.892 0.268 7.15 30.36 14.29
12/24/2022 5:00:00 PM -0.05 31.91 0.268 7.13 34.53 14.26
12/24/2022 5:15:00 PM -0.05 31.91 0.269 7.13 34.15 14.26
12/24/2022 5:30:00 PM -0.05 31.91 0.27 7.13 25.29 14.25
12/24/2022 5:45:00 PM -0.05 31.91 0.27 7.13 29.28 14.21
12/24/2022 6:00:00 PM -0.04 31.928 0.271 7.12 26.18 14.13
12/24/2022 6:15:00 PM -0.04 31.928 0.272 7.1 32.86 14.13
12/24/2022 6:30:00 PM -0.04 31.928 0.272 7.11 25.02 14.09
12/24/2022 6:45:00 PM -0.04 31.928 0.273 7.09 24.53 14.06
12/24/2022 7:00:00 PM -0.04 31.928 0.273 7.09 24.17 13.99
12/24/2022 7:15:00 PM -0.04 31.928 0.274 7.09 22.73 13.93
12/24/2022 7:30:00 PM -0.04 31.928 0.275 7.05 31.99 13.87
12/24/2022 7:45:00 PM -0.04 31.928 0.275 7.07 23.38 13.84
12/24/2022 8:00:00 PM -0.04 31.928 0.276 7.06 25.97 13.8
12/24/2022 8:15:00 PM -0.04 31.928 0.276 7.06 34.05 13.77
12/24/2022 8:30:00 PM -0.04 31.928 0.277 7.08 26.83 13.75
12/24/2022 8:45:00 PM -0.04 31.928 0.277 7.09 36.86 13.63
12/24/2022 9:00:00 PM -0.04 31.928 0.278 7.09 27.5 13.67
12/24/2022 9:15:00 PM -0.04 31.928 0.279 7.07 23.12 13.62
12/24/2022 9:30:00 PM -0.04 31.928 0.279 7.08 28.41 13.61
12/24/2022 9:45:00 PM -0.03 31.946 0.28 7.06 21.21 13.52
12/24/2022 10:00:00 PM -0.03 31.946 0.28 7.06 18.47 13.44
12/24/2022 10:15:00 PM -0.03 31.946 0.281 7.04 20.39 13.37
12/24/2022 10:30:00 PM -0.03 31.946 0.281 7.06 21.02 13.35
12/24/2022 10:45:00 PM -0.03 31.946 0.282 7.09 23.47 13.37
12/24/2022 11:00:00 PM -0.03 31.946 0.282 7.06 18.59 13.28
12/24/2022 11:15:00 PM -0.03 31.946 0.283 7.07 20.12 13.25
12/24/2022 11:30:00 PM -0.03 31.946 0.283 7.06 18.92 13.22
12/24/2022 11:45:00 PM -0.03 31.946 0.283 7.08 17.1 13.18
12/25/2022 12:00:00 AM -0.03 31.946 0.284 7.06 17.74 13.22
12/25/2022 12:15:00 AM -0.03 31.946 0.284 7.07 20.82 13.21
12/25/2022 12:30:00 AM -0.03 31.946 0.285 7.06 16.72 13.25
12/25/2022 12:45:00 AM -0.03 31.946 0.285 7.06 18.48 13.2
12/25/2022 1:00:00 AM -0.03 31.946 0.286 7.07 16.8 13.17
12/25/2022 1:15:00 AM -0.03 31.946 0.286 7.09 17.08 13.53
12/25/2022 1:30:00 AM -0.03 31.946 0.287 7.07 16.6 13.54
12/25/2022 1:45:00 AM -0.03 31.946 0.287 7.1 16.14 13.52
12/25/2022 2:00:00 AM -0.03 31.946 0.287 7.05 17.1 13.52
12/25/2022 2:15:00 AM -0.03 31.946 0.288 7.07 17.42 13.52
12/25/2022 2:30:00 AM -0.03 31.946 0.288 7.06 15.4 13.42
12/25/2022 2:45:00 AM -0.03 31.946 0.288 7.07 15.56 13.48
12/25/2022 3:00:00 AM -0.03 31.946 0.289 7.06 16.8 13.39
12/25/2022 3:15:00 AM -0.03 31.946 0.289 7.07 16.2 13.5
12/25/2022 3:30:00 AM -0.03 31.946 0.289 7.06 15.2 13.5
12/25/2022 3:45:00 AM -0.03 31.946 0.289 7.08 15.35 13.43
12/25/2022 4:00:00 AM -0.03 31.946 0.29 7.09 15.19 13.45
12/25/2022 4:15:00 AM -0.03 31.946 0.29 7.06 17.61 13.52
12/25/2022 4:30:00 AM -0.03 31.946 0.29 7.09 15.26 13.41
12/25/2022 4:45:00 AM -0.03 31.946 0.29 7.07 15.65 13.28
12/25/2022 5:00:00 AM -0.03 31.946 0.29 7.09 14.5 13.43
12/25/2022 5:15:00 AM -0.03 31.946 0.291 7.08 14.32 13.5
12/25/2022 5:30:00 AM -0.03 31.946 0.291 7.09 15.08 13.52
12/25/2022 5:45:00 AM -0.03 31.946 0.291 7.09 14.67 13.52
12/25/2022 6:00:00 AM -0.03 31.946 0.291 7.09 14.76 13.49
12/25/2022 6:15:00 AM -0.03 31.946 0.292 7.09 15.33 13.49
12/25/2022 6:30:00 AM -0.03 31.946 0.292 7.06 15.44 13.41
12/25/2022 6:45:00 AM -0.03 31.946 0.292 7.08 15.21 13.51
12/25/2022 7:00:00 AM -0.03 31.946 0.292 7.07 14.62 13.53
12/25/2022 7:15:00 AM -0.03 31.946 0.292 7.07 14.37 13.51
12/25/2022 7:30:00 AM -0.03 31.946 0.293 7.1 15.89 13.56
12/25/2022 7:45:00 AM -0.03 31.946 0.293 7.08 17.93 13.54
12/25/2022 8:00:00 AM -0.03 31.946 0.293 7.05 221.37 13.37
12/25/2022 8:15:00 AM -0.03 31.946 0.293 7.1 16.72 13.64
12/25/2022 8:30:00 AM -0.03 31.946 0.293 7.09 19.45 13.63
12/25/2022 8:45:00 AM -0.03 31.946 0.293 7.1 58.96 13.72
12/25/2022 9:00:00 AM -0.03 31.946 0.293 7.11 20.01 13.62
12/25/2022 9:15:00 AM -0.03 31.946 0.293 7.1 15.7 13.73
12/25/2022 9:30:00 AM -0.03 31.946 0.293 7.09 182.88 13.74
12/25/2022 9:45:00 AM -0.03 31.946 0.292 7.11 24.82 13.88
12/25/2022 10:00:00 AM -0.03 31.946 0.292 7.11 15.47 13.83
12/25/2022 10:15:00 AM -0.03 31.946 0.292 7.11 13.13 13.85
12/25/2022 10:30:00 AM -0.03 31.946 0.292 7.12 11.24 13.95
12/25/2022 10:45:00 AM -0.03 31.946 0.291 7.12 13.11 14.03
12/25/2022 11:00:00 AM -0.03 31.946 0.291 7.14 12.08 14.14
12/25/2022 11:15:00 AM 0 32 0.291 7.13 10.99 14.22
12/25/2022 11:30:00 AM 0.03 32.054 0.291 7.15 13.72 14.35
12/25/2022 11:45:00 AM 0.02 32.036 0.292 7.18 20.82 14.4
12/25/2022 12:00:00 PM 0.06 32.108 0.291 7.22 17.76 14.41
12/25/2022 12:15:00 PM 0.1 32.18 0.292 7.22 15.98 14.41
12/25/2022 12:30:00 PM 0.14 32.252 0.291 7.21 15.52 14.42
12/25/2022 12:45:00 PM 0.17 32.306 0.291 7.23 16.82 14.4
12/25/2022 1:00:00 PM 0.23 32.414 0.291 7.22 19.89 14.39
12/25/2022 1:15:00 PM 0.24 32.432 0.29 7.24 18.57 14.38
12/25/2022 1:30:00 PM 0.29 32.522 0.29 7.24 18.8 14.38
12/25/2022 1:45:00 PM 0.33 32.594 0.29 7.22 20.64 14.37
12/25/2022 2:00:00 PM 0.35 32.63 0.289 7.23 14.33 14.37
12/25/2022 2:15:00 PM 0.34 32.612 0.289 7.21 14.92 14.36
12/25/2022 2:30:00 PM 0.33 32.594 0.289 7.2 16.07 14.36
12/25/2022 2:45:00 PM 0.29 32.522 0.289 7.2 15.94 14.35
12/25/2022 3:00:00 PM 0.29 32.522 0.289 7.21 15.87 14.35
12/25/2022 3:15:00 PM 0.29 32.522 0.289 7.21 25.71 14.35
12/25/2022 3:30:00 PM 0.27 32.486 0.289 7.23 14.91 14.35
12/25/2022 3:45:00 PM 0.25 32.45 0.29 7.22 15.73 14.34
12/25/2022 4:00:00 PM 0.22 32.396 0.29 7.21 13.72 14.33
12/25/2022 4:15:00 PM 0.19 32.342 0.29 7.19 12.63 14.31
12/25/2022 4:30:00 PM 0.18 32.324 0.29 7.22 13.08 14.3
12/25/2022 4:45:00 PM 0.16 32.288 0.289 7.21 14.26 14.27
12/25/2022 5:00:00 PM 0.15 32.27 0.289 7.2 11.78 14.25
12/25/2022 5:15:00 PM 0.13 32.234 0.289 7.18 13.17 14.23
12/25/2022 5:30:00 PM 0.12 32.216 0.289 7.21 13.69 14.2
12/25/2022 5:45:00 PM 0.09 32.162 0.289 7.19 13.76 14.19
12/25/2022 6:00:00 PM 0.06 32.108 0.289 7.2 11.75 14.18
12/25/2022 6:15:00 PM 0.03 32.054 0.289 7.19 11.06 14.17
12/25/2022 6:30:00 PM 0.01 32.018 0.289 7.19 10.65 14.17
12/25/2022 6:45:00 PM -0.02 31.964 0.289 7.16 10.93 14.16
12/25/2022 7:00:00 PM -0.04 31.928 0.289 7.17 10.86 14.14
12/25/2022 7:15:00 PM -0.06 31.892 0.289 7.16 10.86 14.14
12/25/2022 7:30:00 PM -0.06 31.892 0.289 7.15 10.81 14.13
12/25/2022 7:45:00 PM -0.06 31.892 0.289 7.17 11.13 14.13
12/25/2022 8:00:00 PM -0.06 31.892 0.289 7.14 11.2 14.12
12/25/2022 8:15:00 PM -0.05 31.91 0.289 7.15 12.33 14.12
12/25/2022 8:30:00 PM -0.05 31.91 0.289 7.15 10.2 14.11
12/25/2022 8:45:00 PM -0.05 31.91 0.289 7.14 10.75 14.11
12/25/2022 9:00:00 PM -0.05 31.91 0.289 7.14 12.77 14.11
12/25/2022 9:15:00 PM -0.05 31.91 0.289 7.13 9.81 14.11
12/25/2022 9:30:00 PM -0.05 31.91 0.289 7.13 8.5 14.1
12/25/2022 9:45:00 PM -0.05 31.91 0.289 7.13 9.1 14.11
12/25/2022 10:00:00 PM -0.04 31.928 0.289 7.13 10.94 14.1
12/25/2022 10:15:00 PM -0.04 31.928 0.289 7.14 9.88 14.09
12/25/2022 10:30:00 PM -0.04 31.928 0.289 7.15 8.51 14.08
12/25/2022 10:45:00 PM -0.04 31.928 0.289 7.13 9.15 14.09
12/25/2022 11:00:00 PM -0.04 31.928 0.289 7.15 11.22 14.1
12/25/2022 11:15:00 PM -0.04 31.928 0.289 7.14 11.82 14.08
12/25/2022 11:30:00 PM -0.04 31.928 0.289 7.15 11.84 14.07
12/25/2022 11:45:00 PM -0.04 31.928 0.289 7.15 9.6 14.09
12/26/2022 12:00:00 AM -0.04 31.928 0.289 7.15 12.76 14.1
12/26/2022 12:15:00 AM -0.04 31.928 0.289 7.15 8.3 14.09
12/26/2022 12:30:00 AM -0.04 31.928 0.289 7.15 7.31 14.08
12/26/2022 12:45:00 AM -0.04 31.928 0.289 7.15 8.26 14.09
12/26/2022 1:00:00 AM -0.04 31.928 0.29 7.15 7.61 14.11
12/26/2022 1:15:00 AM -0.04 31.928 0.29 7.15 7.76 14.12
12/26/2022 1:30:00 AM -0.04 31.928 0.29 7.15 7.5 14.11
12/26/2022 1:45:00 AM -0.04 31.928 0.29 7.14 7.35 14.09
12/26/2022 2:00:00 AM -0.04 31.928 0.29 7.14 7.39 14.08
12/26/2022 2:15:00 AM -0.04 31.928 0.291 7.14 12.55 14.08
12/26/2022 2:30:00 AM -0.04 31.928 0.291 7.13 8.12 14.07
12/26/2022 2:45:00 AM -0.04 31.928 0.291 7.13 9.97 14.07
12/26/2022 3:00:00 AM -0.04 31.928 0.291 7.15 9.2 14.07
12/26/2022 3:15:00 AM -0.04 31.928 0.292 7.13 8.8 14.07
12/26/2022 3:30:00 AM -0.04 31.928 0.292 7.15 6.57 14.06
12/26/2022 3:45:00 AM -0.04 31.928 0.292 7.14 8.04 14.04
12/26/2022 4:00:00 AM -0.04 31.928 0.293 7.14 7.4 14.06
12/26/2022 4:15:00 AM -0.04 31.928 0.293 7.14 8.16 14.07
12/26/2022 4:30:00 AM -0.04 31.928 0.293 7.16 7.13 14.07
12/26/2022 4:45:00 AM -0.04 31.928 0.293 7.15 7.08 14.07
12/26/2022 5:00:00 AM -0.04 31.928 0.293 7.16 7.98 14.07
12/26/2022 5:15:00 AM -0.04 31.928 0.294 7.15 7.81 14.07
12/26/2022 5:30:00 AM -0.04 31.928 0.294 7.12 9.2 14.07
12/26/2022 5:45:00 AM -0.04 31.928 0.294 7.14 8.19 14.09
12/26/2022 6:00:00 AM -0.04 31.928 0.294 7.14 7.3 14.07
12/26/2022 6:15:00 AM -0.04 31.928 0.294 7.14 15.4 14.04
12/26/2022 6:30:00 AM -0.04 31.928 0.295 7.12 7.93 14.05
12/26/2022 6:45:00 AM -0.04 31.928 0.295 7.13 6.68 14.06
12/26/2022 7:00:00 AM -0.04 31.928 0.295 7.13 6.8 14.08
12/26/2022 7:15:00 AM -0.04 31.928 0.295 7.13 7.25 14.06
12/26/2022 7:30:00 AM -0.04 31.928 0.295 7.12 7.47 14.08
12/26/2022 7:45:00 AM -0.04 31.928 0.295 7.13 8.98 14.09
12/26/2022 8:00:00 AM -0.04 31.928 0.295 7.14 8.22 14.07
12/26/2022 8:15:00 AM -0.04 31.928 0.296 7.11 11.76 14
12/26/2022 8:30:00 AM -0.04 31.928 0.296 7.14 6.93 14.1
12/26/2022 8:45:00 AM -0.04 31.928 0.296 7.13 35.57 14.04
12/26/2022 9:00:00 AM -0.04 31.928 0.295 7.14 10.43 14.2
12/26/2022 9:15:00 AM -0.04 31.928 0.295 7.15 7.61 14.26
12/26/2022 9:30:00 AM -0.04 31.928 0.295 7.14 7.14 14.21
12/26/2022 9:45:00 AM -0.04 31.928 0.295 7.16 7.37 14.33
12/26/2022 10:00:00 AM -0.04 31.928 0.295 7.16 7.27 14.36
12/26/2022 10:15:00 AM -0.04 31.928 0.294 7.18 6.97 14.41
12/26/2022 10:30:00 AM -0.04 31.928 0.294 7.18 7.54 14.44
12/26/2022 10:45:00 AM -0.03 31.946 0.293 7.2 6.93 14.47
12/26/2022 11:00:00 AM 0.01 32.018 0.293 7.18 9.66 14.55
12/26/2022 11:15:00 AM 0.08 32.144 0.293 7.21 10.93 14.56
12/26/2022 11:30:00 AM 0.1 32.18 0.293 7.21 11.27 14.57
12/26/2022 11:45:00 AM 0.11 32.198 0.293 7.2 11.98 14.57
12/26/2022 12:00:00 PM 0.16 32.288 0.292 7.22 13.64 14.57
12/26/2022 12:15:00 PM 0.21 32.378 0.292 7.21 13.68 14.58
12/26/2022 12:30:00 PM 0.29 32.522 0.292 7.21 12.44 14.56
12/26/2022 12:45:00 PM 0.42 32.756 0.292 7.23 17.05 14.58
12/26/2022 1:00:00 PM 0.5 32.9 0.292 7.22 12.14 14.6
12/26/2022 1:15:00 PM 0.52 32.936 0.291 7.22 11.14 14.59
12/26/2022 1:30:00 PM 0.53 32.954 0.291 7.24 10.95 14.59
12/26/2022 1:45:00 PM 0.53 32.954 0.29 7.24 11.88 14.57
12/26/2022 2:00:00 PM 0.5 32.9 0.29 7.22 12.45 14.57
12/26/2022 2:15:00 PM 0.49 32.882 0.29 7.22 10.67 14.56
12/26/2022 2:30:00 PM 0.49 32.882 0.29 7.24 12.01 14.55
12/26/2022 2:45:00 PM 0.52 32.936 0.289 7.23 12.44 14.52
12/26/2022 3:00:00 PM 0.57 33.026 0.289 7.21 12.34 14.5
12/26/2022 3:15:00 PM 0.62 33.116 0.289 7.22 12.5 14.45
12/26/2022 3:30:00 PM 0.65 33.17 0.289 7.22 12.01 14.45
12/26/2022 3:45:00 PM 0.66 33.188 0.289 7.21 11.95 14.43
12/26/2022 4:00:00 PM 0.65 33.17 0.289 7.24 9.98 14.42
12/26/2022 4:15:00 PM 0.63 33.134 0.289 7.23 9.8 14.4
12/26/2022 4:30:00 PM 0.6 33.08 0.288 7.21 9.76 14.37
12/26/2022 4:45:00 PM 0.57 33.026 0.287 7.2 11.11 14.33
12/26/2022 5:00:00 PM 0.55 32.99 0.288 7.2 10.18 14.3
12/26/2022 5:15:00 PM 0.52 32.936 0.288 7.2 10.02 14.28
12/26/2022 5:30:00 PM 0.51 32.918 0.288 7.2 9.77 14.25
12/26/2022 5:45:00 PM 0.5 32.9 0.288 7.18 9.93 14.22
12/26/2022 6:00:00 PM 0.49 32.882 0.288 7.18 10.07 14.2
12/26/2022 6:15:00 PM 0.46 32.828 0.288 7.18 9.96 14.18
12/26/2022 6:30:00 PM 0.46 32.828 0.288 7.18 10.45 14.16
12/26/2022 6:45:00 PM 0.45 32.81 0.288 7.17 9.93 14.14
12/26/2022 7:00:00 PM 0.42 32.756 0.288 7.17 10.3 14.13
12/26/2022 7:15:00 PM 0.4 32.72 0.288 7.17 9.87 14.12
12/26/2022 7:30:00 PM 0.38 32.684 0.288 7.16 9.83 14.11
12/26/2022 7:45:00 PM 0.36 32.648 0.288 7.17 10.13 14.09
12/26/2022 8:00:00 PM 0.37 32.666 0.288 7.16 9.54 14.08
12/26/2022 8:15:00 PM 0.37 32.666 0.288 7.18 9.16 14.06
12/26/2022 8:30:00 PM 0.38 32.684 0.288 7.16 9.03 14.05
12/26/2022 8:45:00 PM 0.4 32.72 0.288 7.16 9.03 14.04
12/26/2022 9:00:00 PM 0.41 32.738 0.288 7.17 8.19 14.02
12/26/2022 9:15:00 PM 0.43 32.774 0.287 7.18 8.12 14.02
12/26/2022 9:30:00 PM 0.45 32.81 0.287 7.17 8.2 14.01
12/26/2022 9:45:00 PM 0.46 32.828 0.287 7.17 8.37 14
12/26/2022 10:00:00 PM 0.47 32.846 0.287 7.15 8.27 14
12/26/2022 10:15:00 PM 0.48 32.864 0.287 7.18 8.05 13.98
12/26/2022 10:30:00 PM 0.49 32.882 0.287 7.15 7.72 13.97
12/26/2022 10:45:00 PM 0.5 32.9 0.287 7.15 8.31 13.97
12/26/2022 11:00:00 PM 0.51 32.918 0.286 7.15 7.98 13.97
12/26/2022 11:15:00 PM 0.51 32.918 0.286 7.15 8.48 13.96
12/26/2022 11:30:00 PM 0.52 32.936 0.286 7.15 8.03 13.96
12/26/2022 11:45:00 PM 0.53 32.954 0.286 7.16 8.37 13.95
12/27/2022 12:00:00 AM 0.54 32.972 0.286 7.15 8.35 13.95
12/27/2022 12:15:00 AM 0.55 32.99 0.286 7.15 8.32 13.94
12/27/2022 12:30:00 AM 0.55 32.99 0.286 7.16 8.21 13.94
12/27/2022 12:45:00 AM 0.56 33.008 0.286 7.17 8.31 13.94
12/27/2022 1:00:00 AM 0.56 33.008 0.286 7.15 8.43 13.93
12/27/2022 1:15:00 AM 0.56 33.008 0.286 7.16 8.18 13.93
12/27/2022 1:30:00 AM 0.56 33.008 0.286 7.17 8.37 13.93
12/27/2022 1:45:00 AM 0.56 33.008 0.286 7.15 8.74 13.93
12/27/2022 2:00:00 AM 0.56 33.008 0.286 7.15 8.2 13.91
12/27/2022 2:15:00 AM 0.57 33.026 0.287 7.16 7.89 13.9
12/27/2022 2:30:00 AM 0.58 33.044 0.287 7.16 8.01 13.9
12/27/2022 2:45:00 AM 0.59 33.062 0.287 7.14 9.92 13.9
12/27/2022 3:00:00 AM 0.6 33.08 0.287 7.16 8.52 13.91
12/27/2022 3:15:00 AM 0.61 33.098 0.288 7.14 8.09 13.92
12/27/2022 3:30:00 AM 0.62 33.116 0.288 7.16 8.11 13.91
12/27/2022 3:45:00 AM 0.63 33.134 0.288 7.14 8.23 13.91
12/27/2022 4:00:00 AM 0.63 33.134 0.288 7.17 8.42 13.91
12/27/2022 4:15:00 AM 0.63 33.134 0.288 7.15 8.88 13.91
12/27/2022 4:30:00 AM 0.64 33.152 0.288 7.15 9.35 13.9
12/27/2022 4:45:00 AM 0.65 33.17 0.288 7.16 8.88 13.9
12/27/2022 5:00:00 AM 0.66 33.188 0.288 7.17 8.34 13.89
12/27/2022 5:15:00 AM 0.67 33.206 0.288 7.16 8.64 13.89
12/27/2022 5:30:00 AM 0.68 33.224 0.288 7.14 8.04 13.89
12/27/2022 5:45:00 AM 0.69 33.242 0.288 7.16 7.98 13.88
12/27/2022 6:00:00 AM 0.7 33.26 0.288 7.15 7.72 13.88
12/27/2022 6:15:00 AM 0.71 33.278 0.288 7.14 7.6 13.88
12/27/2022 6:30:00 AM 0.72 33.296 0.288 7.15 8.05 13.88
12/27/2022 6:45:00 AM 0.73 33.314 0.288 7.16 7.76 13.87
12/27/2022 7:00:00 AM 0.74 33.332 0.288 7.16 7.52 13.87
12/27/2022 7:15:00 AM 0.75 33.35 0.288 7.16 7.64 13.87
12/27/2022 7:30:00 AM 0.76 33.368 0.288 7.15 7.87 13.87
12/27/2022 7:45:00 AM 0.76 33.368 0.288 7.13 8 13.88
12/27/2022 8:00:00 AM 0.78 33.404 0.288 7.15 8.4 13.89
12/27/2022 8:15:00 AM 0.82 33.476 0.288 7.15 7.97 13.91
12/27/2022 8:30:00 AM 0.85 33.53 0.288 7.15 7.72 13.94
12/27/2022 8:45:00 AM 0.89 33.602 0.288 7.16 7.61 13.97
12/27/2022 9:00:00 AM 0.93 33.674 0.288 7.17 7.85 13.99
12/27/2022 9:15:00 AM 0.99 33.782 0.289 7.19 7.81 14.02
12/27/2022 9:30:00 AM 1.05 33.89 0.289 7.18 7.71 14.05
12/27/2022 9:45:00 AM 1.11 33.998 0.289 7.19 7.62 14.07
12/27/2022 10:00:00 AM 1.17 34.106 0.288 7.19 7.89 14.09
12/27/2022 10:15:00 AM 1.24 34.232 0.288 7.22 7.98 14.11
12/27/2022 10:30:00 AM 1.32 34.376 0.288 7.21 8.26 14.14
12/27/2022 10:45:00 AM 1.39 34.502 0.288 7.2 8.62 14.14
12/27/2022 11:00:00 AM 1.47 34.646 0.288 7.21 8.92 14.15
12/27/2022 11:15:00 AM 1.56 34.808 0.288 7.22 9.32 14.17
12/27/2022 11:30:00 AM 1.67 35.006 0.288 7.21 9.63 14.18
12/27/2022 11:45:00 AM 1.77 35.186 0.288 7.25 9.66 14.17
12/27/2022 12:00:00 PM 1.85 35.33 0.288 7.24 9.56 14.17
12/27/2022 12:15:00 PM 1.94 35.492 0.288 7.24 9.55 14.17
12/27/2022 12:30:00 PM 2.03 35.654 0.288 7.24 10.1 14.16
12/27/2022 12:45:00 PM 2.17 35.906 0.288 7.23 10.03 14.16
12/27/2022 1:00:00 PM 2.35 36.23 0.287 7.26 9.27 14.15
12/27/2022 1:15:00 PM 2.47 36.446 0.287 7.25 9.36 14.14
12/27/2022 1:30:00 PM 2.5 36.5 0.287 7.24 9.61 14.12
12/27/2022 1:45:00 PM 2.56 36.608 0.287 7.26 9.43 14.1
12/27/2022 2:00:00 PM 2.58 36.644 0.287 7.25 9.68 14.07
12/27/2022 2:15:00 PM 2.65 36.77 0.287 7.25 10.65 14.06
12/27/2022 2:30:00 PM 2.73 36.914 0.287 7.26 10.26 14.04
12/27/2022 2:45:00 PM 2.76 36.968 0.287 7.27 10.37 14.02
12/27/2022 3:00:00 PM 2.79 37.022 0.287 7.26 10.13 13.99
12/27/2022 3:15:00 PM 2.81 37.058 0.287 7.27 10.7 13.96
12/27/2022 3:30:00 PM 2.81 37.058 0.287 7.27 10.95 13.91
12/27/2022 3:45:00 PM 2.83 37.094 0.287 7.26 11.19 13.87
12/27/2022 4:00:00 PM 2.84 37.112 0.287 7.27 10.7 13.84
12/27/2022 4:15:00 PM 2.86 37.148 0.287 7.25 10.51 13.79
12/27/2022 4:30:00 PM 2.87 37.166 0.287 7.26 10.07 13.73
12/27/2022 4:45:00 PM 2.89 37.202 0.287 7.24 9.83 13.68
12/27/2022 5:00:00 PM 2.9 37.22 0.287 7.26 9.47 13.62
12/27/2022 5:15:00 PM 2.9 37.22 0.287 7.24 9.75 13.58
12/27/2022 5:30:00 PM 2.89 37.202 0.287 7.25 9.78 13.53
12/27/2022 5:45:00 PM 2.88 37.184 0.287 7.22 9.86 13.49
12/27/2022 6:00:00 PM 2.87 37.166 0.287 7.23 33.91 13.46
12/27/2022 6:15:00 PM 2.86 37.148 0.287 7.23 11.08 13.43
12/27/2022 6:30:00 PM 2.85 37.13 0.287 7.21 10.16 13.4
12/27/2022 6:45:00 PM 2.84 37.112 0.287 7.23 10.15 13.36
12/27/2022 7:00:00 PM 2.84 37.112 0.287 7.2 10.23 13.35
12/27/2022 7:15:00 PM 2.83 37.094 0.287 7.22 10.01 13.32
12/27/2022 7:30:00 PM 2.82 37.076 0.287 7.19 10.2 13.31
12/27/2022 7:45:00 PM 2.82 37.076 0.287 7.19 9.51 13.29
12/27/2022 8:00:00 PM 2.81 37.058 0.287 7.2 9.46 13.26
12/27/2022 8:15:00 PM 2.82 37.076 0.287 7.21 9.49 13.26
12/27/2022 8:30:00 PM 2.83 37.094 0.287 7.18 9.71 13.23
12/27/2022 8:45:00 PM 2.84 37.112 0.287 7.18 9.03 13.21
12/27/2022 9:00:00 PM 2.87 37.166 0.287 7.19 9.31 13.19
12/27/2022 9:15:00 PM 2.89 37.202 0.287 7.2 9.24 13.16
12/27/2022 9:30:00 PM 2.89 37.202 0.287 7.19 9.04 13.16
12/27/2022 9:45:00 PM 2.89 37.202 0.287 7.18 9.42 13.14
12/27/2022 10:00:00 PM 2.89 37.202 0.287 7.19 9.11 13.13
12/27/2022 10:15:00 PM 2.88 37.184 0.287 7.2 10.3 13.11
12/27/2022 10:30:00 PM 2.86 37.148 0.286 7.18 8.92 13.11
12/27/2022 10:45:00 PM 2.84 37.112 0.287 7.19 9.55 13.09
12/27/2022 11:00:00 PM 2.81 37.058 0.287 7.17 8.69 13.1
12/27/2022 11:15:00 PM 2.78 37.004 0.287 7.17 8.68 13.1
12/27/2022 11:30:00 PM 2.75 36.95 0.287 7.17 8.71 13.1
12/27/2022 11:45:00 PM 2.71 36.878 0.287 7.18 8.49 13.12
12/28/2022 12:00:00 AM 2.68 36.824 0.287 7.19 8.47 13.12
12/28/2022 12:15:00 AM 2.64 36.752 0.287 7.18 8.95 13.12
12/28/2022 12:30:00 AM 2.6 36.68 0.287 7.17 8.55 13.13
12/28/2022 12:45:00 AM 2.56 36.608 0.287 7.18 8.52 13.14
12/28/2022 1:00:00 AM 2.52 36.536 0.287 7.19 8.36 13.15
12/28/2022 1:15:00 AM 2.47 36.446 0.287 7.17 8.08 13.17
12/28/2022 1:30:00 AM 2.43 36.374 0.288 7.18 8.53 13.18
12/28/2022 1:45:00 AM 2.39 36.302 0.288 7.19 8.34 13.18
12/28/2022 2:00:00 AM 2.34 36.212 0.288 7.17 8.72 13.2
12/28/2022 2:15:00 AM 2.3 36.14 0.288 7.18 8.42 13.2
12/28/2022 2:30:00 AM 2.26 36.068 0.288 7.17 8.98 13.21
12/28/2022 2:45:00 AM 2.22 35.996 0.288 7.17 8.87 13.22
12/28/2022 3:00:00 AM 2.18 35.924 0.288 7.18 9.14 13.23
12/28/2022 3:15:00 AM 2.14 35.852 0.289 7.16 9.65 13.24
12/28/2022 3:30:00 AM 2.1 35.78 0.289 7.16 9.32 13.25
12/28/2022 3:45:00 AM 2.07 35.726 0.289 7.16 10.01 13.26
12/28/2022 4:00:00 AM 2.03 35.654 0.289 7.2 9.68 13.27
12/28/2022 4:15:00 AM 2 35.6 0.289 7.17 9.5 13.28
12/28/2022 4:30:00 AM 1.97 35.546 0.289 7.16 9.62 13.29
12/28/2022 4:45:00 AM 1.93 35.474 0.29 7.16 9.85 13.31
12/28/2022 5:00:00 AM 1.9 35.42 0.29 7.17 8.88 13.32
12/28/2022 5:15:00 AM 1.86 35.348 0.29 7.18 9.05 13.33
12/28/2022 5:30:00 AM 1.83 35.294 0.29 7.16 9.55 13.35
12/28/2022 5:45:00 AM 1.8 35.24 0.29 7.19 9.32 13.35
12/28/2022 6:00:00 AM 1.77 35.186 0.29 7.16 9.03 13.37
12/28/2022 6:15:00 AM 1.75 35.15 0.29 7.17 8.42 13.37
12/28/2022 6:30:00 AM 1.72 35.096 0.29 7.16 8.39 13.39
12/28/2022 6:45:00 AM 1.68 35.024 0.29 7.17 8.54 13.41
12/28/2022 7:00:00 AM 1.66 34.988 0.29 7.19 8.23 13.42
12/28/2022 7:15:00 AM 1.62 34.916 0.29 7.17 8.21 13.45
12/28/2022 7:30:00 AM 1.6 34.88 0.29 7.17 8.48 13.46
12/28/2022 7:45:00 AM 1.58 34.844 0.291 7.17 8.58 13.49
12/28/2022 8:00:00 AM 1.57 34.826 0.291 7.18 8.47 13.52
12/28/2022 8:15:00 AM 1.56 34.808 0.291 7.19 8.78 13.56
12/28/2022 8:30:00 AM 1.56 34.808 0.291 7.17 8.86 13.6
12/28/2022 8:45:00 AM 1.58 34.844 0.291 7.17 9.14 13.64
12/28/2022 9:00:00 AM 1.61 34.898 0.291 7.19 9.16 13.69
12/28/2022 9:15:00 AM 1.66 34.988 0.291 7.18 8.91 13.71
12/28/2022 9:30:00 AM 1.73 35.114 0.291 7.21 8.74 13.76
12/28/2022 9:45:00 AM 1.81 35.258 0.291 7.21 8.83 13.79
12/28/2022 10:00:00 AM 1.91 35.438 0.291 7.21 9.12 13.81
12/28/2022 10:15:00 AM 2.03 35.654 0.291 7.22 9.35 13.83
12/28/2022 10:30:00 AM 2.14 35.852 0.291 7.21 9.82 13.85
12/28/2022 10:45:00 AM 2.27 36.086 0.291 7.24 10.23 13.87
12/28/2022 11:00:00 AM 2.43 36.374 0.291 7.22 10.69 13.88
12/28/2022 11:15:00 AM 2.49 36.482 0.291 7.25 11.02 13.88
12/28/2022 11:30:00 AM 2.57 36.626 0.291 7.23 11.08 13.92
12/28/2022 11:45:00 AM 2.69 36.842 0.291 7.26 10.73 13.93
12/28/2022 12:00:00 PM 2.84 37.112 0.291 7.27 10.93 13.94
12/28/2022 12:15:00 PM 3 37.4 0.291 7.27 11.07 13.93
12/28/2022 12:30:00 PM 3.16 37.688 0.291 7.28 10.86 13.93
12/28/2022 12:45:00 PM 3.32 37.976 0.291 7.28 10.37 13.92
12/28/2022 1:00:00 PM 3.46 38.228 0.291 7.29 10.3 13.91
12/28/2022 1:15:00 PM 3.59 38.462 0.291 7.28 9.53 13.89
12/28/2022 1:30:00 PM 3.71 38.678 0.29 7.3 10.31 13.87
12/28/2022 1:45:00 PM 3.82 38.876 0.29 7.31 9.09 13.85
12/28/2022 2:00:00 PM 3.9 39.02 0.29 7.32 8.95 13.82
12/28/2022 2:15:00 PM 3.97 39.146 0.29 7.32 9.34 13.8
12/28/2022 2:30:00 PM 4.02 39.236 0.29 7.32 9.62 13.75
12/28/2022 2:45:00 PM 4.05 39.29 0.29 7.32 9.45 13.72
12/28/2022 3:00:00 PM 4.06 39.308 0.29 7.31 9.49 13.64
12/28/2022 3:15:00 PM 4.06 39.308 0.29 7.28 9.37 13.65
12/28/2022 3:30:00 PM 4.04 39.272 0.29 7.31 8.43 13.62
12/28/2022 3:45:00 PM 4.01 39.218 0.29 7.32 8.53 13.57
12/28/2022 4:00:00 PM 3.99 39.182 0.29 7.29 8.66 13.53
12/28/2022 4:15:00 PM 3.97 39.146 0.29 7.32 8.83 13.5
12/28/2022 4:30:00 PM 3.94 39.092 0.29 7.31 9.09 13.47
12/28/2022 4:45:00 PM 3.89 39.002 0.29 7.29 9.13 13.42
12/28/2022 5:00:00 PM 3.85 38.93 0.29 7.3 8.7 13.37
12/28/2022 5:15:00 PM 3.79 38.822 0.291 7.29 9.04 13.33
12/28/2022 5:30:00 PM 3.73 38.714 0.291 7.28 9.07 13.28
12/28/2022 5:45:00 PM 3.67 38.606 0.291 7.27 9.96 13.26
12/28/2022 6:00:00 PM 3.6 38.48 0.291 7.25 9.91 13.23
12/28/2022 6:15:00 PM 3.54 38.372 0.291 7.27 8.65 13.21
12/28/2022 6:30:00 PM 3.49 38.282 0.291 7.26 9.49 13.18
12/28/2022 6:45:00 PM 3.43 38.174 0.291 7.25 8.93 13.15
12/28/2022 7:00:00 PM 3.38 38.084 0.291 7.24 8.8 13.13
12/28/2022 7:15:00 PM 3.34 38.012 0.291 7.23 8.69 13.11
12/28/2022 7:30:00 PM 3.3 37.94 0.292 7.23 8.81 13.1
12/28/2022 7:45:00 PM 3.26 37.868 0.292 7.21 8.71 13.09
12/28/2022 8:00:00 PM 3.23 37.814 0.292 7.24 8.74 13.08
12/28/2022 8:15:00 PM 3.2 37.76 0.292 7.2 12.96 13.04
12/28/2022 8:30:00 PM 3.16 37.688 0.292 7.2 9.23 13.06
12/28/2022 8:45:00 PM 3.15 37.67 0.292 7.2 9.06 13.04
12/28/2022 9:00:00 PM 3.12 37.616 0.292 7.21 8.63 13.04
12/28/2022 9:15:00 PM 3.11 37.598 0.292 7.2 8.85 13.03
12/28/2022 9:30:00 PM 3.09 37.562 0.292 7.2 8.41 13.02
12/28/2022 9:45:00 PM 3.07 37.526 0.292 7.2 8.32 13.01
12/28/2022 10:00:00 PM 3.05 37.49 0.292 7.21 9.13 13.01
12/28/2022 10:15:00 PM 3.03 37.454 0.292 7.18 8.86 13.01
12/28/2022 10:30:00 PM 3.02 37.436 0.292 7.19 8.79 13
12/28/2022 10:45:00 PM 3 37.4 0.292 7.19 9.24 13.01
12/28/2022 11:00:00 PM 2.98 37.364 0.291 7.17 8.73 13
12/28/2022 11:15:00 PM 2.96 37.328 0.291 7.19 10.07 13.01
12/28/2022 11:30:00 PM 2.94 37.292 0.291 7.19 9.81 13.01
12/28/2022 11:45:00 PM 2.91 37.238 0.291 7.19 9.4 13.02
12/29/2022 12:00:00 AM 2.87 37.166 0.291 7.16 9.38 13.02
12/29/2022 12:15:00 AM 2.84 37.112 0.291 7.19 9.43 13.04
12/29/2022 12:30:00 AM 2.8 37.04 0.291 7.17 9.55 13.05
12/29/2022 12:45:00 AM 2.76 36.968 0.291 7.16 9.66 13.06
12/29/2022 1:00:00 AM 2.72 36.896 0.291 7.19 9.46 13.08
12/29/2022 1:15:00 AM 2.67 36.806 0.291 7.18 9.67 13.1
12/29/2022 1:30:00 AM 2.63 36.734 0.291 7.18 9.85 13.11
12/29/2022 1:45:00 AM 2.59 36.662 0.291 7.16 9.61 13.12
12/29/2022 2:00:00 AM 2.54 36.572 0.291 7.19 9.73 13.13
12/29/2022 2:15:00 AM 2.5 36.5 0.292 7.17 9.76 13.15
12/29/2022 2:30:00 AM 2.45 36.41 0.292 7.17 9.72 13.17
12/29/2022 2:45:00 AM 2.41 36.338 0.292 7.18 9.89 13.18
12/29/2022 3:00:00 AM 2.36 36.248 0.292 7.18 9.24 13.19
12/29/2022 3:15:00 AM 2.32 36.176 0.292 7.18 9.53 13.2
12/29/2022 3:30:00 AM 2.28 36.104 0.292 7.18 9.48 13.21
12/29/2022 3:45:00 AM 2.24 36.032 0.293 7.18 9.41 13.23
12/29/2022 4:00:00 AM 2.2 35.96 0.293 7.16 9.55 13.24
12/29/2022 4:15:00 AM 2.16 35.888 0.293 7.18 9.87 13.25
12/29/2022 4:30:00 AM 2.12 35.816 0.293 7.18 9.65 13.27
12/29/2022 4:45:00 AM 2.08 35.744 0.293 7.18 9.88 13.29
12/29/2022 5:00:00 AM 2.05 35.69 0.293 7.17 9.74 13.3
12/29/2022 5:15:00 AM 2.02 35.636 0.293 7.16 9.9 13.31
12/29/2022 5:30:00 AM 1.98 35.564 0.293 7.17 9.76 13.33
12/29/2022 5:45:00 AM 1.95 35.51 0.293 7.16 9.75 13.34
12/29/2022 6:00:00 AM 1.92 35.456 0.293 7.18 9.67 13.36
12/29/2022 6:15:00 AM 1.88 35.384 0.293 7.18 9.67 13.36
12/29/2022 6:30:00 AM 1.85 35.33 0.293 7.17 9.28 13.38
12/29/2022 6:45:00 AM 1.81 35.258 0.293 7.19 9.25 13.4
12/29/2022 7:00:00 AM 1.79 35.222 0.293 7.18 9.26 13.41
12/29/2022 7:15:00 AM 1.75 35.15 0.293 7.17 9.33 13.43
12/29/2022 7:30:00 AM 1.73 35.114 0.293 7.17 9.71 13.44
12/29/2022 7:45:00 AM 1.7 35.06 0.293 7.18 9.32 13.46
12/29/2022 8:00:00 AM 1.68 35.024 0.293 7.19 9.21 13.5
12/29/2022 8:15:00 AM 1.67 35.006 0.294 7.17 8.8 13.53
12/29/2022 8:30:00 AM 1.68 35.024 0.294 7.2 8.94 13.58
12/29/2022 8:45:00 AM 1.72 35.096 0.294 7.19 8.86 13.62
12/29/2022 9:00:00 AM 1.78 35.204 0.294 7.21 9.02 13.66
12/29/2022 9:15:00 AM 1.85 35.33 0.294 7.2 8.8 13.71
12/29/2022 9:30:00 AM 1.92 35.456 0.294 7.21 8.67 13.74
12/29/2022 9:45:00 AM 2.02 35.636 0.294 7.21 8.72 13.77
12/29/2022 10:00:00 AM 2.13 35.834 0.295 7.23 8.79 13.8
12/29/2022 10:15:00 AM 2.26 36.068 0.295 7.23 8.94 13.82
12/29/2022 10:30:00 AM 2.39 36.302 0.295 7.25 9.38 13.84
12/29/2022 10:45:00 AM 2.54 36.572 0.295 7.26 9.38 13.88
12/29/2022 11:00:00 AM 2.69 36.842 0.295 7.23 9.45 13.89
12/29/2022 11:15:00 AM 2.83 37.094 0.294 7.26 9.59 13.89
12/29/2022 11:30:00 AM 2.98 37.364 0.294 7.27 9.41 13.9
12/29/2022 11:45:00 AM 3.12 37.616 0.294 7.28 9.8 13.9
12/29/2022 12:00:00 PM 3.27 37.886 0.294 7.28 9.71 13.89
12/29/2022 12:15:00 PM 3.43 38.174 0.294 7.29 9.95 13.89
12/29/2022 12:30:00 PM 3.59 38.462 0.294 7.27 9.57 13.88
12/29/2022 12:45:00 PM 3.75 38.75 0.294 7.29 9.68 13.84
12/29/2022 1:00:00 PM 3.91 39.038 0.294 7.29 9.74 13.83
12/29/2022 1:15:00 PM 4.07 39.326 0.294 7.31 9.6 13.82
12/29/2022 1:30:00 PM 4.21 39.578 0.293 7.3 9.56 13.78
12/29/2022 1:45:00 PM 4.33 39.794 0.293 7.29 9.29 13.75
12/29/2022 2:00:00 PM 4.45 40.01 0.293 7.32 9.34 13.71
12/29/2022 2:15:00 PM 4.54 40.172 0.293 7.3 9.41 13.67
12/29/2022 2:30:00 PM 4.62 40.316 0.293 7.3 9.28 13.63
12/29/2022 2:45:00 PM 4.67 40.406 0.293 7.34 9.5 13.59
12/29/2022 3:00:00 PM 4.71 40.478 0.293 7.3 9.63 13.55
12/29/2022 3:15:00 PM 4.72 40.496 0.293 7.31 9.61 13.51
12/29/2022 3:30:00 PM 4.72 40.496 0.292 7.3 9.58 13.44
12/29/2022 3:45:00 PM 4.71 40.478 0.292 7.34 9.64 13.39
12/29/2022 4:00:00 PM 4.69 40.442 0.292 7.33 9.89 13.36
12/29/2022 4:15:00 PM 4.66 40.388 0.292 7.33 9.69 13.32
12/29/2022 4:30:00 PM 4.62 40.316 0.292 7.31 10.04 13.26
12/29/2022 4:45:00 PM 4.57 40.226 0.292 7.29 10.54 13.21
12/29/2022 5:00:00 PM 4.52 40.136 0.292 7.31 10.45 13.16
12/29/2022 5:15:00 PM 4.46 40.028 0.292 7.3 10.25 13.13
12/29/2022 5:30:00 PM 4.4 39.92 0.292 7.29 10.2 13.08
12/29/2022 5:45:00 PM 4.34 39.812 0.292 7.29 10.1 13.05
12/29/2022 6:00:00 PM 4.28 39.704 0.291 7.24 10.13 13.01
12/29/2022 6:15:00 PM 4.22 39.596 0.292 7.26 10.55 12.98
12/29/2022 6:30:00 PM 4.16 39.488 0.292 7.24 10.8 12.95
12/29/2022 6:45:00 PM 4.11 39.398 0.292 7.24 10.83 12.94
12/29/2022 7:00:00 PM 4.05 39.29 0.292 7.26 10.85 12.92
12/29/2022 7:15:00 PM 4 39.2 0.292 7.21 10.87 12.89
12/29/2022 7:30:00 PM 3.95 39.11 0.292 7.25 11.93 12.89
12/29/2022 7:45:00 PM 3.91 39.038 0.292 7.24 10.96 12.88
12/29/2022 8:00:00 PM 3.87 38.966 0.292 7.23 10.78 12.87
12/29/2022 8:15:00 PM 3.83 38.894 0.292 7.22 11.81 12.84
12/29/2022 8:30:00 PM 3.8 38.84 0.292 7.23 11.18 12.84
12/29/2022 8:45:00 PM 3.77 38.786 0.292 7.23 10.81 12.84
12/29/2022 9:00:00 PM 3.75 38.75 0.292 7.24 11 12.82
12/29/2022 9:15:00 PM 3.74 38.732 0.292 7.21 10.44 12.81
12/29/2022 9:30:00 PM 3.72 38.696 0.292 7.21 10.32 12.8
12/29/2022 9:45:00 PM 3.71 38.678 0.292 7.21 10.12 12.79
12/29/2022 10:00:00 PM 3.69 38.642 0.292 7.21 10.54 12.77
12/29/2022 10:15:00 PM 3.69 38.642 0.292 7.2 10.13 12.78
12/29/2022 10:30:00 PM 3.68 38.624 0.292 7.2 10.42 12.79
12/29/2022 10:45:00 PM 3.66 38.588 0.292 7.19 9.84 12.78
12/29/2022 11:00:00 PM 3.65 38.57 0.292 7.2 10.55 12.78
12/29/2022 11:15:00 PM 3.63 38.534 0.292 7.21 10.36 12.78
12/29/2022 11:30:00 PM 3.6 38.48 0.292 7.21 9.97 12.78
12/29/2022 11:45:00 PM 3.58 38.444 0.292 7.2 10.4 12.78
12/30/2022 12:00:00 AM 3.55 38.39 0.293 7.18 10.12 12.79
12/30/2022 12:15:00 AM 3.52 38.336 0.293 7.19 10.25 12.8
12/30/2022 12:30:00 AM 3.5 38.3 0.293 7.19 10.08 12.8
12/30/2022 12:45:00 AM 3.48 38.264 0.293 7.19 10.62 12.82
12/30/2022 1:00:00 AM 3.46 38.228 0.293 7.19 10.74 12.82
12/30/2022 1:15:00 AM 3.43 38.174 0.293 7.2 10.47 12.83
12/30/2022 1:30:00 AM 3.39 38.102 0.292 7.2 10.89 12.84
12/30/2022 1:45:00 AM 3.36 38.048 0.292 7.19 11.4 12.86
12/30/2022 2:00:00 AM 3.32 37.976 0.292 7.21 11.18 12.87
12/30/2022 2:15:00 AM 3.29 37.922 0.292 7.19 10.89 12.88
12/30/2022 2:30:00 AM 3.25 37.85 0.292 7.19 9.84 12.89
12/30/2022 2:45:00 AM 3.21 37.778 0.292 7.19 10.04 12.9
12/30/2022 3:00:00 AM 3.18 37.724 0.292 7.18 9.37 12.92
12/30/2022 3:15:00 AM 3.14 37.652 0.292 7.18 10.05 12.93
12/30/2022 3:30:00 AM 3.11 37.598 0.292 7.19 9.52 12.94
12/30/2022 3:45:00 AM 3.08 37.544 0.292 7.21 9.88 12.96
12/30/2022 4:00:00 AM 3.05 37.49 0.293 7.2 9.22 12.97
12/30/2022 4:15:00 AM 3.02 37.436 0.293 7.19 9.19 12.99
12/30/2022 4:30:00 AM 2.99 37.382 0.293 7.17 9.81 12.99
12/30/2022 4:45:00 AM 2.97 37.346 0.293 7.18 9.58 13
12/30/2022 5:00:00 AM 2.95 37.31 0.293 7.18 9.12 13
12/30/2022 5:15:00 AM 2.93 37.274 0.293 7.18 9.4 13.01
12/30/2022 5:30:00 AM 2.9 37.22 0.293 7.18 9.7 13.03
12/30/2022 5:45:00 AM 2.88 37.184 0.293 7.17 10.07 13.03
12/30/2022 6:00:00 AM 2.86 37.148 0.293 7.18 9.43 13.05
12/30/2022 6:15:00 AM 2.83 37.094 0.293 7.2 9.35 13.04
12/30/2022 6:30:00 AM 2.82 37.076 0.294 7.19 8.56 13.05
12/30/2022 6:45:00 AM 2.8 37.04 0.294 7.17 9.35 13.06
12/30/2022 7:00:00 AM 2.78 37.004 0.294 7.19 9.25 13.07
12/30/2022 7:15:00 AM 2.76 36.968 0.294 7.18 9.42 13.08
12/30/2022 7:30:00 AM 2.74 36.932 0.294 7.17 9.04 13.08
12/30/2022 7:45:00 AM 2.74 36.932 0.294 7.19 8.96 13.11
12/30/2022 8:00:00 AM 2.73 36.914 0.294 7.17 8.83 13.13
12/30/2022 8:15:00 AM 2.74 36.932 0.294 7.17 8.14 13.15
12/30/2022 8:30:00 AM 2.75 36.95 0.294 7.18 8.05 13.18
12/30/2022 8:45:00 AM 2.8 37.04 0.294 7.19 9.12 13.23
12/30/2022 9:00:00 AM 2.87 37.166 0.294 7.2 9.37 13.28
12/30/2022 9:15:00 AM 2.96 37.328 0.294 7.19 8.65 13.32
12/30/2022 9:30:00 AM 3.04 37.472 0.294 7.22 8.91 13.35
12/30/2022 9:45:00 AM 3.13 37.634 0.294 7.24 8.9 13.39
12/30/2022 10:00:00 AM 3.25 37.85 0.294 7.24 8.29 13.41
12/30/2022 10:15:00 AM 3.39 38.102 0.294 7.23 9.53 13.45
12/30/2022 10:30:00 AM 3.53 38.354 0.294 7.24 8.48 13.47
12/30/2022 10:45:00 AM 3.68 38.624 0.293 7.24 8.35 13.48
12/30/2022 11:00:00 AM 3.84 38.912 0.293 7.25 9.25 13.5
12/30/2022 11:15:00 AM 3.99 39.182 0.293 7.25 8.87 13.51
12/30/2022 11:30:00 AM 4.15 39.47 0.293 7.26 9 13.51
12/30/2022 11:45:00 AM 4.31 39.758 0.293 7.26 8.76 13.5
12/30/2022 12:00:00 PM 4.47 40.046 0.292 7.29 9.94 13.49
12/30/2022 12:15:00 PM 4.62 40.316 0.292 7.27 9.21 13.48
12/30/2022 12:30:00 PM 4.8 40.64 0.292 7.3 8.85 13.46
12/30/2022 12:45:00 PM 4.98 40.964 0.292 7.31 8.91 13.48
12/30/2022 1:00:00 PM 5.15 41.27 0.292 7.35 8.65 13.46
12/30/2022 1:15:00 PM 5.32 41.576 0.292 7.35 8.69 13.43
12/30/2022 1:30:00 PM 5.45 41.81 0.292 7.36 8.7 13.4
12/30/2022 1:45:00 PM 5.6 42.08 0.291 7.36 8.59 13.37
12/30/2022 2:00:00 PM 5.72 42.296 0.291 7.31 8.69 13.34
12/30/2022 2:15:00 PM 5.82 42.476 0.291 7.33 8.81 13.29
12/30/2022 2:30:00 PM 5.91 42.638 0.291 7.37 8.84 13.26
12/30/2022 2:45:00 PM 5.97 42.746 0.292 7.37 8.88 13.22
12/30/2022 3:00:00 PM 6 42.8 0.292 7.34 9.29 13.17
12/30/2022 3:15:00 PM 6.02 42.836 0.292 7.37 9.08 13.13
12/30/2022 3:30:00 PM 6.03 42.854 0.292 7.32 9.1 13.07
12/30/2022 3:45:00 PM 6.02 42.836 0.292 7.33 9.19 13.01
12/30/2022 4:00:00 PM 5.99 42.782 0.292 7.32 9.44 12.96
12/30/2022 4:15:00 PM 5.97 42.746 0.292 7.31 9.69 12.89
12/30/2022 4:30:00 PM 5.92 42.656 0.292 7.31 8.88 12.85
12/30/2022 4:45:00 PM 5.87 42.566 0.292 7.32 9.23 12.8
12/30/2022 5:00:00 PM 5.8 42.44 0.292 7.33 9.11 12.74
12/30/2022 5:15:00 PM 5.73 42.314 0.292 7.28 10.02 12.68
12/30/2022 5:30:00 PM 5.66 42.188 0.292 7.28 24.03 12.64
12/30/2022 5:45:00 PM 5.6 42.08 0.292 7.27 10.57 12.59
12/30/2022 6:00:00 PM 5.53 41.954 0.292 7.26 11.59 12.53
12/30/2022 6:15:00 PM 5.47 41.846 0.292 7.28 10.75 12.54
12/30/2022 6:30:00 PM 5.4 41.72 0.292 7.25 10.61 12.52
12/30/2022 6:45:00 PM 5.35 41.63 0.292 7.24 11.7 12.48
12/30/2022 7:00:00 PM 5.29 41.522 0.292 7.27 11.38 12.47
12/30/2022 7:15:00 PM 5.24 41.432 0.292 7.23 10.36 12.44
12/30/2022 7:30:00 PM 5.18 41.324 0.292 7.27 10.86 12.43
12/30/2022 7:45:00 PM 5.13 41.234 0.292 7.22 10.53 12.4
12/30/2022 8:00:00 PM 5.1 41.18 0.292 7.23 10.63 12.39
12/30/2022 8:15:00 PM 5.06 41.108 0.292 7.23 10.79 12.38
12/30/2022 8:30:00 PM 5.03 41.054 0.292 7.22 10.4 12.37
12/30/2022 8:45:00 PM 5.01 41.018 0.291 7.22 10.7 12.34
12/30/2022 9:00:00 PM 4.99 40.982 0.291 7.25 10.76 12.34
12/30/2022 9:15:00 PM 4.97 40.946 0.291 7.21 10.96 12.34
12/30/2022 9:30:00 PM 4.96 40.928 0.291 7.23 10.94 12.32
12/30/2022 9:45:00 PM 4.95 40.91 0.291 7.23 11.29 12.31
12/30/2022 10:00:00 PM 4.95 40.91 0.292 7.24 11.25 12.29
12/30/2022 10:15:00 PM 4.94 40.892 0.292 7.2 11 12.29
12/30/2022 10:30:00 PM 4.93 40.874 0.292 7.21 10.81 12.29
12/30/2022 10:45:00 PM 4.92 40.856 0.292 7.24 10.56 12.28
12/30/2022 11:00:00 PM 4.91 40.838 0.292 7.21 10.67 12.28
12/30/2022 11:15:00 PM 4.89 40.802 0.292 7.23 10.73 12.27
12/30/2022 11:30:00 PM 4.87 40.766 0.292 7.22 10.85 12.27
12/30/2022 11:45:00 PM 4.85 40.73 0.292 7.23 10.7 12.27
12/31/2022 12:00:00 AM 4.83 40.694 0.292 7.22 11.28 12.28
12/31/2022 12:15:00 AM 4.8 40.64 0.292 7.23 11.36 12.28
12/31/2022 12:30:00 AM 4.78 40.604 0.292 7.21 11.34 12.29
12/31/2022 12:45:00 AM 4.75 40.55 0.292 7.19 11.28 12.29
12/31/2022 1:00:00 AM 4.72 40.496 0.292 7.21 11.44 12.3
12/31/2022 1:15:00 AM 4.68 40.424 0.292 7.22 11.67 12.32
12/31/2022 1:30:00 AM 4.66 40.388 0.292 7.22 11.36 12.33
12/31/2022 1:45:00 AM 4.63 40.334 0.292 7.19 11.66 12.34
12/31/2022 2:00:00 AM 4.6 40.28 0.292 7.19 11.23 12.36
12/31/2022 2:15:00 AM 4.57 40.226 0.292 7.2 11.34 12.38
12/31/2022 2:30:00 AM 4.57 40.226 0.292 7.21 11.35 12.37
12/31/2022 2:45:00 AM 4.55 40.19 0.292 7.22 11.19 12.4
12/31/2022 3:00:00 AM 4.56 40.208 0.292 7.18 12.19 12.4
12/31/2022 3:15:00 AM 4.55 40.19 0.292 7.19 11.98 12.41
12/31/2022 3:30:00 AM 4.55 40.19 0.292 7.19 11.74 12.41
12/31/2022 3:45:00 AM 4.54 40.172 0.292 7.22 11.45 12.42
12/31/2022 4:00:00 AM 4.54 40.172 0.292 7.2 11.46 12.42
12/31/2022 4:15:00 AM 4.54 40.172 0.292 7.22 11.26 12.42
12/31/2022 4:30:00 AM 4.55 40.19 0.292 7.22 11.61 12.43
12/31/2022 4:45:00 AM 4.56 40.208 0.292 7.23 11.53 12.41
12/31/2022 5:00:00 AM 4.57 40.226 0.292 7.22 11.16 12.42
12/31/2022 5:15:00 AM 4.58 40.244 0.292 7.2 11.2 12.42
12/31/2022 5:30:00 AM 4.6 40.28 0.292 7.23 11.52 12.42
12/31/2022 5:45:00 AM 4.62 40.316 0.292 7.17 11.25 12.41
12/31/2022 6:00:00 AM 4.64 40.352 0.293 7.2 11.5 12.41
12/31/2022 6:15:00 AM 4.66 40.388 0.293 7.23 12.16 12.4
12/31/2022 6:30:00 AM 4.67 40.406 0.293 7.19 11.5 12.39
12/31/2022 6:45:00 AM 4.69 40.442 0.293 7.18 11.1 12.37
12/31/2022 7:00:00 AM 4.71 40.478 0.293 7.18 11.68 12.32
12/31/2022 7:15:00 AM 4.73 40.514 0.293 7.22 11.53 12.35
12/31/2022 7:30:00 AM 4.75 40.55 0.293 7.19 11.19 12.36
12/31/2022 7:45:00 AM 4.77 40.586 0.293 7.19 11 12.36
12/31/2022 8:00:00 AM 4.79 40.622 0.293 7.22 11.15 12.36
12/31/2022 8:15:00 AM 4.81 40.658 0.293 7.17 11.35 12.36
12/31/2022 8:30:00 AM 4.84 40.712 0.293 7.18 10.72 12.38
12/31/2022 8:45:00 AM 4.87 40.766 0.293 7.18 14.36 12.37
12/31/2022 9:00:00 AM 4.91 40.838 0.293 7.19 12.2 12.38
12/31/2022 9:15:00 AM 4.96 40.928 0.293 7.23 11.84 12.42
12/31/2022 9:30:00 AM 5.01 41.018 0.293 7.19 11.74 12.44
12/31/2022 9:45:00 AM 5.06 41.108 0.293 7.24 11.75 12.43
12/31/2022 10:00:00 AM 5.12 41.216 0.293 7.23 11.62 12.5
12/31/2022 10:15:00 AM 5.18 41.324 0.293 7.24 11.73 12.54
12/31/2022 10:30:00 AM 5.25 41.45 0.293 7.22 12.23 12.56
12/31/2022 10:45:00 AM 5.32 41.576 0.293 7.27 12.06 12.58
12/31/2022 11:00:00 AM 5.38 41.684 0.293 7.23 13.04 12.58
12/31/2022 11:15:00 AM 5.46 41.828 0.293 7.23 12.24 12.61
12/31/2022 11:30:00 AM 5.53 41.954 0.293 7.28 12.33 12.63
12/31/2022 11:45:00 AM 5.6 42.08 0.293 7.29 12.33 12.64
12/31/2022 12:00:00 PM 5.67 42.206 0.293 7.26 12.27 12.64
12/31/2022 12:15:00 PM 5.75 42.35 0.293 7.27 11.67 12.67
12/31/2022 12:30:00 PM 5.83 42.494 0.293 7.29 11.92 12.66
12/31/2022 12:45:00 PM 5.91 42.638 0.293 7.28 12.11 12.66
12/31/2022 1:00:00 PM 5.99 42.782 0.292 7.31 11.92 12.63
12/31/2022 1:15:00 PM 6.04 42.872 0.292 7.27 11.96 12.62
12/31/2022 1:30:00 PM 6.1 42.98 0.292 7.33 11.98 12.6
12/31/2022 1:45:00 PM 6.17 43.106 0.292 7.31 12.03 12.57
12/31/2022 2:00:00 PM 6.23 43.214 0.292 7.31 11.91 12.55
12/31/2022 2:15:00 PM 6.28 43.304 0.292 7.29 11.76 12.53
12/31/2022 2:30:00 PM 6.33 43.394 0.292 7.28 11.96 12.49
12/31/2022 2:45:00 PM 6.37 43.466 0.292 7.29 12.08 12.45
12/31/2022 3:00:00 PM 6.41 43.538 0.292 7.33 12.23 12.43
12/31/2022 3:15:00 PM 6.44 43.592 0.292 7.32 11.68 12.38
12/31/2022 3:30:00 PM 6.46 43.628 0.292 7.33 12.17 12.36
12/31/2022 3:45:00 PM 6.48 43.664 0.292 7.26 12.12 12.31
12/31/2022 4:00:00 PM 6.5 43.7 0.292 7.31 12.04 12.25
12/31/2022 4:15:00 PM 6.53 43.754 0.292 7.26 12.43 12.17
12/31/2022 4:30:00 PM 6.55 43.79 0.292 7.3 12.91 12.17
12/31/2022 4:45:00 PM 6.57 43.826 0.292 7.26 11.79 12.11
12/31/2022 5:00:00 PM 6.59 43.862 0.292 7.29 12.7 12.08
12/31/2022 5:15:00 PM 6.61 43.898 0.292 7.23 12.41 12.01
12/31/2022 5:30:00 PM 6.62 43.916 0.292 7.28 20.6 11.99
12/31/2022 5:45:00 PM 6.64 43.952 0.292 7.28 13.72 11.95
12/31/2022 6:00:00 PM 6.66 43.988 0.291 7.28 13.59 11.91
12/31/2022 6:15:00 PM 6.69 44.042 0.291 7.24 13.29 11.87
12/31/2022 6:30:00 PM 6.7 44.06 0.291 7.24 13.86 11.85
12/31/2022 6:45:00 PM 6.72 44.096 0.29 7.22 13.59 11.82
12/31/2022 7:00:00 PM 6.74 44.132 0.29 7.28 13.48 11.79
12/31/2022 7:15:00 PM 6.76 44.168 0.29 7.25 15.12 11.77
12/31/2022 7:30:00 PM 6.77 44.186 0.29 7.27 10.58 11.73
12/31/2022 7:45:00 PM 6.79 44.222 0.29 7.25 11.23 11.7
12/31/2022 8:00:00 PM 6.82 44.276 0.289 7.26 10.8 11.7
12/31/2022 8:15:00 PM 6.85 44.33 0.288 7.24 10.89 11.66
12/31/2022 8:30:00 PM 6.88 44.384 0.287 7.26 11.66 11.62
12/31/2022 8:45:00 PM 6.9 44.42 0.286 7.24 12.05 11.63
12/31/2022 9:00:00 PM 6.91 44.438 0.286 7.24 12.12 11.61
12/31/2022 9:15:00 PM 6.92 44.456 0.286 7.24 12.27 11.61
12/31/2022 9:30:00 PM 6.93 44.474 0.286 7.23 12.99 11.6
12/31/2022 9:45:00 PM 6.95 44.51 0.285 7.23 13.55 11.55
12/31/2022 10:00:00 PM 6.96 44.528 0.285 7.24 12.43 11.56
12/31/2022 10:15:00 PM 6.98 44.564 0.285 7.23 11.46 11.54
12/31/2022 10:30:00 PM 6.99 44.582 0.285 7.22 12.49 11.53
12/31/2022 10:45:00 PM 7 44.6 0.284 7.18 12.83 11.51
12/31/2022 11:00:00 PM 7 44.6 0.284 7.2 12.42 11.49
12/31/2022 11:15:00 PM 7.01 44.618 0.285 7.23 13.23 11.48
12/31/2022 11:30:00 PM 7.01 44.618 0.285 7.23 13.29 11.48
12/31/2022 11:45:00 PM 7.01 44.618 0.284 7.16 13.71 11.47
1/1/2023 12:00:00 AM 7.02 44.636 0.284 7.23 13.29 11.48
1/1/2023 12:15:00 AM 7.02 44.636 0.284 7.2 14.44 11.46
1/1/2023 12:30:00 AM 7.03 44.654 0.284 7.23 14.5 11.46
1/1/2023 12:45:00 AM 7.04 44.672 0.284 7.16 16.33 11.47
1/1/2023 1:00:00 AM 7.04 44.672 0.283 7.19 14.71 11.46
1/1/2023 1:15:00 AM 7.04 44.672 0.283 7.23 14.22 11.45
1/1/2023 1:30:00 AM 7.04 44.672 0.283 7.23 16.37 11.44
1/1/2023 1:45:00 AM 7.04 44.672 0.283 7.23 16.25 11.44
1/1/2023 2:00:00 AM 7.04 44.672 0.283 7.23 16.21 11.46
1/1/2023 2:15:00 AM 7.03 44.654 0.283 7.23 18.07 11.46
1/1/2023 2:30:00 AM 7.03 44.654 0.283 7.23 18.92 11.45
1/1/2023 2:45:00 AM 7.02 44.636 0.283 7.23 18.92 11.46
1/1/2023 3:00:00 AM 7.02 44.636 0.283 7.23 21.59 11.46
1/1/2023 3:15:00 AM 7.01 44.618 0.283 7.18 22.2 11.46
1/1/2023 3:30:00 AM 7.01 44.618 0.283 7.24 25.16 11.45
1/1/2023 3:45:00 AM 7.01 44.618 0.283 7.24 28.12 11.43
1/1/2023 4:00:00 AM 7.01 44.618 0.282 7.23 32.53 11.44
1/1/2023 4:15:00 AM 7.01 44.618 0.282 7.25 32.35 11.47
1/1/2023 4:30:00 AM 7.02 44.636 0.282 7.24 36.41 11.48
1/1/2023 4:45:00 AM 7.01 44.618 0.282 7.19 38.04 11.47
1/1/2023 5:00:00 AM 6.99 44.582 0.283 7.26 37.57 11.48
1/1/2023 5:15:00 AM 6.97 44.546 0.284 7.26 41.86 11.49
1/1/2023 5:30:00 AM 6.95 44.51 0.284 7.24 41.15 11.49
1/1/2023 5:45:00 AM 6.93 44.474 0.285 7.27 41.21 11.46
1/1/2023 6:00:00 AM 6.91 44.438 0.286 7.25 39.5 11.5
1/1/2023 6:15:00 AM 6.89 44.402 0.286 7.27 38.85 11.51
1/1/2023 6:30:00 AM 6.88 44.384 0.288 7.28 40.42 11.5
1/1/2023 6:45:00 AM 6.86 44.348 0.289 7.25 40.19 11.51
1/1/2023 7:00:00 AM 6.84 44.312 0.291 7.3 38.27 11.5
1/1/2023 7:15:00 AM 6.82 44.276 0.293 7.3 37.25 11.51
1/1/2023 7:30:00 AM 6.8 44.24 0.295 7.3 37.37 11.5
1/1/2023 7:45:00 AM 6.77 44.186 0.297 7.26 34.92 11.51
1/1/2023 8:00:00 AM 6.76 44.168 0.299 7.28 34.39 11.51
1/1/2023 8:15:00 AM 6.74 44.132 0.3 7.32 33.76 11.53
1/1/2023 8:30:00 AM 6.74 44.132 0.301 7.31 33.99 11.55
1/1/2023 8:45:00 AM 6.77 44.186 0.301 7.32 32.04 11.59
1/1/2023 9:00:00 AM 6.85 44.33 0.301 7.3 30.68 11.63
1/1/2023 9:15:00 AM 6.89 44.402 0.301 7.33 58.52 11.61
1/1/2023 9:30:00 AM 6.91 44.438 0.3 7.35 32.31 11.66
1/1/2023 9:45:00 AM 6.95 44.51 0.299 7.35 31.43 11.71
1/1/2023 10:00:00 AM 7 44.6 0.298 7.34 29.89 11.75
1/1/2023 10:15:00 AM 7.09 44.762 0.297 7.36 27.52 11.8
1/1/2023 10:30:00 AM 7.18 44.924 0.295 7.35 24.35 11.86
1/1/2023 10:45:00 AM 7.27 45.086 0.294 7.37 23.81 11.9
1/1/2023 11:00:00 AM 7.38 45.284 0.293 7.38 23.5 11.91
1/1/2023 11:15:00 AM 7.47 45.446 0.292 7.38 21.22 11.95
1/1/2023 11:30:00 AM 7.56 45.608 0.291 7.33 21.19 11.97
1/1/2023 11:45:00 AM 7.65 45.77 0.29 7.39 23.44 11.99
1/1/2023 12:00:00 PM 7.73 45.914 0.289 7.39 22.95 12.01
1/1/2023 12:15:00 PM 7.84 46.112 0.289 7.39 24.39 12.01
1/1/2023 12:30:00 PM 7.92 46.256 0.288 7.4 22.5 12.03
1/1/2023 12:45:00 PM 7.88 46.184 0.287 7.4 22.23 11.99
1/1/2023 1:00:00 PM 7.95 46.31 0.287 7.4 21.81 12.01
1/1/2023 1:15:00 PM 8.05 46.49 0.286 7.35 23.63 12.02
1/1/2023 1:30:00 PM 8.16 46.688 0.286 7.41 22.24 12.02
1/1/2023 1:45:00 PM 8.25 46.85 0.285 7.41 22.7 12.01
1/1/2023 2:00:00 PM 8.34 47.012 0.285 7.37 39.07 12.01
1/1/2023 2:15:00 PM 8.33 46.994 0.285 7.41 25.96 11.99
1/1/2023 2:30:00 PM 8.4 47.12 0.284 7.41 25.76 12
1/1/2023 2:45:00 PM 8.4 47.12 0.284 7.4 24.06 11.97
1/1/2023 3:00:00 PM 8.38 47.084 0.284 7.34 23.28 11.94
1/1/2023 3:15:00 PM 8.36 47.048 0.283 7.39 22.82 11.92
1/1/2023 3:30:00 PM 8.33 46.994 0.283 7.38 21.98 11.89
1/1/2023 3:45:00 PM 8.28 46.904 0.282 7.32 21.97 11.84
1/1/2023 4:00:00 PM 8.23 46.814 0.282 7.33 28.78 11.76
1/1/2023 4:15:00 PM 8.18 46.724 0.281 7.36 20.32 11.74
1/1/2023 4:30:00 PM 8.12 46.616 0.281 7.29 26.13 11.64
1/1/2023 4:45:00 PM 8.07 46.526 0.28 7.34 21.87 11.68
1/1/2023 5:00:00 PM 8.03 46.454 0.28 7.28 21.8 11.63
1/1/2023 5:15:00 PM 7.97 46.346 0.279 7.32 21.03 11.58
1/1/2023 5:30:00 PM 7.9 46.22 0.279 7.32 23.4 11.55
1/1/2023 5:45:00 PM 7.83 46.094 0.278 7.27 80.68 11.48
1/1/2023 6:00:00 PM 7.76 45.968 0.278 7.3 19.81 11.49
1/1/2023 6:15:00 PM 7.69 45.842 0.278 7.3 19.82 11.48
1/1/2023 6:30:00 PM 7.61 45.698 0.278 7.25 21.38 11.45
1/1/2023 6:45:00 PM 7.54 45.572 0.277 7.28 18.21 11.43
1/1/2023 7:00:00 PM 7.47 45.446 0.277 7.28 20.13 11.43
1/1/2023 7:15:00 PM 7.4 45.32 0.277 7.26 29.02 11.4
1/1/2023 7:30:00 PM 7.34 45.212 0.277 7.24 44.11 11.39
1/1/2023 7:45:00 PM 7.31 45.158 0.277 7.26 17.04 11.4
1/1/2023 8:00:00 PM 7.27 45.086 0.277 7.26 19.14 11.4
1/1/2023 8:15:00 PM 7.24 45.032 0.277 7.23 18.79 11.39
1/1/2023 8:30:00 PM 7.22 44.996 0.277 7.25 16.85 11.39
1/1/2023 8:45:00 PM 7.19 44.942 0.277 7.25 16.83 11.39
1/1/2023 9:00:00 PM 7.15 44.87 0.277 7.19 15.9 11.38
1/1/2023 9:15:00 PM 7.11 44.798 0.277 7.22 15.26 11.38
1/1/2023 9:30:00 PM 7.1 44.78 0.277 7.25 16.54 11.38
1/1/2023 9:45:00 PM 7.08 44.744 0.277 7.24 15.61 11.39
1/1/2023 10:00:00 PM 7.03 44.654 0.277 7.18 17.92 11.38
1/1/2023 10:15:00 PM 6.98 44.564 0.277 7.22 14.66 11.38
1/1/2023 10:30:00 PM 6.94 44.492 0.277 7.23 15.62 11.38
1/1/2023 10:45:00 PM 6.88 44.384 0.278 7.22 15.52 11.41
1/1/2023 11:00:00 PM 6.83 44.294 0.278 7.24 16.55 11.41
1/1/2023 11:15:00 PM 6.78 44.204 0.278 7.19 15.86 11.42
1/1/2023 11:30:00 PM 6.71 44.078 0.278 7.24 16.21 11.44
1/1/2023 11:45:00 PM 6.66 43.988 0.278 7.21 15.57 11.45
1/2/2023 12:00:00 AM 6.61 43.898 0.278 7.24 13.27 11.47
1/2/2023 12:15:00 AM 6.54 43.772 0.279 7.23 15.34 11.48
1/2/2023 12:30:00 AM 6.48 43.664 0.279 7.23 14.54 11.5
1/2/2023 12:45:00 AM 6.42 43.556 0.279 7.23 12.75 11.53
1/2/2023 1:00:00 AM 6.37 43.466 0.279 7.18 12.42 11.53
1/2/2023 1:15:00 AM 6.32 43.376 0.279 7.23 12.97 11.55
1/2/2023 1:30:00 AM 6.27 43.286 0.279 7.16 12.23 11.57
1/2/2023 1:45:00 AM 6.22 43.196 0.279 7.18 12.95 11.58
1/2/2023 2:00:00 AM 6.18 43.124 0.279 7.22 13.13 11.59
1/2/2023 2:15:00 AM 6.14 43.052 0.28 7.16 12.48 11.58
1/2/2023 2:30:00 AM 6.11 42.998 0.28 7.22 12.47 11.61
1/2/2023 2:45:00 AM 6.07 42.926 0.28 7.18 12.42 11.63
1/2/2023 3:00:00 AM 6.04 42.872 0.28 7.21 13.73 11.64
1/2/2023 3:15:00 AM 6 42.8 0.28 7.22 14.86 11.66
1/2/2023 3:30:00 AM 5.98 42.764 0.28 7.23 11.74 11.67
1/2/2023 3:45:00 AM 5.96 42.728 0.28 7.23 12.93 11.69
1/2/2023 4:00:00 AM 5.94 42.692 0.281 7.22 11.78 11.7
1/2/2023 4:15:00 AM 5.92 42.656 0.281 7.23 11.55 11.7
1/2/2023 4:30:00 AM 5.9 42.62 0.281 7.22 11.49 11.71
1/2/2023 4:45:00 AM 5.88 42.584 0.281 7.22 11.27 11.72
1/2/2023 5:00:00 AM 5.87 42.566 0.281 7.22 10.9 11.74
1/2/2023 5:15:00 AM 5.85 42.53 0.281 7.23 11.27 11.74
1/2/2023 5:30:00 AM 5.84 42.512 0.281 7.22 10.81 11.74
1/2/2023 5:45:00 AM 5.82 42.476 0.282 7.22 10.71 11.75
1/2/2023 6:00:00 AM 5.8 42.44 0.282 7.22 10.36 11.77
1/2/2023 6:15:00 AM 5.78 42.404 0.282 7.21 10.97 11.78
1/2/2023 6:30:00 AM 5.76 42.368 0.282 7.22 10.45 11.8
1/2/2023 6:45:00 AM 5.74 42.332 0.282 7.22 11.57 11.81
1/2/2023 7:00:00 AM 5.72 42.296 0.282 7.22 10.08 11.81
1/2/2023 7:15:00 AM 5.71 42.278 0.282 7.21 9.93 11.82
1/2/2023 7:30:00 AM 5.7 42.26 0.283 7.21 9.87 11.84
1/2/2023 7:45:00 AM 5.69 42.242 0.283 7.17 9.6 11.84
1/2/2023 8:00:00 AM 5.68 42.224 0.283 7.23 10.2 11.88
1/2/2023 8:15:00 AM 5.69 42.242 0.283 7.23 9.6 11.92
1/2/2023 8:30:00 AM 5.71 42.278 0.284 7.18 9.29 11.97
1/2/2023 8:45:00 AM 5.75 42.35 0.284 7.2 8.94 12.04
1/2/2023 9:00:00 AM 5.79 42.422 0.284 7.22 9.33 12.1
1/2/2023 9:15:00 AM 5.84 42.512 0.284 7.26 8.91 12.15
1/2/2023 9:30:00 AM 5.88 42.584 0.285 7.22 8.48 12.21
1/2/2023 9:45:00 AM 5.92 42.656 0.285 7.27 8.52 12.24
1/2/2023 10:00:00 AM 5.97 42.746 0.285 7.29 8.06 12.29
1/2/2023 10:15:00 AM 6.02 42.836 0.285 7.29 8.48 12.34
1/2/2023 10:30:00 AM 6.06 42.908 0.286 7.26 8.5 12.36
1/2/2023 10:45:00 AM 6.11 42.998 0.286 7.31 8.27 12.42
1/2/2023 11:00:00 AM 6.19 43.142 0.286 7.28 8.06 12.46
1/2/2023 11:15:00 AM 6.28 43.304 0.286 7.32 7.71 12.5
1/2/2023 11:30:00 AM 6.37 43.466 0.286 7.31 8.47 12.54
1/2/2023 11:45:00 AM 6.49 43.682 0.286 7.34 7.88 12.59
1/2/2023 12:00:00 PM 6.59 43.862 0.286 7.34 7.71 12.63
1/2/2023 12:15:00 PM 6.71 44.078 0.286 7.32 7.83 12.67
1/2/2023 12:30:00 PM 6.79 44.222 0.287 7.38 7.57 12.68
1/2/2023 12:45:00 PM 6.86 44.348 0.287 7.36 7.3 12.65
1/2/2023 1:00:00 PM 6.92 44.456 0.287 7.39 7.35 12.65
1/2/2023 1:15:00 PM 6.96 44.528 0.287 7.35 7.83 12.63
1/2/2023 1:30:00 PM 7.04 44.672 0.287 7.39 7.81 12.63
1/2/2023 1:45:00 PM 7.12 44.816 0.287 7.35 7.7 12.63
1/2/2023 2:00:00 PM 7.16 44.888 0.287 7.37 7.25 12.62
1/2/2023 2:15:00 PM 7.19 44.942 0.287 7.36 7.74 12.57
1/2/2023 2:30:00 PM 7.24 45.032 0.287 7.35 7.46 12.54
1/2/2023 2:45:00 PM 7.3 45.14 0.287 7.37 7.79 12.54
1/2/2023 3:00:00 PM 7.32 45.176 0.287 7.34 6.81 12.46
1/2/2023 3:15:00 PM 7.34 45.212 0.288 7.35 7.52 12.4
1/2/2023 3:30:00 PM 7.36 45.248 0.288 7.38 7.87 12.31
1/2/2023 3:45:00 PM 7.38 45.284 0.288 7.37 6.94 12.29
1/2/2023 4:00:00 PM 7.39 45.302 0.288 7.36 7.48 12.23
1/2/2023 4:15:00 PM 7.4 45.32 0.288 7.34 7.06 12.16
1/2/2023 4:30:00 PM 7.4 45.32 0.288 7.35 7.24 12.1
1/2/2023 4:45:00 PM 7.4 45.32 0.289 7.31 6.92 12.05
1/2/2023 5:00:00 PM 7.4 45.32 0.289 7.33 7.43 11.99
1/2/2023 5:15:00 PM 7.39 45.302 0.289 7.32 7.34 11.94
1/2/2023 5:30:00 PM 7.39 45.302 0.289 7.31 8.88 11.89
1/2/2023 5:45:00 PM 7.38 45.284 0.289 7.31 7.53 11.84
1/2/2023 6:00:00 PM 7.39 45.302 0.289 7.31 15.05 11.78
1/2/2023 6:15:00 PM 7.39 45.302 0.289 7.29 9.92 11.76
1/2/2023 6:30:00 PM 7.4 45.32 0.29 7.29 7.73 11.74
1/2/2023 6:45:00 PM 7.41 45.338 0.29 7.24 7.99 11.7
1/2/2023 7:00:00 PM 7.41 45.338 0.29 7.28 7.97 11.67
1/2/2023 7:15:00 PM 7.41 45.338 0.29 7.28 7.75 11.62
1/2/2023 7:30:00 PM 7.41 45.338 0.29 7.23 7.88 11.63
1/2/2023 7:45:00 PM 7.42 45.356 0.29 7.28 8.01 11.61
1/2/2023 8:00:00 PM 7.43 45.374 0.29 7.28 8.76 11.58
1/2/2023 8:15:00 PM 7.44 45.392 0.29 7.28 7.78 11.56
1/2/2023 8:30:00 PM 7.45 45.41 0.29 7.27 8.32 11.54
1/2/2023 8:45:00 PM 7.46 45.428 0.29 7.27 8.34 11.54
1/2/2023 9:00:00 PM 7.47 45.446 0.29 7.25 8.56 11.52
1/2/2023 9:15:00 PM 7.46 45.428 0.29 7.26 8.43 11.48
1/2/2023 9:30:00 PM 7.46 45.428 0.29 7.23 7.69 11.49
1/2/2023 9:45:00 PM 7.47 45.446 0.29 7.22 7.32 11.46
1/2/2023 10:00:00 PM 7.48 45.464 0.29 7.26 7.09 11.47
1/2/2023 10:15:00 PM 7.49 45.482 0.29 7.22 6.93 11.47
1/2/2023 10:30:00 PM 7.49 45.482 0.29 7.26 14.26 11.45
1/2/2023 10:45:00 PM 7.5 45.5 0.29 7.26 8.07 11.45
1/2/2023 11:00:00 PM 7.5 45.5 0.291 7.26 7.45 11.44
1/2/2023 11:15:00 PM 7.51 45.518 0.291 7.25 6.84 11.42
1/2/2023 11:30:00 PM 7.51 45.518 0.291 7.25 7.79 11.43
1/2/2023 11:45:00 PM 7.51 45.518 0.291 7.22 6.95 11.41
1/3/2023 12:00:00 AM 7.51 45.518 0.291 7.25 7.86 11.4
1/3/2023 12:15:00 AM 7.51 45.518 0.291 7.25 7.69 11.4
1/3/2023 12:30:00 AM 7.51 45.518 0.291 7.23 7.25 11.4
1/3/2023 12:45:00 AM 7.51 45.518 0.291 7.24 8.06 11.39
1/3/2023 1:00:00 AM 7.51 45.518 0.291 7.24 7.44 11.38
1/3/2023 1:15:00 AM 7.5 45.5 0.292 7.24 7.24 11.38
1/3/2023 1:30:00 AM 7.5 45.5 0.292 7.2 7.5 11.38
1/3/2023 1:45:00 AM 7.5 45.5 0.292 7.21 7.45 11.38
1/3/2023 2:00:00 AM 7.5 45.5 0.292 7.24 7.49 11.38
1/3/2023 2:15:00 AM 7.5 45.5 0.292 7.23 6.95 11.37
1/3/2023 2:30:00 AM 7.49 45.482 0.292 7.25 8.45 11.37
1/3/2023 2:45:00 AM 7.49 45.482 0.292 7.23 7.38 11.37
1/3/2023 3:00:00 AM 7.49 45.482 0.292 7.17 8.48 11.36
1/3/2023 3:15:00 AM 7.49 45.482 0.292 7.24 9.31 11.36
1/3/2023 3:30:00 AM 7.49 45.482 0.292 7.24 8.52 11.37
1/3/2023 3:45:00 AM 7.49 45.482 0.292 7.22 49.73 11.25
1/3/2023 4:00:00 AM 7.49 45.482 0.292 7.24 7.65 11.38
1/3/2023 4:15:00 AM 7.5 45.5 0.292 7.24 7.56 11.37
1/3/2023 4:30:00 AM 7.5 45.5 0.292 7.24 8.12 11.36
1/3/2023 4:45:00 AM 7.5 45.5 0.292 7.22 6.97 11.36
1/3/2023 5:00:00 AM 7.5 45.5 0.292 7.24 7.31 11.35
1/3/2023 5:15:00 AM 7.48 45.464 0.293 7.24 7.58 11.35
1/3/2023 5:30:00 AM 7.46 45.428 0.293 7.24 7.29 11.36
1/3/2023 5:45:00 AM 7.44 45.392 0.293 7.24 7.28 11.36
1/3/2023 6:00:00 AM 7.44 45.392 0.293 7.22 7.44 11.36
1/3/2023 6:15:00 AM 7.44 45.392 0.293 7.24 7.43 11.35
1/3/2023 6:30:00 AM 7.42 45.356 0.294 7.21 7.79 11.36
1/3/2023 6:45:00 AM 7.42 45.356 0.294 7.24 8.5 11.36
1/3/2023 7:00:00 AM 7.42 45.356 0.294 7.23 7.65 11.34
1/3/2023 7:15:00 AM 7.42 45.356 0.294 7.23 9.42 11.35
1/3/2023 7:30:00 AM 7.41 45.338 0.294 7.23 7.99 11.36
1/3/2023 7:45:00 AM 7.42 45.356 0.295 7.22 8.93 11.37
1/3/2023 8:00:00 AM 7.43 45.374 0.295 7.22 8.97 11.37
1/3/2023 8:15:00 AM 7.44 45.392 0.295 7.23 8.37 11.37
1/3/2023 8:30:00 AM 7.45 45.41 0.295 7.24 7.37 11.43
1/3/2023 8:45:00 AM 7.47 45.446 0.295 7.25 7.56 11.48
1/3/2023 9:00:00 AM 7.5 45.5 0.295 7.25 7.72 11.49
1/3/2023 9:15:00 AM 7.54 45.572 0.295 7.25 7.71 11.55
1/3/2023 9:30:00 AM 7.55 45.59 0.295 7.27 7.67 11.53
1/3/2023 9:45:00 AM 7.58 45.644 0.295 7.26 6.55 11.56
1/3/2023 10:00:00 AM 7.61 45.698 0.294 7.27 7.07 11.57
1/3/2023 10:15:00 AM 7.65 45.77 0.294 7.28 11.72 11.58
1/3/2023 10:30:00 AM 7.68 45.824 0.294 7.28 7.57 11.58
1/3/2023 10:45:00 AM 7.72 45.896 0.293 7.28 9.4 11.59
1/3/2023 11:00:00 AM 7.76 45.968 0.293 7.29 7.2 11.67
1/3/2023 11:15:00 AM 7.81 46.058 0.294 7.31 7.77 11.72
1/3/2023 11:30:00 AM 7.84 46.112 0.294 7.31 7.58 11.75
1/3/2023 11:45:00 AM 7.9 46.22 0.294 7.32 7.88 11.79
1/3/2023 12:00:00 PM 7.98 46.364 0.294 7.28 7.44 11.85
1/3/2023 12:15:00 PM 8.04 46.472 0.294 7.33 7.86 11.87
1/3/2023 12:30:00 PM 8.1 46.58 0.293 7.34 7.47 11.87
1/3/2023 12:45:00 PM 8.15 46.67 0.293 7.34 89.78 11.87
1/3/2023 1:00:00 PM 8.21 46.778 0.293 7.35 8.19 11.9
1/3/2023 1:15:00 PM 8.25 46.85 0.293 7.35 7.87 11.88
1/3/2023 1:30:00 PM 8.29 46.922 0.293 7.36 7.08 11.87
1/3/2023 1:45:00 PM 8.34 47.012 0.293 7.36 6.63 11.87
1/3/2023 2:00:00 PM 8.41 47.138 0.293 7.36 7.41 11.91
1/3/2023 2:15:00 PM 8.44 47.192 0.293 7.34 6.95 11.91
1/3/2023 2:30:00 PM 8.49 47.282 0.293 7.35 6.88 11.9
1/3/2023 2:45:00 PM 8.54 47.372 0.293 7.38 7.09 11.91
1/3/2023 3:00:00 PM 8.59 47.462 0.293 7.38 6.78 11.91
1/3/2023 3:15:00 PM 8.64 47.552 0.293 7.35 6.61 11.91
1/3/2023 3:30:00 PM 8.68 47.624 0.293 7.39 6.12 11.91
1/3/2023 3:45:00 PM 8.67 47.606 0.292 7.39 7.21 11.89
1/3/2023 4:00:00 PM 8.68 47.624 0.292 7.38 6.69 11.85
1/3/2023 4:15:00 PM 8.69 47.642 0.292 7.34 6.38 11.78
1/3/2023 4:30:00 PM 8.68 47.624 0.292 7.37 6.64 11.72
1/3/2023 4:45:00 PM 8.67 47.606 0.292 7.36 6.79 11.66
1/3/2023 5:00:00 PM 8.67 47.606 0.292 7.36 7.17 11.58
1/3/2023 5:15:00 PM 8.66 47.588 0.292 7.34 6.79 11.52
1/3/2023 5:30:00 PM 8.66 47.588 0.292 7.33 8.52 11.46
1/3/2023 5:45:00 PM 8.65 47.57 0.291 7.33 10.22 11.42
1/3/2023 6:00:00 PM 8.63 47.534 0.291 7.32 7.18 11.38
1/3/2023 6:15:00 PM 8.61 47.498 0.291 7.31 7.61 11.34
1/3/2023 6:30:00 PM 8.59 47.462 0.291 7.31 7.69 11.29
1/3/2023 6:45:00 PM 8.57 47.426 0.291 7.29 7.85 11.27
1/3/2023 7:00:00 PM 8.56 47.408 0.291 7.3 7.53 11.23
1/3/2023 7:15:00 PM 8.54 47.372 0.291 7.29 9.11 11.21
1/3/2023 7:30:00 PM 8.52 47.336 0.291 7.28 7.88 11.19
1/3/2023 7:45:00 PM 8.51 47.318 0.291 7.29 8.26 11.16
1/3/2023 8:00:00 PM 8.48 47.264 0.291 7.29 8.22 11.15
1/3/2023 8:15:00 PM 8.47 47.246 0.291 7.28 8.06 11.12
1/3/2023 8:30:00 PM 8.45 47.21 0.292 7.27 7.63 11.11
1/3/2023 8:45:00 PM 8.44 47.192 0.292 7.27 8.73 11.11
1/3/2023 9:00:00 PM 8.43 47.174 0.292 7.27 15.27 11.07
1/3/2023 9:15:00 PM 8.42 47.156 0.292 7.27 8.23 11.08
1/3/2023 9:30:00 PM 8.41 47.138 0.292 7.27 7.7 11.08
1/3/2023 9:45:00 PM 8.41 47.138 0.292 7.27 8.95 11.07
1/3/2023 10:00:00 PM 8.41 47.138 0.292 7.27 8.35 11.06
1/3/2023 10:15:00 PM 8.4 47.12 0.293 7.22 8.57 11.05
1/3/2023 10:30:00 PM 8.4 47.12 0.293 7.27 8.1 11.04
1/3/2023 10:45:00 PM 8.4 47.12 0.293 7.27 8.72 11.03
1/3/2023 11:00:00 PM 8.4 47.12 0.293 7.27 8.62 11.03
1/3/2023 11:15:00 PM 8.4 47.12 0.294 7.27 8.56 11.03
1/3/2023 11:30:00 PM 8.39 47.102 0.294 7.24 8.73 11.03
1/3/2023 11:45:00 PM 8.38 47.084 0.294 7.22 8.21 11.03
1/4/2023 12:00:00 AM 8.37 47.066 0.295 7.22 8.58 11.02
1/4/2023 12:15:00 AM 8.36 47.048 0.295 7.27 8.16 11.02
1/4/2023 12:30:00 AM 8.35 47.03 0.295 7.27 7.38 11.02
1/4/2023 12:45:00 AM 8.34 47.012 0.296 7.27 7.75 11.01
1/4/2023 1:00:00 AM 8.32 46.976 0.296 7.27 7.94 11.03
1/4/2023 1:15:00 AM 8.3 46.94 0.296 7.27 7.71 11.02
1/4/2023 1:30:00 AM 8.29 46.922 0.296 7.21 7.65 11.01
1/4/2023 1:45:00 AM 8.27 46.886 0.297 7.26 8.84 11.02
1/4/2023 2:00:00 AM 8.26 46.868 0.297 7.27 7.79 11.02
1/4/2023 2:15:00 AM 8.24 46.832 0.297 7.27 7.86 11.02
1/4/2023 2:30:00 AM 8.23 46.814 0.297 7.24 8.81 11.02
1/4/2023 2:45:00 AM 8.21 46.778 0.297 7.27 9.14 11.04
1/4/2023 3:00:00 AM 8.2 46.76 0.297 7.27 8.27 11.02
1/4/2023 3:15:00 AM 8.17 46.706 0.298 7.26 9.72 11.04
1/4/2023 3:30:00 AM 8.15 46.67 0.298 7.26 8.64 11.04
1/4/2023 3:45:00 AM 8.13 46.634 0.298 7.2 8.22 11.03
1/4/2023 4:00:00 AM 8.1 46.58 0.298 7.26 7.4 11.02
1/4/2023 4:15:00 AM 8.08 46.544 0.298 7.25 7.81 11.05
1/4/2023 4:30:00 AM 8.06 46.508 0.298 7.26 8.44 11.05
1/4/2023 4:45:00 AM 8.04 46.472 0.298 7.24 8 11.05
1/4/2023 5:00:00 AM 8.02 46.436 0.298 7.21 8.53 11.06
1/4/2023 5:15:00 AM 7.99 46.382 0.298 7.26 7.94 11.04
1/4/2023 5:30:00 AM 7.97 46.346 0.298 7.26 8.52 11.06
1/4/2023 5:45:00 AM 7.94 46.292 0.298 7.25 8.56 11.07
1/4/2023 6:00:00 AM 7.92 46.256 0.298 7.25 8.08 11.07
1/4/2023 6:15:00 AM 7.89 46.202 0.298 7.24 7.62 11.09
1/4/2023 6:30:00 AM 7.87 46.166 0.298 7.19 8.08 11.1
1/4/2023 6:45:00 AM 7.85 46.13 0.298 7.25 8.48 11.1
1/4/2023 7:00:00 AM 7.83 46.094 0.298 7.25 8.18 11.09
1/4/2023 7:15:00 AM 7.81 46.058 0.298 7.25 7.95 11.11
1/4/2023 7:30:00 AM 7.79 46.022 0.298 7.25 7.81 11.11
1/4/2023 7:45:00 AM 7.77 45.986 0.298 7.26 8.31 11.13
1/4/2023 8:00:00 AM 7.76 45.968 0.298 7.26 8.5 11.16
1/4/2023 8:15:00 AM 7.76 45.968 0.298 7.26 7.81 11.21
1/4/2023 8:30:00 AM 7.78 46.004 0.297 7.25 7.71 11.25
1/4/2023 8:45:00 AM 7.8 46.04 0.297 7.26 8.43 11.34
1/4/2023 9:00:00 AM 7.83 46.094 0.297 7.29 7.54 11.41
1/4/2023 9:15:00 AM 7.86 46.148 0.297 7.29 7.8 11.47
1/4/2023 9:30:00 AM 7.91 46.238 0.297 7.31 8.05 11.55
1/4/2023 9:45:00 AM 7.97 46.346 0.297 7.32 7.37 11.64
1/4/2023 10:00:00 AM 8.04 46.472 0.297 7.34 7.24 11.71
1/4/2023 10:15:00 AM 8.11 46.598 0.297 7.32 7.85 11.79
1/4/2023 10:30:00 AM 8.2 46.76 0.297 7.34 7.46 11.86
1/4/2023 10:45:00 AM 8.29 46.922 0.296 7.37 7.75 11.93
1/4/2023 11:00:00 AM 8.39 47.102 0.296 7.38 7.48 12
1/4/2023 11:15:00 AM 8.51 47.318 0.296 7.4 7.43 12.06
1/4/2023 11:30:00 AM 8.63 47.534 0.296 7.41 7.69 12.11
1/4/2023 11:45:00 AM 8.7 47.66 0.296 7.42 10.2 12.14
1/4/2023 12:00:00 PM 8.81 47.858 0.296 7.42 8.01 12.18
1/4/2023 12:15:00 PM 8.92 48.056 0.296 7.45 7.4 12.2
1/4/2023 12:30:00 PM 9.03 48.254 0.296 7.45 9.03 12.22
1/4/2023 12:45:00 PM 9.12 48.416 0.295 7.46 7.83 12.22
1/4/2023 1:00:00 PM 9.2 48.56 0.295 7.47 7.03 12.21
1/4/2023 1:15:00 PM 9.28 48.704 0.295 7.47 7.73 12.19
1/4/2023 1:30:00 PM 9.34 48.812 0.295 7.47 6.73 12.15
1/4/2023 1:45:00 PM 9.4 48.92 0.295 7.47 6.87 12.11
1/4/2023 2:00:00 PM 9.46 49.028 0.295 7.47 6.92 12.06
1/4/2023 2:15:00 PM 9.52 49.136 0.295 7.47 6.59 12.02
1/4/2023 2:30:00 PM 9.58 49.244 0.295 7.41 6.47 11.96
1/4/2023 2:45:00 PM 9.64 49.352 0.295 7.46 6.27 11.91
1/4/2023 3:00:00 PM 9.66 49.388 0.295 7.45 6.01 11.85
1/4/2023 3:15:00 PM 9.69 49.442 0.295 7.45 5.84 11.76
1/4/2023 3:30:00 PM 9.71 49.478 0.295 7.38 7.97 11.67
1/4/2023 3:45:00 PM 9.71 49.478 0.295 7.43 6.67 11.6
1/4/2023 4:00:00 PM 9.71 49.478 0.294 7.42 6.89 11.53
1/4/2023 4:15:00 PM 9.69 49.442 0.294 7.4 6.84 11.46
1/4/2023 4:30:00 PM 9.68 49.424 0.294 7.39 6.66 11.38
1/4/2023 4:45:00 PM 9.67 49.406 0.294 7.38 6.99 11.33
1/4/2023 5:00:00 PM 9.67 49.406 0.294 7.37 7.02 11.27
1/4/2023 5:15:00 PM 9.68 49.424 0.294 7.36 13.82 11.19
1/4/2023 5:30:00 PM 9.7 49.46 0.294 7.35 144 11.14
1/4/2023 5:45:00 PM 9.71 49.478 0.294 7.29 7.15 11.09
1/4/2023 6:00:00 PM 9.73 49.514 0.293 7.34 6.74 11.02
1/4/2023 6:15:00 PM 9.75 49.55 0.293 7.34 5.51 10.97
1/4/2023 6:30:00 PM 9.76 49.568 0.293 7.33 6.83 10.94
1/4/2023 6:45:00 PM 9.78 49.604 0.293 7.32 7.01 10.9
1/4/2023 7:00:00 PM 9.79 49.622 0.293 7.32 6.61 10.86
1/4/2023 7:15:00 PM 9.8 49.64 0.293 7.31 6.48 10.8
1/4/2023 7:30:00 PM 9.84 49.712 0.293 7.31 6.24 10.78
1/4/2023 7:45:00 PM 9.87 49.766 0.293 7.31 6.1 10.75
1/4/2023 8:00:00 PM 9.91 49.838 0.293 7.28 6.37 10.73
1/4/2023 8:15:00 PM 9.95 49.91 0.293 7.3 6.17 10.71
1/4/2023 8:30:00 PM 9.98 49.964 0.294 7.3 6.26 10.67
1/4/2023 8:45:00 PM 10.02 50.036 0.294 7.3 6.7 10.64
1/4/2023 9:00:00 PM 10.06 50.108 0.294 7.3 7.14 10.63
1/4/2023 9:15:00 PM 10.08 50.144 0.294 7.29 6.11 10.6
1/4/2023 9:30:00 PM 10.11 50.198 0.294 7.29 6.4 10.58
1/4/2023 9:45:00 PM 10.12 50.216 0.294 7.29 7.88 10.56
1/4/2023 10:00:00 PM 10.14 50.252 0.294 7.27 7.14 10.52
1/4/2023 10:15:00 PM 10.17 50.306 0.294 7.29 5.67 10.51
1/4/2023 10:30:00 PM 10.18 50.324 0.294 7.28 6.12 10.5
1/4/2023 10:45:00 PM 10.19 50.342 0.294 7.28 5.6 10.48
1/4/2023 11:00:00 PM 10.19 50.342 0.294 7.28 6.34 10.47
1/4/2023 11:15:00 PM 10.2 50.36 0.294 7.28 5.92 10.46
1/4/2023 11:30:00 PM 10.19 50.342 0.294 7.28 5.8 10.46
1/4/2023 11:45:00 PM 10.19 50.342 0.294 7.28 5.84 10.47
1/5/2023 12:00:00 AM 10.18 50.324 0.294 7.27 6.01 10.48
1/5/2023 12:15:00 AM 10.16 50.288 0.294 7.28 5.63 10.45
1/5/2023 12:30:00 AM 10.13 50.234 0.294 7.22 5.75 10.48
1/5/2023 12:45:00 AM 10.12 50.216 0.294 7.24 5.52 10.45
1/5/2023 1:00:00 AM 10.11 50.198 0.294 7.28 6.19 10.43
1/5/2023 1:15:00 AM 10.09 50.162 0.294 7.27 6.22 10.46
1/5/2023 1:30:00 AM 10.09 50.162 0.294 7.21 5.38 10.47
1/5/2023 1:45:00 AM 10.08 50.144 0.294 7.27 5.49 10.47
1/5/2023 2:00:00 AM 10.06 50.108 0.294 7.26 5.4 10.47
1/5/2023 2:15:00 AM 10.05 50.09 0.295 7.26 5.31 10.47
1/5/2023 2:30:00 AM 10.03 50.054 0.295 7.26 5.71 10.46
1/5/2023 2:45:00 AM 10.01 50.018 0.295 7.27 5.26 10.48
1/5/2023 3:00:00 AM 9.99 49.982 0.295 7.26 5.49 10.49
1/5/2023 3:15:00 AM 9.98 49.964 0.295 7.26 5.94 10.49
1/5/2023 3:30:00 AM 9.97 49.946 0.295 7.26 5.63 10.48
1/5/2023 3:45:00 AM 9.96 49.928 0.295 7.2 5.8 10.48
1/5/2023 4:00:00 AM 9.94 49.892 0.295 7.25 6.13 10.47
1/5/2023 4:15:00 AM 9.93 49.874 0.295 7.25 31.32 10.46
1/5/2023 4:30:00 AM 9.91 49.838 0.295 7.25 6.31 10.47
1/5/2023 4:45:00 AM 9.88 49.784 0.295 7.25 8.78 10.48
1/5/2023 5:00:00 AM 9.85 49.73 0.295 7.25 5.76 10.5
1/5/2023 5:15:00 AM 9.81 49.658 0.295 7.25 5.45 10.5
1/5/2023 5:30:00 AM 9.79 49.622 0.296 7.24 5.48 10.49
1/5/2023 5:45:00 AM 9.76 49.568 0.296 7.25 7.18 10.5
1/5/2023 6:00:00 AM 9.73 49.514 0.296 7.25 6.02 10.49
1/5/2023 6:15:00 AM 9.68 49.424 0.296 7.25 6.74 10.51
1/5/2023 6:30:00 AM 9.65 49.37 0.296 7.24 6.04 10.53
1/5/2023 6:45:00 AM 9.62 49.316 0.296 7.24 6.25 10.51
1/5/2023 7:00:00 AM 9.59 49.262 0.296 7.25 7.42 10.52
1/5/2023 7:15:00 AM 9.54 49.172 0.296 7.25 5.97 10.55
1/5/2023 7:30:00 AM 9.51 49.118 0.296 7.25 6.24 10.56
1/5/2023 7:45:00 AM 9.48 49.064 0.296 7.25 6.64 10.57
1/5/2023 8:00:00 AM 9.44 48.992 0.296 7.25 6.21 10.61
1/5/2023 8:15:00 AM 9.41 48.938 0.296 7.25 6.74 10.68
1/5/2023 8:30:00 AM 9.39 48.902 0.296 7.26 5.79 10.73
1/5/2023 8:45:00 AM 9.4 48.92 0.296 7.27 5.39 10.89
1/5/2023 9:00:00 AM 9.41 48.938 0.296 7.26 7.47 10.96
1/5/2023 9:15:00 AM 9.43 48.974 0.296 7.28 5.24 11.08
1/5/2023 9:30:00 AM 9.46 49.028 0.296 7.31 5.01 11.17
1/5/2023 9:45:00 AM 9.5 49.1 0.296 7.33 5.58 11.28
1/5/2023 10:00:00 AM 9.56 49.208 0.296 7.35 5.08 11.37
1/5/2023 10:15:00 AM 9.65 49.37 0.296 7.37 4.94 11.47
1/5/2023 10:30:00 AM 9.73 49.514 0.296 7.38 5.31 11.57
1/5/2023 10:45:00 AM 9.82 49.676 0.296 7.4 5.58 11.65
1/5/2023 11:00:00 AM 9.88 49.784 0.296 7.41 4.98 11.71
1/5/2023 11:15:00 AM 9.91 49.838 0.296 7.42 5.08 11.73
1/5/2023 11:30:00 AM 10.03 50.054 0.296 7.44 4.89 11.81
1/5/2023 11:45:00 AM 10.08 50.144 0.296 7.45 5.13 11.85
1/5/2023 12:00:00 PM 10.17 50.306 0.296 7.47 5.07 11.89
1/5/2023 12:15:00 PM 10.24 50.432 0.296 7.47 5.1 11.91
1/5/2023 12:30:00 PM 10.26 50.468 0.296 7.43 5.34 11.92
1/5/2023 12:45:00 PM 10.38 50.684 0.296 7.5 5.12 11.95
1/5/2023 1:00:00 PM 10.5 50.9 0.296 7.52 4.78 11.98
1/5/2023 1:15:00 PM 10.49 50.882 0.296 7.52 5.28 11.95
1/5/2023 1:30:00 PM 10.59 51.062 0.296 7.53 4.74 11.98
1/5/2023 1:45:00 PM 10.65 51.17 0.296 7.54 4.58 11.97
1/5/2023 2:00:00 PM 10.68 51.224 0.297 7.53 4.57 11.93
1/5/2023 2:15:00 PM 10.71 51.278 0.297 7.53 5.29 11.9
1/5/2023 2:30:00 PM 10.7 51.26 0.297 7.52 4.7 11.78
1/5/2023 2:45:00 PM 10.74 51.332 0.297 7.53 4.9 11.83
1/5/2023 3:00:00 PM 10.74 51.332 0.297 7.53 6.25 11.79
1/5/2023 3:15:00 PM 10.71 51.278 0.297 7.51 5.02 11.69
1/5/2023 3:30:00 PM 10.69 51.242 0.297 7.44 5.08 11.61
1/5/2023 3:45:00 PM 10.68 51.224 0.297 7.49 6.06 11.59
1/5/2023 4:00:00 PM 10.65 51.17 0.297 7.48 5.85 11.52
1/5/2023 4:15:00 PM 10.62 51.116 0.298 7.47 5.37 11.46
1/5/2023 4:30:00 PM 10.58 51.044 0.298 7.45 5.2 11.37
1/5/2023 4:45:00 PM 10.55 50.99 0.298 7.43 5.55 11.27
1/5/2023 5:00:00 PM 10.51 50.918 0.297 7.42 5.59 11.18
1/5/2023 5:15:00 PM 10.48 50.864 0.297 7.41 6.19 11.11
1/5/2023 5:30:00 PM 10.45 50.81 0.297 7.39 5.3 11.05
1/5/2023 5:45:00 PM 10.43 50.774 0.297 7.38 5.32 10.98
1/5/2023 6:00:00 PM 10.41 50.738 0.297 7.37 5.23 10.93
1/5/2023 6:15:00 PM 10.38 50.684 0.297 7.36 4.91 10.86
1/5/2023 6:30:00 PM 10.35 50.63 0.297 7.35 6.53 10.82
1/5/2023 6:45:00 PM 10.33 50.594 0.297 7.34 5.59 10.78
1/5/2023 7:00:00 PM 10.31 50.558 0.297 7.33 6.2 10.74
1/5/2023 7:15:00 PM 10.29 50.522 0.297 7.33 5.72 10.71
1/5/2023 7:30:00 PM 10.27 50.486 0.297 7.32 6.74 10.66
1/5/2023 7:45:00 PM 10.25 50.45 0.297 7.32 6.44 10.65
1/5/2023 8:00:00 PM 10.22 50.396 0.297 7.31 5.73 10.63
1/5/2023 8:15:00 PM 10.2 50.36 0.298 7.31 6.21 10.61
1/5/2023 8:30:00 PM 10.18 50.324 0.297 7.31 5.29 10.6
1/5/2023 8:45:00 PM 10.17 50.306 0.297 7.3 5.6 10.57
1/5/2023 9:00:00 PM 10.16 50.288 0.297 7.3 5.84 10.55
1/5/2023 9:15:00 PM 10.14 50.252 0.296 7.3 6.28 10.56
1/5/2023 9:30:00 PM 10.12 50.216 0.296 7.3 5.69 10.56
1/5/2023 9:45:00 PM 10.11 50.198 0.296 7.29 6.09 10.56
1/5/2023 10:00:00 PM 10.1 50.18 0.296 7.29 5 10.53
1/5/2023 10:15:00 PM 10.08 50.144 0.295 7.29 7.73 10.53
1/5/2023 10:30:00 PM 10.06 50.108 0.294 7.28 6.16 10.53
1/5/2023 10:45:00 PM 10.04 50.072 0.294 7.28 6.68 10.53
1/5/2023 11:00:00 PM 10.02 50.036 0.294 7.28 6.93 10.53
1/5/2023 11:15:00 PM 10 50 0.294 7.28 5.75 10.53
1/5/2023 11:30:00 PM 9.97 49.946 0.294 7.28 6.12 10.52
1/5/2023 11:45:00 PM 9.93 49.874 0.294 7.28 6.06 10.52
1/6/2023 12:00:00 AM 9.89 49.802 0.294 7.27 6.39 10.53
1/6/2023 12:15:00 AM 9.84 49.712 0.294 7.27 5.88 10.53
1/6/2023 12:30:00 AM 9.79 49.622 0.294 7.27 6.48 10.54
1/6/2023 12:45:00 AM 9.74 49.532 0.295 7.27 5.84 10.53
1/6/2023 1:00:00 AM 9.68 49.424 0.295 7.27 6.14 10.54
1/6/2023 1:15:00 AM 9.65 49.37 0.295 7.26 5.89 10.56
1/6/2023 1:30:00 AM 9.61 49.298 0.295 7.26 6.26 10.55
1/6/2023 1:45:00 AM 9.55 49.19 0.295 7.26 5.86 10.58
1/6/2023 2:00:00 AM 9.51 49.118 0.295 7.26 5.39 10.59
1/6/2023 2:15:00 AM 9.48 49.064 0.295 7.26 6.09 10.6
1/6/2023 2:30:00 AM 9.42 48.956 0.295 7.25 5.96 10.61
1/6/2023 2:45:00 AM 9.36 48.848 0.295 7.26 5.62 10.62
1/6/2023 3:00:00 AM 9.31 48.758 0.295 7.25 6.39 10.64
1/6/2023 3:15:00 AM 9.25 48.65 0.295 7.25 6.68 10.65
1/6/2023 3:30:00 AM 9.2 48.56 0.295 7.25 5.86 10.66
1/6/2023 3:45:00 AM 9.15 48.47 0.295 7.25 5.5 10.68
1/6/2023 4:00:00 AM 9.11 48.398 0.295 7.25 6.38 10.68
1/6/2023 4:15:00 AM 9.07 48.326 0.295 7.25 6.02 10.7
1/6/2023 4:30:00 AM 9.03 48.254 0.296 7.22 6.16 10.71
1/6/2023 4:45:00 AM 9 48.2 0.296 7.25 6.14 10.72
1/6/2023 5:00:00 AM 8.97 48.146 0.296 7.24 6.06 10.73
1/6/2023 5:15:00 AM 8.94 48.092 0.296 7.25 5.98 10.75
1/6/2023 5:30:00 AM 8.91 48.038 0.296 7.24 7.38 10.77
1/6/2023 5:45:00 AM 8.87 47.966 0.296 7.24 6.01 10.78
1/6/2023 6:00:00 AM 8.83 47.894 0.296 7.24 6.24 10.79
1/6/2023 6:15:00 AM 8.8 47.84 0.296 7.2 6.73 10.81
1/6/2023 6:30:00 AM 8.77 47.786 0.296 7.23 6.93 10.82
1/6/2023 6:45:00 AM 8.73 47.714 0.296 7.24 7.16 10.82
1/6/2023 7:00:00 AM 8.7 47.66 0.296 7.25 6.89 10.84
1/6/2023 7:15:00 AM 8.67 47.606 0.296 7.2 6.48 10.85
1/6/2023 7:30:00 AM 8.65 47.57 0.296 7.22 7.08 10.87
1/6/2023 7:45:00 AM 8.63 47.534 0.296 7.21 6.69 10.89
1/6/2023 8:00:00 AM 8.62 47.516 0.296 7.26 7.66 10.91
1/6/2023 8:15:00 AM 8.61 47.498 0.296 7.21 6.3 10.94
1/6/2023 8:30:00 AM 8.61 47.498 0.297 7.26 6.65 11
1/6/2023 8:45:00 AM 8.61 47.498 0.297 7.28 6.34 11.1
1/6/2023 9:00:00 AM 8.62 47.516 0.297 7.29 6.43 11.19
1/6/2023 9:15:00 AM 8.63 47.534 0.297 7.26 5.94 11.29
1/6/2023 9:30:00 AM 8.66 47.588 0.297 7.3 6.72 11.36
1/6/2023 9:45:00 AM 8.67 47.606 0.298 7.34 5.71 11.49
1/6/2023 10:00:00 AM 8.7 47.66 0.298 7.36 5.64 11.57
1/6/2023 10:15:00 AM 8.73 47.714 0.298 7.36 6.28 11.67
1/6/2023 10:30:00 AM 8.76 47.768 0.298 7.39 5.24 11.76
1/6/2023 10:45:00 AM 8.84 47.912 0.298 7.42 6.26 11.87
1/6/2023 11:00:00 AM 8.91 48.038 0.298 7.43 5.27 11.94
1/6/2023 11:15:00 AM 8.98 48.164 0.298 7.4 5.9 12.01
1/6/2023 11:30:00 AM 9.1 48.38 0.298 7.46 5.07 12.07
1/6/2023 11:45:00 AM 9.08 48.344 0.298 7.48 5.38 12.09
1/6/2023 12:00:00 PM 9.13 48.434 0.298 7.49 4.89 12.13
1/6/2023 12:15:00 PM 9.15 48.47 0.298 7.51 5.24 12.16
1/6/2023 12:30:00 PM 9.17 48.506 0.298 7.51 7.37 12.19
1/6/2023 12:45:00 PM 9.37 48.866 0.298 7.53 6.15 12.27
1/6/2023 1:00:00 PM 9.34 48.812 0.298 7.55 5.47 12.29
1/6/2023 1:15:00 PM 9.31 48.758 0.298 7.55 5.45 12.28
1/6/2023 1:30:00 PM 9.35 48.83 0.299 7.55 5.11 12.29
1/6/2023 1:45:00 PM 9.36 48.848 0.299 7.57 4.79 12.28
1/6/2023 2:00:00 PM 9.35 48.83 0.299 7.57 4.94 12.27
1/6/2023 2:15:00 PM 9.34 48.812 0.299 7.57 4.75 12.25
1/6/2023 2:30:00 PM 9.36 48.848 0.299 7.58 4.94 12.25
1/6/2023 2:45:00 PM 9.32 48.776 0.299 7.57 5.28 12.18
1/6/2023 3:00:00 PM 9.32 48.776 0.299 7.56 4.77 12.17
1/6/2023 3:15:00 PM 9.28 48.704 0.299 7.56 4.96 12.11
1/6/2023 3:30:00 PM 9.22 48.596 0.299 7.52 4.82 12.06
1/6/2023 3:45:00 PM 9.12 48.416 0.298 7.5 4.99 12
1/6/2023 4:00:00 PM 9.05 48.29 0.3 7.52 4.54 11.95
1/6/2023 4:15:00 PM 8.98 48.164 0.3 7.51 6.17 11.9
1/6/2023 4:30:00 PM 8.9 48.02 0.3 7.49 4.55 11.85
1/6/2023 4:45:00 PM 8.81 47.858 0.3 7.46 5.13 11.78
1/6/2023 5:00:00 PM 8.74 47.732 0.3 7.46 5.05 11.72
1/6/2023 5:15:00 PM 8.67 47.606 0.3 7.45 4.68 11.67
1/6/2023 5:30:00 PM 8.6 47.48 0.3 7.39 4.88 11.6
1/6/2023 5:45:00 PM 8.56 47.408 0.3 7.42 5.09 11.56
1/6/2023 6:00:00 PM 8.51 47.318 0.3 7.41 5.11 11.53
1/6/2023 6:15:00 PM 8.47 47.246 0.3 7.4 5.31 11.48
1/6/2023 6:30:00 PM 8.43 47.174 0.3 7.39 5.26 11.45
1/6/2023 6:45:00 PM 8.38 47.084 0.3 7.38 5.23 11.42
1/6/2023 7:00:00 PM 8.32 46.976 0.3 7.36 5.04 11.39
1/6/2023 7:15:00 PM 8.26 46.868 0.3 7.36 5.44 11.36
1/6/2023 7:30:00 PM 8.2 46.76 0.3 7.36 5.2 11.34
1/6/2023 7:45:00 PM 8.15 46.67 0.3 7.35 5.56 11.32
1/6/2023 8:00:00 PM 8.1 46.58 0.3 7.32 5.38 11.31
1/6/2023 8:15:00 PM 8.05 46.49 0.3 7.29 5.13 11.3
1/6/2023 8:30:00 PM 8.02 46.436 0.3 7.34 5.25 11.29
1/6/2023 8:45:00 PM 7.99 46.382 0.3 7.3 5.33 11.28
1/6/2023 9:00:00 PM 7.96 46.328 0.3 7.33 5.03 11.28
1/6/2023 9:15:00 PM 7.93 46.274 0.3 7.28 5.21 11.28
1/6/2023 9:30:00 PM 7.9 46.22 0.299 7.32 5.18 11.29
1/6/2023 9:45:00 PM 7.85 46.13 0.299 7.32 5.01 11.29
1/6/2023 10:00:00 PM 7.8 46.04 0.299 7.32 5.04 11.3
1/6/2023 10:15:00 PM 7.75 45.95 0.299 7.31 4.72 11.31
1/6/2023 10:30:00 PM 7.7 45.86 0.299 7.3 5.23 11.31
1/6/2023 10:45:00 PM 7.65 45.77 0.299 7.31 5.43 11.33
1/6/2023 11:00:00 PM 7.61 45.698 0.299 7.31 5.13 11.34
1/6/2023 11:15:00 PM 7.55 45.59 0.299 7.31 5.72 11.34
1/6/2023 11:30:00 PM 7.5 45.5 0.299 7.3 4.97 11.36
1/6/2023 11:45:00 PM 7.45 45.41 0.299 7.26 4.42 11.36
1/7/2023 12:00:00 AM 7.39 45.302 0.299 7.3 4.51 11.38
1/7/2023 12:15:00 AM 7.35 45.23 0.299 7.26 4.4 11.39
1/7/2023 12:30:00 AM 7.31 45.158 0.299 7.3 4.53 11.4
1/7/2023 12:45:00 AM 7.27 45.086 0.299 7.27 4.56 11.41
1/7/2023 1:00:00 AM 7.24 45.032 0.299 7.28 4.3 11.42
1/7/2023 1:15:00 AM 7.2 44.96 0.299 7.3 4.38 11.43
1/7/2023 1:30:00 AM 7.17 44.906 0.299 7.29 4.32 11.45
1/7/2023 1:45:00 AM 7.14 44.852 0.299 7.3 4.82 11.45
1/7/2023 2:00:00 AM 7.11 44.798 0.299 7.28 4.93 11.47
1/7/2023 2:15:00 AM 7.08 44.744 0.299 7.3 5.07 11.47
1/7/2023 2:30:00 AM 7.06 44.708 0.3 7.3 4.56 11.49
1/7/2023 2:45:00 AM 7.03 44.654 0.3 7.28 4.44 11.49
1/7/2023 3:00:00 AM 7 44.6 0.3 7.29 4.6 11.51
1/7/2023 3:15:00 AM 6.98 44.564 0.3 7.28 4.82 11.52
1/7/2023 3:30:00 AM 6.95 44.51 0.3 7.28 5.13 11.52
1/7/2023 3:45:00 AM 6.93 44.474 0.3 7.25 4.62 11.53
1/7/2023 4:00:00 AM 6.9 44.42 0.3 7.28 4.95 11.54
1/7/2023 4:15:00 AM 6.88 44.384 0.3 7.29 5.1 11.54
1/7/2023 4:30:00 AM 6.86 44.348 0.3 7.28 5.85 11.55
1/7/2023 4:45:00 AM 6.83 44.294 0.3 7.27 5.17 11.54
1/7/2023 5:00:00 AM 6.82 44.276 0.3 7.28 5.03 11.56
1/7/2023 5:15:00 AM 6.78 44.204 0.3 7.28 4.71 11.57
1/7/2023 5:30:00 AM 6.73 44.114 0.3 7.26 5.03 11.58
1/7/2023 5:45:00 AM 6.67 44.006 0.299 7.25 5.3 11.59
1/7/2023 6:00:00 AM 6.63 43.934 0.299 7.26 4.69 11.6
1/7/2023 6:15:00 AM 6.57 43.826 0.299 7.28 5.46 11.62
1/7/2023 6:30:00 AM 6.53 43.754 0.299 7.27 5.55 11.63
1/7/2023 6:45:00 AM 6.48 43.664 0.299 7.26 5.53 11.65
1/7/2023 7:00:00 AM 6.45 43.61 0.299 7.29 5.21 11.67
1/7/2023 7:15:00 AM 6.42 43.556 0.299 7.28 5.18 11.67
1/7/2023 7:30:00 AM 6.41 43.538 0.299 7.28 5.14 11.7
1/7/2023 7:45:00 AM 6.39 43.502 0.299 7.26 5.16 11.72
1/7/2023 8:00:00 AM 6.38 43.484 0.299 7.29 5.27 11.76
1/7/2023 8:15:00 AM 6.38 43.484 0.299 7.25 5.37 11.83
1/7/2023 8:30:00 AM 6.38 43.484 0.299 7.26 5.09 11.9
1/7/2023 8:45:00 AM 6.39 43.502 0.299 7.27 5.56 11.99
1/7/2023 9:00:00 AM 6.41 43.538 0.299 7.32 4.51 12.09
1/7/2023 9:15:00 AM 6.44 43.592 0.299 7.29 4.66 12.19
1/7/2023 9:30:00 AM 6.49 43.682 0.299 7.35 4.75 12.29
1/7/2023 9:45:00 AM 6.55 43.79 0.299 7.37 4.75 12.39
1/7/2023 10:00:00 AM 6.59 43.862 0.299 7.36 5.39 12.47
1/7/2023 10:15:00 AM 6.63 43.934 0.298 7.36 4.88 12.55
1/7/2023 10:30:00 AM 6.68 44.024 0.298 7.42 4.77 12.62
1/7/2023 10:45:00 AM 6.73 44.114 0.298 7.44 4.88 12.69
1/7/2023 11:00:00 AM 6.79 44.222 0.298 7.45 5 12.76
1/7/2023 11:15:00 AM 6.88 44.384 0.298 7.46 5.35 12.82
1/7/2023 11:30:00 AM 6.96 44.528 0.298 7.48 4.53 12.9
1/7/2023 11:45:00 AM 7.05 44.69 0.298 7.49 4.42 12.96
1/7/2023 12:00:00 PM 7.15 44.87 0.298 7.51 4.92 13.02
1/7/2023 12:15:00 PM 7.23 45.014 0.297 7.53 4.47 13.06
1/7/2023 12:30:00 PM 7.27 45.086 0.297 7.54 4.32 13.08
1/7/2023 12:45:00 PM 7.39 45.302 0.297 7.55 4.62 13.11
1/7/2023 1:00:00 PM 7.49 45.482 0.297 7.53 4.57 13.14
1/7/2023 1:15:00 PM 7.59 45.662 0.298 7.58 4.47 13.16
1/7/2023 1:30:00 PM 7.63 45.734 0.298 7.58 4.5 13.17
1/7/2023 1:45:00 PM 7.67 45.806 0.298 7.6 4.66 13.16
1/7/2023 2:00:00 PM 7.7 45.86 0.298 7.59 4.51 13.17
1/7/2023 2:15:00 PM 7.7 45.86 0.298 7.55 4.41 13.16
1/7/2023 2:30:00 PM 7.7 45.86 0.298 7.61 4.48 13.14
1/7/2023 2:45:00 PM 7.7 45.86 0.298 7.6 4.37 13.1
1/7/2023 3:00:00 PM 7.7 45.86 0.298 7.6 4.06 13.07
1/7/2023 3:15:00 PM 7.68 45.824 0.299 7.6 4 13.01
1/7/2023 3:30:00 PM 7.69 45.842 0.299 7.59 4.15 12.98
1/7/2023 3:45:00 PM 7.69 45.842 0.299 7.58 4.22 12.92
1/7/2023 4:00:00 PM 7.67 45.806 0.299 7.57 4.09 12.83
1/7/2023 4:15:00 PM 7.66 45.788 0.299 7.54 4.2 12.74
1/7/2023 4:30:00 PM 7.65 45.77 0.299 7.48 4.61 12.66
1/7/2023 4:45:00 PM 7.61 45.698 0.299 7.5 4.3 12.56
1/7/2023 5:00:00 PM 7.56 45.608 0.299 7.49 4.29 12.46
1/7/2023 5:15:00 PM 7.52 45.536 0.299 7.47 4.29 12.37
1/7/2023 5:30:00 PM 7.47 45.446 0.299 7.45 4.31 12.31
1/7/2023 5:45:00 PM 7.41 45.338 0.299 7.45 4.42 12.23
1/7/2023 6:00:00 PM 7.36 45.248 0.299 7.41 4.43 12.18
1/7/2023 6:15:00 PM 7.32 45.176 0.3 7.42 4.56 12.13
1/7/2023 6:30:00 PM 7.28 45.104 0.3 7.4 4.54 12.07
1/7/2023 6:45:00 PM 7.24 45.032 0.3 7.4 4.84 12.03
1/7/2023 7:00:00 PM 7.19 44.942 0.3 7.38 5.01 12
1/7/2023 7:15:00 PM 7.14 44.852 0.3 7.35 4.53 11.96
1/7/2023 7:30:00 PM 7.09 44.762 0.3 7.38 4.7 11.93
1/7/2023 7:45:00 PM 7.04 44.672 0.3 7.36 4.76 11.9
1/7/2023 8:00:00 PM 7 44.6 0.299 7.35 4.71 11.86
1/7/2023 8:15:00 PM 6.95 44.51 0.299 7.33 4.32 11.85
1/7/2023 8:30:00 PM 6.9 44.42 0.299 7.35 4.23 11.83
1/7/2023 8:45:00 PM 6.85 44.33 0.299 7.34 4.46 11.82
1/7/2023 9:00:00 PM 6.8 44.24 0.299 7.32 8.26 11.8
1/7/2023 9:15:00 PM 6.76 44.168 0.299 7.28 5.24 11.8
1/7/2023 9:30:00 PM 6.71 44.078 0.299 7.29 5.97 11.78
1/7/2023 9:45:00 PM 6.66 43.988 0.299 7.28 4.67 11.78
1/7/2023 10:00:00 PM 6.62 43.916 0.299 7.33 4.69 11.78
1/7/2023 10:15:00 PM 6.57 43.826 0.299 7.28 4.79 11.78
1/7/2023 10:30:00 PM 6.52 43.736 0.299 7.3 4.62 11.78
1/7/2023 10:45:00 PM 6.47 43.646 0.299 7.31 4.95 11.79
1/7/2023 11:00:00 PM 6.42 43.556 0.299 7.31 5.85 11.78
1/7/2023 11:15:00 PM 6.37 43.466 0.299 7.31 4.73 11.79
1/7/2023 11:30:00 PM 6.32 43.376 0.299 7.28 4.78 11.79
1/7/2023 11:45:00 PM 6.27 43.286 0.299 7.3 4.99 11.8
1/8/2023 12:00:00 AM 6.2 43.16 0.3 7.3 4.4 11.81
1/8/2023 12:15:00 AM 6.15 43.07 0.3 7.3 4.68 11.83
1/8/2023 12:30:00 AM 6.09 42.962 0.3 7.29 4.55 11.83
1/8/2023 12:45:00 AM 6.03 42.854 0.3 7.3 4.91 11.85
1/8/2023 1:00:00 AM 5.98 42.764 0.3 7.26 5.01 11.85
1/8/2023 1:15:00 AM 5.93 42.674 0.3 7.29 4.86 11.87
1/8/2023 1:30:00 AM 5.87 42.566 0.3 7.27 5.26 11.88
1/8/2023 1:45:00 AM 5.81 42.458 0.3 7.28 4.83 11.88
1/8/2023 2:00:00 AM 5.75 42.35 0.3 7.29 5.79 11.9
1/8/2023 2:15:00 AM 5.69 42.242 0.3 7.29 5.01 11.92
1/8/2023 2:30:00 AM 5.63 42.134 0.301 7.25 4.68 11.95
1/8/2023 2:45:00 AM 5.58 42.044 0.301 7.3 5.14 11.95
1/8/2023 3:00:00 AM 5.51 41.918 0.301 7.3 8.55 11.98
1/8/2023 3:15:00 AM 5.46 41.828 0.301 7.29 5.46 11.99
1/8/2023 3:30:00 AM 5.39 41.702 0.301 7.25 6.65 12.01
1/8/2023 3:45:00 AM 5.33 41.594 0.301 7.29 4.84 12.03
1/8/2023 4:00:00 AM 5.26 41.468 0.301 7.3 4.74 12.06
1/8/2023 4:15:00 AM 5.2 41.36 0.301 7.29 4.92 12.08
1/8/2023 4:30:00 AM 5.14 41.252 0.301 7.28 5.05 12.1
1/8/2023 4:45:00 AM 5.08 41.144 0.301 7.25 5.27 12.11
1/8/2023 5:00:00 AM 5.02 41.036 0.301 7.24 5.17 12.13
1/8/2023 5:15:00 AM 4.96 40.928 0.301 7.28 5.79 12.15
1/8/2023 5:30:00 AM 4.9 40.82 0.301 7.23 5.27 12.18
1/8/2023 5:45:00 AM 4.84 40.712 0.301 7.25 5.09 12.19
1/8/2023 6:00:00 AM 4.78 40.604 0.301 7.27 5.41 12.21
1/8/2023 6:15:00 AM 4.73 40.514 0.301 7.27 5.33 12.23
1/8/2023 6:30:00 AM 4.67 40.406 0.302 7.27 4.97 12.25
1/8/2023 6:45:00 AM 4.62 40.316 0.302 7.28 5.92 12.27
1/8/2023 7:00:00 AM 4.56 40.208 0.302 7.28 4.92 12.29
1/8/2023 7:15:00 AM 4.5 40.1 0.302 7.25 5.67 12.31
1/8/2023 7:30:00 AM 4.45 40.01 0.302 7.24 5.09 12.33
1/8/2023 7:45:00 AM 4.4 39.92 0.302 7.24 4.97 12.38
1/8/2023 8:00:00 AM 4.36 39.848 0.302 7.29 5.32 12.43
1/8/2023 8:15:00 AM 4.32 39.776 0.302 7.28 5.05 12.49
1/8/2023 8:30:00 AM 4.3 39.74 0.302 7.28 5.41 12.56
1/8/2023 8:45:00 AM 4.31 39.758 0.302 7.31 5.56 12.66
1/8/2023 9:00:00 AM 4.33 39.794 0.302 7.31 5.43 12.75
1/8/2023 9:15:00 AM 4.37 39.866 0.302 7.33 5.41 12.84
1/8/2023 9:30:00 AM 4.43 39.974 0.302 7.3 5.39 12.93
1/8/2023 9:45:00 AM 4.5 40.1 0.302 7.34 6.51 13.02
1/8/2023 10:00:00 AM 4.6 40.28 0.302 7.33 5.94 13.1
1/8/2023 10:15:00 AM 4.7 40.46 0.302 7.34 5.23 13.17
1/8/2023 10:30:00 AM 4.8 40.64 0.302 7.35 5.03 13.23
1/8/2023 10:45:00 AM 4.88 40.784 0.302 7.37 5.07 13.28
1/8/2023 11:00:00 AM 4.97 40.946 0.302 7.39 5.14 13.34
1/8/2023 11:15:00 AM 5.07 41.126 0.302 7.4 5.37 13.4
1/8/2023 11:30:00 AM 5.16 41.288 0.302 7.42 5.8 13.45
1/8/2023 11:45:00 AM 5.24 41.432 0.302 7.43 4.99 13.5
1/8/2023 12:00:00 PM 5.33 41.594 0.302 7.45 5.34 13.54
1/8/2023 12:15:00 PM 5.4 41.72 0.302 7.44 5.63 13.56
1/8/2023 12:30:00 PM 5.49 41.882 0.302 7.46 5.32 13.59
1/8/2023 12:45:00 PM 5.58 42.044 0.302 7.51 4.94 13.62
1/8/2023 1:00:00 PM 5.69 42.242 0.302 7.53 5.51 13.63
1/8/2023 1:15:00 PM 5.78 42.404 0.302 7.53 5.78 13.64
1/8/2023 1:30:00 PM 5.87 42.566 0.301 7.53 4.91 13.65
1/8/2023 1:45:00 PM 5.94 42.692 0.301 7.52 5.32 13.65
1/8/2023 2:00:00 PM 6.01 42.818 0.301 7.55 5.5 13.64
1/8/2023 2:15:00 PM 6.06 42.908 0.301 7.56 5.96 13.62
1/8/2023 2:30:00 PM 6.1 42.98 0.301 7.53 5.48 13.59
1/8/2023 2:45:00 PM 6.13 43.034 0.301 7.56 5.66 13.56
1/8/2023 3:00:00 PM 6.14 43.052 0.301 7.56 5.72 13.53
1/8/2023 3:15:00 PM 6.13 43.034 0.301 7.51 5.34 13.5
1/8/2023 3:30:00 PM 6.11 42.998 0.301 7.55 4.87 13.44
1/8/2023 3:45:00 PM 6.05 42.89 0.301 7.5 4.88 13.37
1/8/2023 4:00:00 PM 6.01 42.818 0.301 7.53 4.72 13.3
1/8/2023 4:15:00 PM 5.96 42.728 0.301 7.49 4.89 13.22
1/8/2023 4:30:00 PM 5.92 42.656 0.301 7.47 4.77 13.14
1/8/2023 4:45:00 PM 5.87 42.566 0.301 7.45 5.12 13.05
1/8/2023 5:00:00 PM 5.82 42.476 0.302 7.43 5.03 12.98
1/8/2023 5:15:00 PM 5.78 42.404 0.302 7.46 4.46 12.9
1/8/2023 5:30:00 PM 5.76 42.368 0.302 7.44 4.87 12.82
1/8/2023 5:45:00 PM 5.73 42.314 0.302 7.42 5 12.75
1/8/2023 6:00:00 PM 5.72 42.296 0.302 7.41 5.51 12.69
1/8/2023 6:15:00 PM 5.71 42.278 0.302 7.41 4.98 12.63
1/8/2023 6:30:00 PM 5.7 42.26 0.302 7.38 4.86 12.58
1/8/2023 6:45:00 PM 5.69 42.242 0.302 7.36 5.41 12.52
1/8/2023 7:00:00 PM 5.67 42.206 0.302 7.38 5.69 12.48
1/8/2023 7:15:00 PM 5.67 42.206 0.302 7.32 5.39 12.45
1/8/2023 7:30:00 PM 5.66 42.188 0.302 7.32 5.28 12.4
1/8/2023 7:45:00 PM 5.66 42.188 0.302 7.32 4.86 12.37
1/8/2023 8:00:00 PM 5.66 42.188 0.301 7.35 5.06 12.34
1/8/2023 8:15:00 PM 5.66 42.188 0.301 7.33 4.92 12.31
1/8/2023 8:30:00 PM 5.67 42.206 0.301 7.3 4.77 12.27
1/8/2023 8:45:00 PM 5.68 42.224 0.301 7.32 9.34 12.24
1/8/2023 9:00:00 PM 5.68 42.224 0.301 7.32 4.61 12.22
1/8/2023 9:15:00 PM 5.69 42.242 0.301 7.32 4.84 12.2
1/8/2023 9:30:00 PM 5.7 42.26 0.301 7.32 4.65 12.17
1/8/2023 9:45:00 PM 5.71 42.278 0.301 7.32 5.08 12.17
1/8/2023 10:00:00 PM 5.72 42.296 0.301 7.3 4.5 12.15
1/8/2023 10:15:00 PM 5.72 42.296 0.301 7.29 8.18 12.12
1/8/2023 10:30:00 PM 5.72 42.296 0.301 7.28 4.81 12.12
1/8/2023 10:45:00 PM 5.72 42.296 0.301 7.31 4.91 12.1
1/8/2023 11:00:00 PM 5.72 42.296 0.301 7.31 5.29 12.09
1/8/2023 11:15:00 PM 5.71 42.278 0.301 7.31 4.61 12.07
1/8/2023 11:30:00 PM 5.69 42.242 0.301 7.3 4.65 12.07
1/8/2023 11:45:00 PM 5.67 42.206 0.301 7.29 5.46 12.05
1/9/2023 12:00:00 AM 5.66 42.188 0.301 7.3 4.5 12.06
1/9/2023 12:15:00 AM 5.65 42.17 0.301 7.3 4.45 12.05
1/9/2023 12:30:00 AM 5.65 42.17 0.301 7.29 4.34 12.04
1/9/2023 12:45:00 AM 5.65 42.17 0.301 7.29 4.58 12.04
1/9/2023 1:00:00 AM 5.65 42.17 0.301 7.28 4.53 12.03
1/9/2023 1:15:00 AM 5.65 42.17 0.301 7.29 4.63 12.03
1/9/2023 1:30:00 AM 5.64 42.152 0.301 7.28 4.67 12.02
1/9/2023 1:45:00 AM 5.64 42.152 0.301 7.28 4.81 12.02
1/9/2023 2:00:00 AM 5.64 42.152 0.3 7.26 4.78 12.02
1/9/2023 2:15:00 AM 5.63 42.134 0.3 7.29 4.79 12.01
1/9/2023 2:30:00 AM 5.62 42.116 0.3 7.27 4.61 12.01
1/9/2023 2:45:00 AM 5.62 42.116 0.3 7.25 4.75 12.01
1/9/2023 3:00:00 AM 5.61 42.098 0.3 7.28 4.91 12.02
1/9/2023 3:15:00 AM 5.6 42.08 0.3 7.29 4.69 12
1/9/2023 3:30:00 AM 5.6 42.08 0.3 7.24 4.35 12
1/9/2023 3:45:00 AM 5.59 42.062 0.3 7.28 4.52 12.01
1/9/2023 4:00:00 AM 5.59 42.062 0.3 7.28 4.33 12
1/9/2023 4:15:00 AM 5.58 42.044 0.3 7.27 4.48 12.01
1/9/2023 4:30:00 AM 5.58 42.044 0.3 7.25 4.49 12.01
1/9/2023 4:45:00 AM 5.57 42.026 0.3 7.29 4.6 12.01
1/9/2023 5:00:00 AM 5.56 42.008 0.3 7.27 4.96 12.01
1/9/2023 5:15:00 AM 5.55 41.99 0.3 7.24 4.99 12.01
1/9/2023 5:30:00 AM 5.54 41.972 0.3 7.28 5.71 12.01
1/9/2023 5:45:00 AM 5.52 41.936 0.3 7.28 4.83 12
1/9/2023 6:00:00 AM 5.51 41.918 0.3 7.28 5.17 12
1/9/2023 6:15:00 AM 5.49 41.882 0.3 7.26 5.02 12
1/9/2023 6:30:00 AM 5.48 41.864 0.3 7.28 4.91 12.01
1/9/2023 6:45:00 AM 5.47 41.846 0.3 7.25 4.74 12.01
1/9/2023 7:00:00 AM 5.46 41.828 0.3 7.25 4.92 12.01
1/9/2023 7:15:00 AM 5.44 41.792 0.3 7.26 4.9 12.01
1/9/2023 7:30:00 AM 5.41 41.738 0.3 7.27 5.06 12.02
1/9/2023 7:45:00 AM 5.37 41.666 0.3 7.24 5.24 12.04
1/9/2023 8:00:00 AM 5.34 41.612 0.3 7.29 4.79 12.08
1/9/2023 8:15:00 AM 5.31 41.558 0.3 7.27 5.04 12.14
1/9/2023 8:30:00 AM 5.28 41.504 0.3 7.3 4.71 12.21
1/9/2023 8:45:00 AM 5.28 41.504 0.3 7.28 4.8 12.3
1/9/2023 9:00:00 AM 5.3 41.54 0.3 7.28 4.97 12.39
1/9/2023 9:15:00 AM 5.32 41.576 0.3 7.33 5.32 12.48
1/9/2023 9:30:00 AM 5.37 41.666 0.3 7.31 4.87 12.57
1/9/2023 9:45:00 AM 5.42 41.756 0.3 7.32 5.06 12.66
1/9/2023 10:00:00 AM 5.49 41.882 0.3 7.36 5.14 12.74
1/9/2023 10:15:00 AM 5.59 42.062 0.3 7.36 5.39 12.83
1/9/2023 10:30:00 AM 5.66 42.188 0.3 7.4 4.8 12.88
1/9/2023 10:45:00 AM 5.75 42.35 0.3 7.41 5.05 12.94
1/9/2023 11:00:00 AM 5.82 42.476 0.3 7.43 4.8 12.99
1/9/2023 11:15:00 AM 5.92 42.656 0.3 7.44 4.81 13.05
1/9/2023 11:30:00 AM 6.04 42.872 0.3 7.45 5.16 13.09
1/9/2023 11:45:00 AM 6.14 43.052 0.3 7.48 5.2 13.15
1/9/2023 12:00:00 PM 6.24 43.232 0.3 7.49 4.61 13.19
1/9/2023 12:15:00 PM 6.11 42.998 0.3 7.47 4.81 13.17
1/9/2023 12:30:00 PM 6.21 43.178 0.3 7.51 5.58 13.22
1/9/2023 12:45:00 PM 6.31 43.358 0.3 7.47 4.94 13.25
1/9/2023 1:00:00 PM 6.47 43.646 0.3 7.49 4.63 13.28
1/9/2023 1:15:00 PM 6.56 43.808 0.3 7.51 4.96 13.28
1/9/2023 1:30:00 PM 6.71 44.078 0.3 7.55 4.66 13.29
1/9/2023 1:45:00 PM 6.82 44.276 0.3 7.55 4.96 13.28
1/9/2023 2:00:00 PM 6.91 44.438 0.3 7.53 5.25 13.29
1/9/2023 2:15:00 PM 6.96 44.528 0.3 7.58 5.83 13.27
1/9/2023 2:30:00 PM 6.97 44.546 0.3 7.56 4.87 13.25
1/9/2023 2:45:00 PM 6.96 44.528 0.3 7.58 5.33 13.2
1/9/2023 3:00:00 PM 6.93 44.474 0.3 7.55 5.9 13.17
1/9/2023 3:15:00 PM 6.86 44.348 0.301 7.58 5.25 13.13
1/9/2023 3:30:00 PM 6.75 44.15 0.301 7.53 5.27 13.09
1/9/2023 3:45:00 PM 6.62 43.916 0.301 7.53 4.87 13.04
1/9/2023 4:00:00 PM 6.5 43.7 0.301 7.54 9.08 13
1/9/2023 4:15:00 PM 6.39 43.502 0.301 7.55 5.13 12.96
1/9/2023 4:30:00 PM 6.33 43.394 0.301 7.48 4.92 12.9
1/9/2023 4:45:00 PM 6.29 43.322 0.301 7.5 7.58 12.83
1/9/2023 5:00:00 PM 6.27 43.286 0.301 7.49 5.03 12.75
1/9/2023 5:15:00 PM 6.24 43.232 0.301 7.48 4.94 12.65
1/9/2023 5:30:00 PM 6.21 43.178 0.301 7.47 5.08 12.6
1/9/2023 5:45:00 PM 6.16 43.088 0.301 7.45 5.12 12.52
1/9/2023 6:00:00 PM 6.1 42.98 0.301 7.44 4.48 12.48
1/9/2023 6:15:00 PM 6.04 42.872 0.301 7.42 5.02 12.42
1/9/2023 6:30:00 PM 5.96 42.728 0.301 7.38 7.51 12.38
1/9/2023 6:45:00 PM 5.88 42.584 0.301 7.36 7.23 12.35
1/9/2023 7:00:00 PM 5.79 42.422 0.302 7.39 5.23 12.32
1/9/2023 7:15:00 PM 5.72 42.296 0.302 7.36 5.6 12.3
1/9/2023 7:30:00 PM 5.64 42.152 0.302 7.34 7.26 12.28
1/9/2023 7:45:00 PM 5.57 42.026 0.302 7.33 5.22 12.24
1/9/2023 8:00:00 PM 5.49 41.882 0.302 7.31 8.2 12.24
1/9/2023 8:15:00 PM 5.43 41.774 0.302 7.32 8.02 12.23
1/9/2023 8:30:00 PM 5.37 41.666 0.302 7.35 5.77 12.22
1/9/2023 8:45:00 PM 5.31 41.558 0.302 7.29 6.78 12.2
1/9/2023 9:00:00 PM 5.25 41.45 0.302 7.29 6.03 12.19
1/9/2023 9:15:00 PM 5.21 41.378 0.302 7.32 7.12 12.19
1/9/2023 9:30:00 PM 5.16 41.288 0.302 7.29 4.83 12.18
1/9/2023 9:45:00 PM 5.12 41.216 0.302 7.28 4.71 12.17
1/9/2023 10:00:00 PM 5.08 41.144 0.302 7.28 5.8 12.16
1/9/2023 10:15:00 PM 5.05 41.09 0.302 7.28 5.61 12.16
1/9/2023 10:30:00 PM 5.02 41.036 0.301 7.27 5.21 12.16
1/9/2023 10:45:00 PM 4.98 40.964 0.301 7.3 5.41 12.16
1/9/2023 11:00:00 PM 4.96 40.928 0.301 7.28 6.2 12.16
1/9/2023 11:15:00 PM 4.92 40.856 0.301 7.3 6.08 12.17
1/9/2023 11:30:00 PM 4.88 40.784 0.301 7.28 6.82 12.17
1/9/2023 11:45:00 PM 4.84 40.712 0.301 7.28 5.5 12.17
1/10/2023 12:00:00 AM 4.8 40.64 0.301 7.25 6.66 12.17
1/10/2023 12:15:00 AM 4.76 40.568 0.301 7.27 6.03 12.18
1/10/2023 12:30:00 AM 4.72 40.496 0.301 7.27 5.74 12.18
1/10/2023 12:45:00 AM 4.67 40.406 0.301 7.28 4.69 12.2
1/10/2023 1:00:00 AM 4.62 40.316 0.301 7.29 6.34 12.22
1/10/2023 1:15:00 AM 4.57 40.226 0.302 7.27 5.62 12.23
1/10/2023 1:30:00 AM 4.51 40.118 0.302 7.27 5.58 12.25
1/10/2023 1:45:00 AM 4.46 40.028 0.302 7.25 5.07 12.26
1/10/2023 2:00:00 AM 4.4 39.92 0.302 7.24 6.05 12.28
1/10/2023 2:15:00 AM 4.34 39.812 0.302 7.25 4.98 12.3
1/10/2023 2:30:00 AM 4.29 39.722 0.302 7.26 5.2 12.32
1/10/2023 2:45:00 AM 4.22 39.596 0.302 7.27 5.33 12.33
1/10/2023 3:00:00 AM 4.16 39.488 0.302 7.26 5.13 12.35
1/10/2023 3:15:00 AM 4.1 39.38 0.302 7.24 5.12 12.37
1/10/2023 3:30:00 AM 4.05 39.29 0.302 7.27 4.99 12.4
1/10/2023 3:45:00 AM 3.99 39.182 0.302 7.26 5.46 12.42
1/10/2023 4:00:00 AM 3.94 39.092 0.302 7.27 5.65 12.44
1/10/2023 4:15:00 AM 3.89 39.002 0.302 7.23 5.36 12.45
1/10/2023 4:30:00 AM 3.84 38.912 0.302 7.27 5.65 12.47
1/10/2023 4:45:00 AM 3.8 38.84 0.302 7.24 5.15 12.49
1/10/2023 5:00:00 AM 3.75 38.75 0.302 7.26 5.3 12.51
1/10/2023 5:15:00 AM 3.7 38.66 0.302 7.26 5.38 12.53
1/10/2023 5:30:00 AM 3.66 38.588 0.302 7.25 5.96 12.55
1/10/2023 5:45:00 AM 3.61 38.498 0.302 7.24 4.7 12.56
1/10/2023 6:00:00 AM 3.57 38.426 0.302 7.26 5.14 12.58
1/10/2023 6:15:00 AM 3.53 38.354 0.302 7.24 4.84 12.59
1/10/2023 6:30:00 AM 3.49 38.282 0.302 7.25 4.56 12.61
1/10/2023 6:45:00 AM 3.45 38.21 0.302 7.26 4.73 12.62
1/10/2023 7:00:00 AM 3.41 38.138 0.302 7.23 4.76 12.64
1/10/2023 7:15:00 AM 3.37 38.066 0.302 7.23 5.04 12.65
1/10/2023 7:30:00 AM 3.34 38.012 0.302 7.23 5.06 12.67
1/10/2023 7:45:00 AM 3.32 37.976 0.302 7.23 4.95 12.71
1/10/2023 8:00:00 AM 3.3 37.94 0.302 7.27 5.64 12.75
1/10/2023 8:15:00 AM 3.3 37.94 0.302 7.24 5.55 12.82
1/10/2023 8:30:00 AM 3.33 37.994 0.302 7.28 4.94 12.9
1/10/2023 8:45:00 AM 3.37 38.066 0.302 7.25 5.06 12.96
1/10/2023 9:00:00 AM 3.41 38.138 0.302 7.27 4.98 13.04
1/10/2023 9:15:00 AM 3.47 38.246 0.302 7.3 4.65 13.12
1/10/2023 9:30:00 AM 3.54 38.372 0.302 7.29 4.79 13.2
1/10/2023 9:45:00 AM 3.62 38.516 0.302 7.34 4.75 13.29
1/10/2023 10:00:00 AM 3.68 38.624 0.302 7.32 5.03 13.35
1/10/2023 10:15:00 AM 3.78 38.804 0.302 7.35 4.71 13.43
1/10/2023 10:30:00 AM 3.89 39.002 0.301 7.34 4.66 13.49
1/10/2023 10:45:00 AM 4 39.2 0.301 7.38 4.63 13.55
1/10/2023 11:00:00 AM 4.09 39.362 0.301 7.38 4.49 13.58
1/10/2023 11:15:00 AM 4.17 39.506 0.301 7.4 4.58 13.62
1/10/2023 11:30:00 AM 4.25 39.65 0.301 7.39 4.57 13.65
1/10/2023 11:45:00 AM 4.34 39.812 0.301 7.41 4.54 13.69
1/10/2023 12:00:00 PM 4.44 39.992 0.301 7.42 4.94 13.71
1/10/2023 12:15:00 PM 4.68 40.424 0.301 7.44 4.8 13.76
1/10/2023 12:30:00 PM 4.82 40.676 0.301 7.43 5.18 13.77
1/10/2023 12:45:00 PM 5 41 0.3 7.45 5.11 13.79
1/10/2023 1:00:00 PM 5.16 41.288 0.3 7.48 4.95 13.8
1/10/2023 1:15:00 PM 5.31 41.558 0.3 7.48 5.12 13.8
1/10/2023 1:30:00 PM 5.42 41.756 0.3 7.51 5.99 13.81
1/10/2023 1:45:00 PM 5.51 41.918 0.3 7.52 5.72 13.8
1/10/2023 2:00:00 PM 5.55 41.99 0.3 7.52 6.81 13.78
1/10/2023 2:15:00 PM 5.61 42.098 0.3 7.51 8.52 13.77
1/10/2023 2:30:00 PM 5.61 42.098 0.3 7.52 6.35 13.72
1/10/2023 2:45:00 PM 5.63 42.134 0.3 7.55 4.79 13.71
1/10/2023 3:00:00 PM 5.65 42.17 0.3 7.52 4.65 13.67
1/10/2023 3:15:00 PM 5.66 42.188 0.299 7.55 4.93 13.62
1/10/2023 3:30:00 PM 5.68 42.224 0.299 7.54 5.51 13.56
1/10/2023 3:45:00 PM 5.7 42.26 0.299 7.51 7.22 13.5
1/10/2023 4:00:00 PM 5.72 42.296 0.299 7.52 5.02 13.44
1/10/2023 4:15:00 PM 5.73 42.314 0.299 7.49 9.24 13.35
1/10/2023 4:30:00 PM 5.74 42.332 0.299 7.48 5.3 13.28
1/10/2023 4:45:00 PM 5.73 42.314 0.299 7.47 4.67 13.18
1/10/2023 5:00:00 PM 5.71 42.278 0.299 7.45 5.05 13.08
1/10/2023 5:15:00 PM 5.67 42.206 0.299 7.44 4.71 12.99
1/10/2023 5:30:00 PM 5.63 42.134 0.299 7.42 4.86 12.91
1/10/2023 5:45:00 PM 5.57 42.026 0.299 7.43 6.18 12.85
1/10/2023 6:00:00 PM 5.5 41.9 0.299 7.41 4.92 12.79
1/10/2023 6:15:00 PM 5.43 41.774 0.3 7.4 5.06 12.75
1/10/2023 6:30:00 PM 5.36 41.648 0.3 7.35 5.84 12.7
1/10/2023 6:45:00 PM 5.29 41.522 0.3 7.35 5.04 12.67
1/10/2023 7:00:00 PM 5.22 41.396 0.3 7.37 5.13 12.64
1/10/2023 7:15:00 PM 5.15 41.27 0.3 7.35 4.99 12.6
1/10/2023 7:30:00 PM 5.09 41.162 0.3 7.31 4.8 12.57
1/10/2023 7:45:00 PM 5.04 41.072 0.3 7.33 4.66 12.54
1/10/2023 8:00:00 PM 4.98 40.964 0.3 7.33 4.6 12.51
1/10/2023 8:15:00 PM 4.92 40.856 0.3 7.32 4.55 12.49
1/10/2023 8:30:00 PM 4.88 40.784 0.3 7.32 5 12.47
1/10/2023 8:45:00 PM 4.83 40.694 0.3 7.32 4.93 12.45
1/10/2023 9:00:00 PM 4.79 40.622 0.301 7.31 4.69 12.43
1/10/2023 9:15:00 PM 4.75 40.55 0.301 7.31 4.97 12.42
1/10/2023 9:30:00 PM 4.71 40.478 0.301 7.29 4.82 12.4
1/10/2023 9:45:00 PM 4.66 40.388 0.301 7.28 5.38 12.39
1/10/2023 10:00:00 PM 4.63 40.334 0.301 7.26 6.07 12.39
1/10/2023 10:15:00 PM 4.59 40.262 0.301 7.27 6.81 12.38
1/10/2023 10:30:00 PM 4.56 40.208 0.301 7.27 5.12 12.39
1/10/2023 10:45:00 PM 4.53 40.154 0.301 7.28 5.27 12.38
1/10/2023 11:00:00 PM 4.53 40.154 0.301 7.27 5.6 12.37
1/10/2023 11:15:00 PM 4.52 40.136 0.301 7.27 4.85 12.37
1/10/2023 11:30:00 PM 4.51 40.118 0.301 7.27 5.85 12.37
1/10/2023 11:45:00 PM 4.48 40.064 0.301 7.27 5.28 12.37
1/11/2023 12:00:00 AM 4.44 39.992 0.301 7.28 5.17 12.37
1/11/2023 12:15:00 AM 4.39 39.902 0.301 7.27 6.03 12.38
1/11/2023 12:30:00 AM 4.35 39.83 0.301 7.27 5.1 12.38
1/11/2023 12:45:00 AM 4.31 39.758 0.301 7.23 5.34 12.4
1/11/2023 1:00:00 AM 4.26 39.668 0.301 7.26 5.41 12.4
1/11/2023 1:15:00 AM 4.21 39.578 0.301 7.26 5.03 12.41
1/11/2023 1:30:00 AM 4.16 39.488 0.301 7.27 5.12 12.42
1/11/2023 1:45:00 AM 4.11 39.398 0.301 7.27 5.06 12.44
1/11/2023 2:00:00 AM 4.07 39.326 0.301 7.25 5.22 12.46
1/11/2023 2:15:00 AM 4.02 39.236 0.301 7.24 5.27 12.47
1/11/2023 2:30:00 AM 3.97 39.146 0.301 7.25 5.03 12.49
1/11/2023 2:45:00 AM 3.92 39.056 0.301 7.22 4.97 12.5
1/11/2023 3:00:00 AM 3.89 39.002 0.301 7.23 4.74 12.52
1/11/2023 3:15:00 AM 3.86 38.948 0.301 7.24 5.74 12.54
1/11/2023 3:30:00 AM 3.85 38.93 0.301 7.26 5.64 12.55
1/11/2023 3:45:00 AM 3.84 38.912 0.301 7.21 6.41 12.56
1/11/2023 4:00:00 AM 3.79 38.822 0.301 7.26 5 12.58
1/11/2023 4:15:00 AM 3.74 38.732 0.301 7.23 4.81 12.6
1/11/2023 4:30:00 AM 3.68 38.624 0.302 7.23 5.43 12.61
1/11/2023 4:45:00 AM 3.63 38.534 0.302 7.22 4.93 12.62
1/11/2023 5:00:00 AM 3.58 38.444 0.302 7.23 5.01 12.64
1/11/2023 5:15:00 AM 3.52 38.336 0.302 7.23 5.05 12.65
1/11/2023 5:30:00 AM 3.47 38.246 0.302 7.21 5.63 12.66
1/11/2023 5:45:00 AM 3.43 38.174 0.302 7.23 5.3 12.68
1/11/2023 6:00:00 AM 3.39 38.102 0.302 7.22 7.4 12.7
1/11/2023 6:15:00 AM 3.35 38.03 0.302 7.25 5.13 12.7
1/11/2023 6:30:00 AM 3.31 37.958 0.302 7.24 5.56 12.72
1/11/2023 6:45:00 AM 3.26 37.868 0.302 7.23 5.93 12.73
1/11/2023 7:00:00 AM 3.22 37.796 0.302 7.25 5.61 12.75
1/11/2023 7:15:00 AM 3.18 37.724 0.302 7.22 5.76 12.77
1/11/2023 7:30:00 AM 3.14 37.652 0.302 7.24 5.59 12.79
1/11/2023 7:45:00 AM 3.11 37.598 0.303 7.22 5.05 12.83
1/11/2023 8:00:00 AM 3.09 37.562 0.302 7.22 5.01 12.89
1/11/2023 8:15:00 AM 3.09 37.562 0.302 7.24 5.12 12.97
1/11/2023 8:30:00 AM 3.08 37.544 0.302 7.25 5.75 13.04
1/11/2023 8:45:00 AM 3.1 37.58 0.302 7.25 5.07 13.13
1/11/2023 9:00:00 AM 3.14 37.652 0.302 7.29 5 13.22
1/11/2023 9:15:00 AM 3.19 37.742 0.302 7.27 6.69 13.3
1/11/2023 9:30:00 AM 3.26 37.868 0.302 7.29 5.56 13.38
1/11/2023 9:45:00 AM 3.35 38.03 0.302 7.34 4.91 13.47
1/11/2023 10:00:00 AM 3.45 38.21 0.302 7.32 5.35 13.54
1/11/2023 10:15:00 AM 3.54 38.372 0.302 7.37 5.63 13.6
1/11/2023 10:30:00 AM 3.62 38.516 0.302 7.37 4.65 13.66
1/11/2023 10:45:00 AM 3.71 38.678 0.302 7.35 4.73 13.71
1/11/2023 11:00:00 AM 3.82 38.876 0.301 7.39 4.8 13.77
1/11/2023 11:15:00 AM 3.95 39.11 0.301 7.39 4.65 13.82
1/11/2023 11:30:00 AM 4.08 39.344 0.301 7.39 4.74 13.85
1/11/2023 11:45:00 AM 4.18 39.524 0.301 7.42 4.63 13.88
1/11/2023 12:00:00 PM 4.29 39.722 0.301 7.45 5.19 13.9
1/11/2023 12:15:00 PM 4.4 39.92 0.301 7.46 5.52 13.92
1/11/2023 12:30:00 PM 4.5 40.1 0.301 7.45 5.53 13.94
1/11/2023 12:45:00 PM 4.56 40.208 0.301 7.46 5.99 13.94
1/11/2023 1:00:00 PM 4.7 40.46 0.301 7.49 5.63 13.95
1/11/2023 1:15:00 PM 4.79 40.622 0.301 7.48 4.93 13.94
1/11/2023 1:30:00 PM 4.87 40.766 0.301 7.48 5.02 13.93
1/11/2023 1:45:00 PM 4.93 40.874 0.301 7.49 5.73 13.91
1/11/2023 2:00:00 PM 4.98 40.964 0.301 7.5 5.52 13.89
1/11/2023 2:15:00 PM 5.03 41.054 0.301 7.5 5.17 13.85
1/11/2023 2:30:00 PM 5.09 41.162 0.301 7.5 5.44 13.84
1/11/2023 2:45:00 PM 5.13 41.234 0.301 7.5 5.24 13.81
1/11/2023 3:00:00 PM 5.16 41.288 0.301 7.53 5.55 13.78
1/11/2023 3:15:00 PM 5.17 41.306 0.301 7.53 5.41 13.74
1/11/2023 3:30:00 PM 5.2 41.36 0.301 7.49 5.91 13.73
1/11/2023 3:45:00 PM 5.26 41.468 0.301 7.53 5.28 13.73
1/11/2023 4:00:00 PM 5.25 41.45 0.301 7.52 4.68 13.69
1/11/2023 4:15:00 PM 5.2 41.36 0.301 7.5 5.16 13.62
1/11/2023 4:30:00 PM 5.16 41.288 0.301 7.48 5.04 13.53
1/11/2023 4:45:00 PM 5.12 41.216 0.301 7.48 5.43 13.44
1/11/2023 5:00:00 PM 5.08 41.144 0.301 7.47 5.73 13.36
1/11/2023 5:15:00 PM 5.05 41.09 0.301 7.42 5.13 13.27
1/11/2023 5:30:00 PM 5.04 41.072 0.301 7.44 5 13.18
1/11/2023 5:45:00 PM 5.02 41.036 0.301 7.42 5.24 13.11
1/11/2023 6:00:00 PM 5.01 41.018 0.301 7.39 4.65 13.05
1/11/2023 6:15:00 PM 5 41 0.301 7.38 4.87 12.99
1/11/2023 6:30:00 PM 4.99 40.982 0.301 7.37 4.72 12.93
1/11/2023 6:45:00 PM 4.99 40.982 0.301 7.36 5 12.88
1/11/2023 7:00:00 PM 4.98 40.964 0.301 7.35 5.03 12.83
1/11/2023 7:15:00 PM 4.96 40.928 0.301 7.37 4.92 12.78
1/11/2023 7:30:00 PM 4.94 40.892 0.301 7.34 4.94 12.74
1/11/2023 7:45:00 PM 4.92 40.856 0.301 7.36 7.63 12.7
1/11/2023 8:00:00 PM 4.91 40.838 0.301 7.32 4.61 12.67
1/11/2023 8:15:00 PM 4.9 40.82 0.301 7.34 6.2 12.63
1/11/2023 8:30:00 PM 4.9 40.82 0.301 7.33 4.9 12.61
1/11/2023 8:45:00 PM 4.89 40.802 0.301 7.32 4.85 12.58
1/11/2023 9:00:00 PM 4.89 40.802 0.301 7.32 7.05 12.54
1/11/2023 9:15:00 PM 4.89 40.802 0.301 7.3 4.6 12.52
1/11/2023 9:30:00 PM 4.9 40.82 0.301 7.29 4.58 12.51
1/11/2023 9:45:00 PM 4.88 40.784 0.301 7.28 5.83 12.49
1/11/2023 10:00:00 PM 4.89 40.802 0.301 7.32 4.6 12.47
1/11/2023 10:15:00 PM 4.89 40.802 0.301 7.32 4.62 12.46
1/11/2023 10:30:00 PM 4.89 40.802 0.301 7.31 4.35 12.44
1/11/2023 10:45:00 PM 4.89 40.802 0.301 7.31 4.42 12.44
1/11/2023 11:00:00 PM 4.88 40.784 0.301 7.31 4.2 12.42
1/11/2023 11:15:00 PM 4.89 40.802 0.301 7.3 4.38 12.4
1/11/2023 11:30:00 PM 4.88 40.784 0.301 7.3 4.51 12.4
1/11/2023 11:45:00 PM 4.87 40.766 0.301 7.29 4.52 12.38
1/12/2023 12:00:00 AM 4.87 40.766 0.301 7.3 5.27 12.37
1/12/2023 12:15:00 AM 4.86 40.748 0.3 7.28 6.02 12.37
1/12/2023 12:30:00 AM 4.86 40.748 0.3 7.3 4.95 12.36
1/12/2023 12:45:00 AM 4.86 40.748 0.3 7.28 4.55 12.36
1/12/2023 1:00:00 AM 4.86 40.748 0.3 7.26 4.58 12.36
1/12/2023 1:15:00 AM 4.85 40.73 0.3 7.29 4.13 12.35
1/12/2023 1:30:00 AM 4.85 40.73 0.3 7.29 3.95 12.35
1/12/2023 1:45:00 AM 4.85 40.73 0.3 7.29 4.54 12.34
1/12/2023 2:00:00 AM 4.85 40.73 0.3 7.27 4.11 12.33
1/12/2023 2:15:00 AM 4.85 40.73 0.3 7.25 4.13 12.34
1/12/2023 2:30:00 AM 4.85 40.73 0.3 7.28 4.05 12.33
1/12/2023 2:45:00 AM 4.84 40.712 0.3 7.28 4.54 12.34
1/12/2023 3:00:00 AM 4.84 40.712 0.3 7.28 4.36 12.32
1/12/2023 3:15:00 AM 4.84 40.712 0.3 7.28 4.08 12.32
1/12/2023 3:30:00 AM 4.84 40.712 0.3 7.27 4.51 12.32
1/12/2023 3:45:00 AM 4.83 40.694 0.3 7.24 4.23 12.31
1/12/2023 4:00:00 AM 4.83 40.694 0.3 7.24 5.57 12.31
1/12/2023 4:15:00 AM 4.83 40.694 0.3 7.25 4.54 12.31
1/12/2023 4:30:00 AM 4.83 40.694 0.3 7.25 6.77 12.31
1/12/2023 4:45:00 AM 4.84 40.712 0.3 7.28 5.31 12.31
1/12/2023 5:00:00 AM 4.84 40.712 0.3 7.27 4.6 12.32
1/12/2023 5:15:00 AM 4.84 40.712 0.3 7.24 4.55 12.31
1/12/2023 5:30:00 AM 4.85 40.73 0.3 7.26 4.04 12.31
1/12/2023 5:45:00 AM 4.86 40.748 0.3 7.26 4.26 12.3
1/12/2023 6:00:00 AM 4.86 40.748 0.3 7.27 4.25 12.3
1/12/2023 6:15:00 AM 4.87 40.766 0.3 7.27 4.34 12.3
1/12/2023 6:30:00 AM 4.88 40.784 0.3 7.25 4.52 12.3
1/12/2023 6:45:00 AM 4.89 40.802 0.3 7.26 4.26 12.29
1/12/2023 7:00:00 AM 4.9 40.82 0.3 7.28 4.89 12.29
1/12/2023 7:15:00 AM 4.91 40.838 0.3 7.24 4.44 12.28
1/12/2023 7:30:00 AM 4.92 40.856 0.3 7.24 4.52 12.28
1/12/2023 7:45:00 AM 4.94 40.892 0.3 7.25 4.35 12.28
1/12/2023 8:00:00 AM 4.96 40.928 0.3 7.27 4.42 12.31
1/12/2023 8:15:00 AM 4.98 40.964 0.3 7.26 4.55 12.34
1/12/2023 8:30:00 AM 5.01 41.018 0.3 7.28 4.17 12.39
1/12/2023 8:45:00 AM 5.05 41.09 0.3 7.29 4.29 12.44
1/12/2023 9:00:00 AM 5.09 41.162 0.3 7.3 4.18 12.5
1/12/2023 9:15:00 AM 5.14 41.252 0.3 7.29 4.33 12.58
1/12/2023 9:30:00 AM 5.19 41.342 0.3 7.31 4.16 12.65
1/12/2023 9:45:00 AM 5.26 41.468 0.3 7.34 4.78 12.74
1/12/2023 10:00:00 AM 5.35 41.63 0.3 7.33 4.37 12.84
1/12/2023 10:15:00 AM 5.46 41.828 0.299 7.35 4.25 12.93
1/12/2023 10:30:00 AM 5.55 41.99 0.299 7.4 4.33 12.99
1/12/2023 10:45:00 AM 5.67 42.206 0.299 7.37 4.35 13.06
1/12/2023 11:00:00 AM 5.82 42.476 0.299 7.42 4.7 13.13
1/12/2023 11:15:00 AM 5.98 42.764 0.299 7.41 4.36 13.19
1/12/2023 11:30:00 AM 6.12 43.016 0.299 7.46 4.4 13.23
1/12/2023 11:45:00 AM 6.23 43.214 0.299 7.42 4.37 13.26
1/12/2023 12:00:00 PM 6.35 43.43 0.298 7.44 4.43 13.29
1/12/2023 12:15:00 PM 6.46 43.628 0.298 7.46 4.32 13.31
1/12/2023 12:30:00 PM 6.62 43.916 0.298 7.51 4.62 13.34
1/12/2023 12:45:00 PM 6.7 44.06 0.298 7.54 4.41 13.33
1/12/2023 1:00:00 PM 6.81 44.258 0.298 7.52 4.21 13.34
1/12/2023 1:15:00 PM 6.9 44.42 0.298 7.55 4.46 13.36
1/12/2023 1:30:00 PM 6.95 44.51 0.298 7.55 4.37 13.33
1/12/2023 1:45:00 PM 7.02 44.636 0.298 7.57 4.24 13.32
1/12/2023 2:00:00 PM 7.15 44.87 0.298 7.58 4.31 13.33
1/12/2023 2:15:00 PM 7.24 45.032 0.297 7.54 4.39 13.3
1/12/2023 2:30:00 PM 7.27 45.086 0.297 7.55 4.64 13.24
1/12/2023 2:45:00 PM 7.32 45.176 0.297 7.55 4.59 13.19
1/12/2023 3:00:00 PM 7.38 45.284 0.297 7.56 4.38 13.15
1/12/2023 3:15:00 PM 7.41 45.338 0.297 7.59 4.41 13.1
1/12/2023 3:30:00 PM 7.43 45.374 0.297 7.58 4.45 12.98
1/12/2023 3:45:00 PM 7.43 45.374 0.297 7.51 4.56 12.88
1/12/2023 4:00:00 PM 7.44 45.392 0.297 7.54 4.27 12.79
1/12/2023 4:15:00 PM 7.45 45.41 0.297 7.54 4.48 12.69
1/12/2023 4:30:00 PM 7.45 45.41 0.297 7.52 4.61 12.6
1/12/2023 4:45:00 PM 7.46 45.428 0.297 7.46 4.71 12.49
1/12/2023 5:00:00 PM 7.46 45.428 0.297 7.44 4.66 12.39
1/12/2023 5:15:00 PM 7.46 45.428 0.297 7.45 4.44 12.3
1/12/2023 5:30:00 PM 7.47 45.446 0.297 7.45 4.32 12.22
1/12/2023 5:45:00 PM 7.47 45.446 0.298 7.42 4.41 12.16
1/12/2023 6:00:00 PM 7.48 45.464 0.298 7.41 4.82 12.07
1/12/2023 6:15:00 PM 7.49 45.482 0.298 7.39 4.62 12
1/12/2023 6:30:00 PM 7.51 45.518 0.298 7.37 6.41 11.9
1/12/2023 6:45:00 PM 7.52 45.536 0.298 7.38 4.29 11.87
1/12/2023 7:00:00 PM 7.54 45.572 0.298 7.33 4.66 11.82
1/12/2023 7:15:00 PM 7.55 45.59 0.298 7.37 4.6 11.76
1/12/2023 7:30:00 PM 7.57 45.626 0.298 7.37 4.69 11.71
1/12/2023 7:45:00 PM 7.59 45.662 0.298 7.36 4.43 11.67
1/12/2023 8:00:00 PM 7.6 45.68 0.299 7.34 4.76 11.61
1/12/2023 8:15:00 PM 7.61 45.698 0.299 7.31 4.38 11.57
1/12/2023 8:30:00 PM 7.64 45.752 0.299 7.34 3.54 11.54
1/12/2023 8:45:00 PM 7.66 45.788 0.299 7.32 4.37 11.51
1/12/2023 9:00:00 PM 7.68 45.824 0.299 7.33 4.85 11.46
1/12/2023 9:15:00 PM 7.71 45.878 0.299 7.33 4.8 11.42
1/12/2023 9:30:00 PM 7.73 45.914 0.299 7.32 4.69 11.38
1/12/2023 9:45:00 PM 7.75 45.95 0.299 7.3 4.47 11.37
1/12/2023 10:00:00 PM 7.78 46.004 0.299 7.29 4.19 11.34
1/12/2023 10:15:00 PM 7.82 46.076 0.297 7.28 4.32 11.32
1/12/2023 10:30:00 PM 7.84 46.112 0.297 7.27 4.4 11.29
1/12/2023 10:45:00 PM 7.85 46.13 0.298 7.27 4.7 11.27
1/12/2023 11:00:00 PM 7.86 46.148 0.298 7.3 4.63 11.25
1/12/2023 11:15:00 PM 7.87 46.166 0.297 7.3 4.44 11.23
1/12/2023 11:30:00 PM 7.89 46.202 0.297 7.26 4.5 11.2
1/12/2023 11:45:00 PM 7.91 46.238 0.297 7.26 4.2 11.2
1/13/2023 12:00:00 AM 7.94 46.292 0.297 7.26 4.91 11.19
1/13/2023 12:15:00 AM 7.96 46.328 0.297 7.31 4.54 11.16
1/13/2023 12:30:00 AM 7.98 46.364 0.296 7.24 4.86 11.14
1/13/2023 12:45:00 AM 8.02 46.436 0.296 7.27 4.44 11.13
1/13/2023 1:00:00 AM 8.06 46.508 0.296 7.29 4.14 11.12
1/13/2023 1:15:00 AM 8.09 46.562 0.296 7.3 4.52 11.11
1/13/2023 1:30:00 AM 8.12 46.616 0.295 7.29 4.56 11.09
1/13/2023 1:45:00 AM 8.15 46.67 0.295 7.26 4.47 11.07
1/13/2023 2:00:00 AM 8.18 46.724 0.295 7.28 4.25 11.06
1/13/2023 2:15:00 AM 8.21 46.778 0.295 7.29 4.17 11.05
1/13/2023 2:30:00 AM 8.24 46.832 0.295 7.29 4.23 11.04
1/13/2023 2:45:00 AM 8.27 46.886 0.295 7.28 4.87 11.02
1/13/2023 3:00:00 AM 8.29 46.922 0.295 7.28 4.54 11.01
1/13/2023 3:15:00 AM 8.32 46.976 0.295 7.29 4.61 11.01
1/13/2023 3:30:00 AM 8.34 47.012 0.295 7.28 4.88 11
1/13/2023 3:45:00 AM 8.36 47.048 0.295 7.26 4.67 10.98
1/13/2023 4:00:00 AM 8.38 47.084 0.295 7.28 4.28 10.97
1/13/2023 4:15:00 AM 8.4 47.12 0.295 7.28 4.53 10.96
1/13/2023 4:30:00 AM 8.42 47.156 0.295 7.3 5.04 10.94
1/13/2023 4:45:00 AM 8.44 47.192 0.295 7.29 4.47 10.93
1/13/2023 5:00:00 AM 8.46 47.228 0.295 7.29 4.22 10.93
1/13/2023 5:15:00 AM 8.48 47.264 0.295 7.29 4.77 10.92
1/13/2023 5:30:00 AM 8.5 47.3 0.295 7.28 4.74 10.9
1/13/2023 5:45:00 AM 8.52 47.336 0.295 7.29 4.75 10.9
1/13/2023 6:00:00 AM 8.52 47.336 0.295 7.29 4.8 10.89
1/13/2023 6:15:00 AM 8.53 47.354 0.295 7.29 5.36 10.9
1/13/2023 6:30:00 AM 8.54 47.372 0.295 7.23 4.98 10.9
1/13/2023 6:45:00 AM 8.54 47.372 0.295 7.29 5.22 10.89
1/13/2023 7:00:00 AM 8.54 47.372 0.295 7.29 5.76 10.88
1/13/2023 7:15:00 AM 8.55 47.39 0.295 7.29 5.39 10.87
1/13/2023 7:30:00 AM 8.55 47.39 0.295 7.23 4.92 10.87
1/13/2023 7:45:00 AM 8.55 47.39 0.295 7.29 6.62 10.87
1/13/2023 8:00:00 AM 8.54 47.372 0.295 7.3 4.67 10.89
1/13/2023 8:15:00 AM 8.53 47.354 0.295 7.23 4.69 10.88
1/13/2023 8:30:00 AM 8.53 47.354 0.295 7.3 5.61 10.94
1/13/2023 8:45:00 AM 8.52 47.336 0.295 7.3 12.73 10.97
1/13/2023 9:00:00 AM 8.52 47.336 0.295 7.28 5.15 11.03
1/13/2023 9:15:00 AM 8.52 47.336 0.294 7.33 5.33 11.11
1/13/2023 9:30:00 AM 8.53 47.354 0.294 7.34 5.08 11.23
1/13/2023 9:45:00 AM 8.57 47.426 0.294 7.35 4.89 11.38
1/13/2023 10:00:00 AM 8.63 47.534 0.294 7.39 4.92 11.53
1/13/2023 10:15:00 AM 8.66 47.588 0.294 7.42 5.38 11.64
1/13/2023 10:30:00 AM 8.71 47.678 0.293 7.42 5.08 11.77
1/13/2023 10:45:00 AM 8.77 47.786 0.293 7.45 5.15 11.86
1/13/2023 11:00:00 AM 8.79 47.822 0.293 7.48 5.17 11.92
1/13/2023 11:15:00 AM 8.81 47.858 0.293 7.5 159.16 11.99
1/13/2023 11:30:00 AM 8.77 47.786 0.293 7.5 5.71 12.05
1/13/2023 11:45:00 AM 8.77 47.786 0.293 7.54 4.97 12.1
1/13/2023 12:00:00 PM 8.76 47.768 0.293 7.55 4.67 12.14
1/13/2023 12:15:00 PM 8.76 47.768 0.293 7.56 5.15 12.18
1/13/2023 12:30:00 PM 8.76 47.768 0.293 7.56 4.88 12.23
1/13/2023 12:45:00 PM 8.77 47.786 0.293 7.57 4.85 12.24
1/13/2023 1:00:00 PM 8.8 47.84 0.293 7.59 10.96 12.31
1/13/2023 1:15:00 PM 8.79 47.822 0.294 7.61 10.34 12.31
1/13/2023 1:30:00 PM 8.8 47.84 0.294 7.62 4.76 12.3
1/13/2023 1:45:00 PM 8.79 47.822 0.294 7.63 4.33 12.32
1/13/2023 2:00:00 PM 8.8 47.84 0.294 7.64 4.44 12.34
1/13/2023 2:15:00 PM 8.81 47.858 0.295 7.62 4.61 12.34
1/13/2023 2:30:00 PM 8.78 47.804 0.295 7.65 4.95 12.33
1/13/2023 2:45:00 PM 8.75 47.75 0.295 7.66 4.02 12.32
1/13/2023 3:00:00 PM 8.71 47.678 0.296 7.64 4.22 12.27
1/13/2023 3:15:00 PM 8.66 47.588 0.296 7.63 4.65 12.23
1/13/2023 3:30:00 PM 8.62 47.516 0.296 7.62 5.7 12.18
1/13/2023 3:45:00 PM 8.57 47.426 0.296 7.6 4.21 12.12
1/13/2023 4:00:00 PM 8.51 47.318 0.296 7.55 4.99 12.05
1/13/2023 4:15:00 PM 8.46 47.228 0.296 7.56 8.67 11.99
1/13/2023 4:30:00 PM 8.41 47.138 0.297 7.55 6.08 11.91
1/13/2023 4:45:00 PM 8.36 47.048 0.297 7.53 4.99 11.85
1/13/2023 5:00:00 PM 8.31 46.958 0.297 7.51 4.96 11.78
1/13/2023 5:15:00 PM 8.26 46.868 0.297 7.5 5.13 11.71
1/13/2023 5:30:00 PM 8.21 46.778 0.297 7.48 4.82 11.66
1/13/2023 5:45:00 PM 8.14 46.652 0.298 7.46 5.12 11.62
1/13/2023 6:00:00 PM 8.08 46.544 0.298 7.46 6.26 11.57
1/13/2023 6:15:00 PM 8.02 46.436 0.298 7.44 4.28 11.53
1/13/2023 6:30:00 PM 7.96 46.328 0.298 7.44 5.36 11.49
1/13/2023 6:45:00 PM 7.88 46.184 0.299 7.43 4.58 11.47
1/13/2023 7:00:00 PM 7.81 46.058 0.299 7.42 4.95 11.43
1/13/2023 7:15:00 PM 7.76 45.968 0.299 7.41 5.79 11.41
1/13/2023 7:30:00 PM 7.73 45.914 0.3 7.41 4.55 11.39
1/13/2023 7:45:00 PM 7.67 45.806 0.3 7.4 5.94 11.37
1/13/2023 8:00:00 PM 7.61 45.698 0.3 7.39 5.01 11.37
1/13/2023 8:15:00 PM 7.55 45.59 0.3 7.39 4.89 11.37
1/13/2023 8:30:00 PM 7.5 45.5 0.301 7.36 4.78 11.35
1/13/2023 8:45:00 PM 7.46 45.428 0.301 7.35 4.81 11.35
1/13/2023 9:00:00 PM 7.4 45.32 0.301 7.38 4.61 11.35
1/13/2023 9:15:00 PM 7.35 45.23 0.301 7.37 4.47 11.35
1/13/2023 9:30:00 PM 7.29 45.122 0.301 7.34 4.88 11.35
1/13/2023 9:45:00 PM 7.23 45.014 0.301 7.35 4.39 11.36
1/13/2023 10:00:00 PM 7.18 44.924 0.301 7.35 4.73 11.36
1/13/2023 10:15:00 PM 7.13 44.834 0.301 7.3 4.81 11.36
1/13/2023 10:30:00 PM 7.07 44.726 0.3 7.36 4.84 11.36
1/13/2023 10:45:00 PM 6.98 44.564 0.3 7.33 4.58 11.37
1/13/2023 11:00:00 PM 6.93 44.474 0.3 7.36 5.02 11.38
1/13/2023 11:15:00 PM 6.88 44.384 0.3 7.36 4.35 11.39
1/13/2023 11:30:00 PM 6.83 44.294 0.3 7.35 4.73 11.39
1/13/2023 11:45:00 PM 6.77 44.186 0.3 7.35 4.9 11.41
1/14/2023 12:00:00 AM 6.7 44.06 0.3 7.34 4.95 11.41
1/14/2023 12:15:00 AM 6.63 43.934 0.3 7.34 4.44 11.44
1/14/2023 12:30:00 AM 6.58 43.844 0.3 7.34 5.28 11.45
1/14/2023 12:45:00 AM 6.51 43.718 0.3 7.29 4.65 11.45
1/14/2023 1:00:00 AM 6.45 43.61 0.3 7.34 4.41 11.48
1/14/2023 1:15:00 AM 6.39 43.502 0.3 7.34 4.25 11.5
1/14/2023 1:30:00 AM 6.33 43.394 0.3 7.3 4.02 11.51
1/14/2023 1:45:00 AM 6.27 43.286 0.3 7.33 4.11 11.53
1/14/2023 2:00:00 AM 6.2 43.16 0.3 7.33 4.21 11.55
1/14/2023 2:15:00 AM 6.13 43.034 0.3 7.33 4.55 11.58
1/14/2023 2:30:00 AM 6.09 42.962 0.3 7.32 4.44 11.59
1/14/2023 2:45:00 AM 6.03 42.854 0.3 7.32 4.67 11.61
1/14/2023 3:00:00 AM 5.97 42.746 0.3 7.33 4.64 11.61
1/14/2023 3:15:00 AM 5.91 42.638 0.301 7.33 4.32 11.64
1/14/2023 3:30:00 AM 5.84 42.512 0.301 7.33 4.47 11.66
1/14/2023 3:45:00 AM 5.78 42.404 0.301 7.27 4.94 11.67
1/14/2023 4:00:00 AM 5.73 42.314 0.301 7.28 4.51 11.69
1/14/2023 4:15:00 AM 5.68 42.224 0.301 7.28 4.82 11.71
1/14/2023 4:30:00 AM 5.62 42.116 0.301 7.29 4.45 11.73
1/14/2023 4:45:00 AM 5.56 42.008 0.301 7.33 4.46 11.74
1/14/2023 5:00:00 AM 5.5 41.9 0.302 7.32 4.53 11.77
1/14/2023 5:15:00 AM 5.46 41.828 0.302 7.32 4.5 11.78
1/14/2023 5:30:00 AM 5.41 41.738 0.302 7.32 4.42 11.79
1/14/2023 5:45:00 AM 5.37 41.666 0.302 7.31 4.09 11.81
1/14/2023 6:00:00 AM 5.33 41.594 0.302 7.32 4.28 11.83
1/14/2023 6:15:00 AM 5.3 41.54 0.302 7.32 4.41 11.84
1/14/2023 6:30:00 AM 5.25 41.45 0.302 7.29 4.24 11.86
1/14/2023 6:45:00 AM 5.2 41.36 0.302 7.27 4.13 11.88
1/14/2023 7:00:00 AM 5.16 41.288 0.302 7.31 4.59 11.89
1/14/2023 7:15:00 AM 5.13 41.234 0.302 7.29 4.7 11.91
1/14/2023 7:30:00 AM 5.09 41.162 0.302 7.3 4.36 11.92
1/14/2023 7:45:00 AM 5.05 41.09 0.302 7.26 4.62 11.94
1/14/2023 8:00:00 AM 4.99 40.982 0.302 7.28 4.49 11.99
1/14/2023 8:15:00 AM 4.96 40.928 0.302 7.27 4.64 12.03
1/14/2023 8:30:00 AM 4.92 40.856 0.302 7.28 4.54 12.07
1/14/2023 8:45:00 AM 4.87 40.766 0.302 7.28 4.46 12.15
1/14/2023 9:00:00 AM 4.82 40.676 0.302 7.29 5.12 12.22
1/14/2023 9:15:00 AM 4.8 40.64 0.302 7.34 4.28 12.29
1/14/2023 9:30:00 AM 4.76 40.568 0.302 7.35 4.81 12.35
1/14/2023 9:45:00 AM 4.74 40.532 0.302 7.34 4.37 12.44
1/14/2023 10:00:00 AM 4.71 40.478 0.302 7.37 4.28 12.52
1/14/2023 10:15:00 AM 4.69 40.442 0.301 7.38 4.4 12.6
1/14/2023 10:30:00 AM 4.68 40.424 0.301 7.35 4.25 12.68
1/14/2023 10:45:00 AM 4.66 40.388 0.301 7.39 4.24 12.76
1/14/2023 11:00:00 AM 4.67 40.406 0.301 7.39 4.11 12.84
1/14/2023 11:15:00 AM 4.66 40.388 0.301 7.44 4.3 12.93
1/14/2023 11:30:00 AM 4.66 40.388 0.301 7.44 5.86 13.01
1/14/2023 11:45:00 AM 4.65 40.37 0.301 7.45 4.72 13.08
1/14/2023 12:00:00 PM 4.66 40.388 0.301 7.47 4.27 13.15
1/14/2023 12:15:00 PM 4.66 40.388 0.301 7.44 4.55 13.21
1/14/2023 12:30:00 PM 4.65 40.37 0.301 7.46 4.14 13.27
1/14/2023 12:45:00 PM 4.64 40.352 0.301 7.51 3.99 13.32
1/14/2023 1:00:00 PM 4.64 40.352 0.3 7.49 3.76 13.36
1/14/2023 1:15:00 PM 4.63 40.334 0.3 7.53 4.46 13.42
1/14/2023 1:30:00 PM 4.62 40.316 0.3 7.5 4.16 13.46
1/14/2023 1:45:00 PM 4.62 40.316 0.3 7.54 3.93 13.49
1/14/2023 2:00:00 PM 4.59 40.262 0.3 7.52 3.73 13.51
1/14/2023 2:15:00 PM 4.57 40.226 0.3 7.52 3.88 13.52
1/14/2023 2:30:00 PM 4.57 40.226 0.3 7.53 3.59 13.56
1/14/2023 2:45:00 PM 4.56 40.208 0.3 7.54 3.66 13.58
1/14/2023 3:00:00 PM 4.54 40.172 0.3 7.57 3.63 13.59
1/14/2023 3:15:00 PM 4.5 40.1 0.3 7.54 3.68 13.59
1/14/2023 3:30:00 PM 4.49 40.082 0.3 7.55 3.61 13.61
1/14/2023 3:45:00 PM 4.46 40.028 0.3 7.56 3.76 13.61
1/14/2023 4:00:00 PM 4.43 39.974 0.3 7.58 3.99 13.6
1/14/2023 4:15:00 PM 4.39 39.902 0.301 7.59 3.96 13.59
1/14/2023 4:30:00 PM 4.33 39.794 0.301 7.54 3.72 13.56
1/14/2023 4:45:00 PM 4.27 39.686 0.301 7.54 3.84 13.5
1/14/2023 5:00:00 PM 4.21 39.578 0.301 7.54 3.8 13.41
1/14/2023 5:15:00 PM 4.13 39.434 0.301 7.51 3.71 13.34
1/14/2023 5:30:00 PM 4.06 39.308 0.301 7.5 3.73 13.28
1/14/2023 5:45:00 PM 3.98 39.164 0.302 7.49 4.01 13.22
1/14/2023 6:00:00 PM 3.93 39.074 0.302 7.48 4.07 13.18
1/14/2023 6:15:00 PM 3.87 38.966 0.302 7.46 4.24 13.13
1/14/2023 6:30:00 PM 3.8 38.84 0.302 7.45 4.17 13.1
1/14/2023 6:45:00 PM 3.71 38.678 0.302 7.45 4.58 13.07
1/14/2023 7:00:00 PM 3.67 38.606 0.302 7.43 4.94 13.05
1/14/2023 7:15:00 PM 3.63 38.534 0.302 7.41 5.08 13.02
1/14/2023 7:30:00 PM 3.56 38.408 0.303 7.38 4.94 13.01
1/14/2023 7:45:00 PM 3.43 38.174 0.303 7.4 5.17 12.98
1/14/2023 8:00:00 PM 3.34 38.012 0.303 7.4 5.13 12.97
1/14/2023 8:15:00 PM 3.26 37.868 0.303 7.4 4.88 12.96
1/14/2023 8:30:00 PM 3.21 37.778 0.303 7.38 5.93 12.95
1/14/2023 8:45:00 PM 3.15 37.67 0.303 7.36 4.33 12.95
1/14/2023 9:00:00 PM 3.06 37.508 0.303 7.36 5.08 12.95
1/14/2023 9:15:00 PM 3.01 37.418 0.304 7.36 4.96 12.94
1/14/2023 9:30:00 PM 2.95 37.31 0.304 7.35 4.45 12.94
1/14/2023 9:45:00 PM 2.94 37.292 0.304 7.38 5.07 12.94
1/14/2023 10:00:00 PM 2.91 37.238 0.304 7.36 4.64 12.94
1/14/2023 10:15:00 PM 2.87 37.166 0.304 7.32 4.9 12.96
1/14/2023 10:30:00 PM 2.85 37.13 0.303 7.36 4.89 12.96
1/14/2023 10:45:00 PM 2.81 37.058 0.303 7.33 6.13 12.96
1/14/2023 11:00:00 PM 2.77 36.986 0.303 7.32 5.56 12.98
1/14/2023 11:15:00 PM 2.74 36.932 0.303 7.34 5.53 12.98
1/14/2023 11:30:00 PM 2.73 36.914 0.303 7.31 4.62 12.99
1/14/2023 11:45:00 PM 2.67 36.806 0.303 7.32 4.32 12.99
1/15/2023 12:00:00 AM 2.63 36.734 0.303 7.33 4.85 13
1/15/2023 12:15:00 AM 2.6 36.68 0.303 7.32 4.87 13
1/15/2023 12:30:00 AM 2.54 36.572 0.303 7.32 4.64 13
1/15/2023 12:45:00 AM 2.5 36.5 0.303 7.3 4.76 13.01
1/15/2023 1:00:00 AM 2.46 36.428 0.303 7.3 5.09 13.02
1/15/2023 1:15:00 AM 2.42 36.356 0.303 7.3 5.97 13.03
1/15/2023 1:30:00 AM 2.36 36.248 0.303 7.32 4.95 13.05
1/15/2023 1:45:00 AM 2.31 36.158 0.304 7.29 5.04 13.06
1/15/2023 2:00:00 AM 2.26 36.068 0.304 7.29 4.74 13.07
1/15/2023 2:15:00 AM 2.21 35.978 0.304 7.29 4.64 13.08
1/15/2023 2:30:00 AM 2.16 35.888 0.304 7.32 4.48 13.09
1/15/2023 2:45:00 AM 2.12 35.816 0.304 7.31 4.47 13.11
1/15/2023 3:00:00 AM 2.08 35.744 0.304 7.32 4.37 13.13
1/15/2023 3:15:00 AM 2.01 35.618 0.304 7.29 4.39 13.14
1/15/2023 3:30:00 AM 1.96 35.528 0.304 7.31 4.33 13.16
1/15/2023 3:45:00 AM 1.92 35.456 0.305 7.28 4.71 13.18
1/15/2023 4:00:00 AM 1.87 35.366 0.305 7.29 4.88 13.21
1/15/2023 4:15:00 AM 1.82 35.276 0.305 7.28 5.17 13.23
1/15/2023 4:30:00 AM 1.76 35.168 0.305 7.29 4.45 13.25
1/15/2023 4:45:00 AM 1.71 35.078 0.305 7.29 4.25 13.26
1/15/2023 5:00:00 AM 1.68 35.024 0.305 7.3 4.38 13.29
1/15/2023 5:15:00 AM 1.64 34.952 0.305 7.27 4.59 13.31
1/15/2023 5:30:00 AM 1.6 34.88 0.305 7.29 4.71 13.33
1/15/2023 5:45:00 AM 1.57 34.826 0.305 7.28 4.39 13.35
1/15/2023 6:00:00 AM 1.54 34.772 0.305 7.27 4.24 13.36
1/15/2023 6:15:00 AM 1.51 34.718 0.305 7.28 4.15 13.38
1/15/2023 6:30:00 AM 1.49 34.682 0.305 7.27 4.21 13.39
1/15/2023 6:45:00 AM 1.46 34.628 0.305 7.28 3.91 13.41
1/15/2023 7:00:00 AM 1.44 34.592 0.305 7.28 3.97 13.42
1/15/2023 7:15:00 AM 1.42 34.556 0.305 7.27 4.93 13.44
1/15/2023 7:30:00 AM 1.39 34.502 0.305 7.28 4.12 13.46
1/15/2023 7:45:00 AM 1.36 34.448 0.305 7.31 5.16 13.48
1/15/2023 8:00:00 AM 1.33 34.394 0.305 7.29 4.66 13.53
1/15/2023 8:15:00 AM 1.33 34.394 0.305 7.3 5.14 13.58
1/15/2023 8:30:00 AM 1.35 34.43 0.305 7.29 4.92 13.65
1/15/2023 8:45:00 AM 1.39 34.502 0.305 7.32 5.03 13.73
1/15/2023 9:00:00 AM 1.42 34.556 0.305 7.31 5.24 13.81
1/15/2023 9:15:00 AM 1.47 34.646 0.305 7.34 5.36 13.88
1/15/2023 9:30:00 AM 1.54 34.772 0.305 7.34 6.01 13.95
1/15/2023 9:45:00 AM 1.63 34.934 0.305 7.35 5.55 14.02
1/15/2023 10:00:00 AM 1.74 35.132 0.305 7.38 5.4 14.08
1/15/2023 10:15:00 AM 1.87 35.366 0.305 7.37 5.89 14.12
1/15/2023 10:30:00 AM 1.97 35.546 0.304 7.37 6.32 14.17
1/15/2023 10:45:00 AM 2.11 35.798 0.304 7.39 6.91 14.21
1/15/2023 11:00:00 AM 2.24 36.032 0.304 7.39 6.72 14.26
1/15/2023 11:15:00 AM 2.39 36.302 0.304 7.41 6.54 14.31
1/15/2023 11:30:00 AM 2.58 36.644 0.304 7.42 6.01 14.34
1/15/2023 11:45:00 AM 2.66 36.788 0.304 7.44 5.98 14.38
1/15/2023 12:00:00 PM 2.78 37.004 0.304 7.43 6.22 14.39
1/15/2023 12:15:00 PM 2.9 37.22 0.304 7.46 5.79 14.41
1/15/2023 12:30:00 PM 3.08 37.544 0.304 7.47 6.59 14.42
1/15/2023 12:45:00 PM 3.25 37.85 0.303 7.46 9.61 14.42
1/15/2023 1:00:00 PM 3.41 38.138 0.303 7.48 8.1 14.42
1/15/2023 1:15:00 PM 3.57 38.426 0.303 7.5 7.97 14.42
1/15/2023 1:30:00 PM 3.7 38.66 0.303 7.52 8.67 14.41
1/15/2023 1:45:00 PM 3.82 38.876 0.303 7.5 6.01 14.38
1/15/2023 2:00:00 PM 3.91 39.038 0.303 7.54 5.88 14.36
1/15/2023 2:15:00 PM 4 39.2 0.303 7.53 5.6 14.33
1/15/2023 2:30:00 PM 4.05 39.29 0.303 7.53 6.95 14.29
1/15/2023 2:45:00 PM 4.1 39.38 0.303 7.53 5.54 14.26
1/15/2023 3:00:00 PM 4.11 39.398 0.303 7.54 5.41 14.22
1/15/2023 3:15:00 PM 4.13 39.434 0.303 7.57 5.25 14.17
1/15/2023 3:30:00 PM 4.14 39.452 0.303 7.56 5.21 14.12
1/15/2023 3:45:00 PM 4.12 39.416 0.303 7.56 5.17 14.04
1/15/2023 4:00:00 PM 4.08 39.344 0.303 7.55 5.69 14
1/15/2023 4:15:00 PM 4.03 39.254 0.304 7.54 5.24 13.91
1/15/2023 4:30:00 PM 3.98 39.164 0.304 7.53 4.86 13.84
1/15/2023 4:45:00 PM 3.93 39.074 0.304 7.52 5.33 13.77
1/15/2023 5:00:00 PM 3.87 38.966 0.304 7.51 5.48 13.71
1/15/2023 5:15:00 PM 3.8 38.84 0.304 7.48 6.06 13.62
1/15/2023 5:30:00 PM 3.71 38.678 0.304 7.46 6.25 13.59
1/15/2023 5:45:00 PM 3.63 38.534 0.304 7.47 5.49 13.55
1/15/2023 6:00:00 PM 3.54 38.372 0.304 7.46 4.69 13.51
1/15/2023 6:15:00 PM 3.44 38.192 0.304 7.41 4.76 13.48
1/15/2023 6:30:00 PM 3.35 38.03 0.305 7.41 4.75 13.45
1/15/2023 6:45:00 PM 3.26 37.868 0.305 7.43 4.94 13.42
1/15/2023 7:00:00 PM 3.17 37.706 0.305 7.39 5.14 13.38
1/15/2023 7:15:00 PM 3.08 37.544 0.305 7.39 4.77 13.37
1/15/2023 7:30:00 PM 3 37.4 0.305 7.41 7.01 13.34
1/15/2023 7:45:00 PM 2.92 37.256 0.305 7.39 4.71 13.32
1/15/2023 8:00:00 PM 2.84 37.112 0.305 7.39 4.55 13.31
1/15/2023 8:15:00 PM 2.77 36.986 0.305 7.36 4.62 13.29
1/15/2023 8:30:00 PM 2.71 36.878 0.305 7.38 4.51 13.28
1/15/2023 8:45:00 PM 2.66 36.788 0.305 7.34 4.37 13.26
1/15/2023 9:00:00 PM 2.6 36.68 0.305 7.34 4.59 13.26
1/15/2023 9:15:00 PM 2.55 36.59 0.304 7.34 4.55 13.24
1/15/2023 9:30:00 PM 2.52 36.536 0.304 7.33 4.64 13.23
1/15/2023 9:45:00 PM 2.49 36.482 0.304 7.33 4.74 13.23
1/15/2023 10:00:00 PM 2.45 36.41 0.304 7.35 4.89 13.21
1/15/2023 10:15:00 PM 2.42 36.356 0.304 7.31 5.02 13.2
1/15/2023 10:30:00 PM 2.4 36.32 0.304 7.34 6 13.2
1/15/2023 10:45:00 PM 2.38 36.284 0.304 7.33 5.4 13.18
1/15/2023 11:00:00 PM 2.36 36.248 0.304 7.32 5.19 13.18
1/15/2023 11:15:00 PM 2.34 36.212 0.304 7.3 5.17 13.18
1/15/2023 11:30:00 PM 2.32 36.176 0.304 7.32 4.86 13.17
1/15/2023 11:45:00 PM 2.29 36.122 0.305 7.29 5.1 13.17
1/16/2023 12:00:00 AM 2.27 36.086 0.305 7.29 4.79 13.17
1/16/2023 12:15:00 AM 2.25 36.05 0.305 7.29 4.61 13.15
1/16/2023 12:30:00 AM 2.22 35.996 0.305 7.3 4.45 13.16
1/16/2023 12:45:00 AM 2.19 35.942 0.305 7.29 4.6 13.16
1/16/2023 1:00:00 AM 2.16 35.888 0.305 7.29 5.31 13.17
1/16/2023 1:15:00 AM 2.12 35.816 0.305 7.3 4.77 13.18
1/16/2023 1:30:00 AM 2.09 35.762 0.305 7.28 4.84 13.18
1/16/2023 1:45:00 AM 2.06 35.708 0.305 7.29 5.18 13.19
1/16/2023 2:00:00 AM 2.01 35.618 0.305 7.3 4.87 13.2
1/16/2023 2:15:00 AM 1.97 35.546 0.305 7.27 4.86 13.21
1/16/2023 2:30:00 AM 1.93 35.474 0.305 7.31 4.84 13.23
1/16/2023 2:45:00 AM 1.89 35.402 0.305 7.3 5.3 13.25
1/16/2023 3:00:00 AM 1.84 35.312 0.305 7.27 4.86 13.27
1/16/2023 3:15:00 AM 1.79 35.222 0.305 7.27 4.64 13.29
1/16/2023 3:30:00 AM 1.73 35.114 0.305 7.3 4.73 13.31
1/16/2023 3:45:00 AM 1.68 35.024 0.305 7.29 5.41 13.33
1/16/2023 4:00:00 AM 1.64 34.952 0.305 7.28 5.2 13.35
1/16/2023 4:15:00 AM 1.59 34.862 0.305 7.28 318.97 13.36
1/16/2023 4:30:00 AM 1.54 34.772 0.305 7.29 4.59 13.38
1/16/2023 4:45:00 AM 1.5 34.7 0.305 7.29 5.06 13.41
1/16/2023 5:00:00 AM 1.45 34.61 0.305 7.27 6.05 13.44
1/16/2023 5:15:00 AM 1.42 34.556 0.305 7.27 4.35 13.45
1/16/2023 5:30:00 AM 1.38 34.484 0.305 7.27 4.66 13.46
1/16/2023 5:45:00 AM 1.35 34.43 0.305 7.26 4.12 13.47
1/16/2023 6:00:00 AM 1.32 34.376 0.305 7.26 4.15 13.48
1/16/2023 6:15:00 AM 1.29 34.322 0.305 7.27 4.21 13.5
1/16/2023 6:30:00 AM 1.26 34.268 0.305 7.28 4.09 13.51
1/16/2023 6:45:00 AM 1.23 34.214 0.305 7.26 4.55 13.52
1/16/2023 7:00:00 AM 1.2 34.16 0.305 7.28 4.32 13.53
1/16/2023 7:15:00 AM 1.18 34.124 0.305 7.26 4.69 13.54
1/16/2023 7:30:00 AM 1.16 34.088 0.305 7.26 4.16 13.56
1/16/2023 7:45:00 AM 1.14 34.052 0.306 7.28 4.33 13.59
1/16/2023 8:00:00 AM 1.13 34.034 0.306 7.27 5 13.63
1/16/2023 8:15:00 AM 1.12 34.016 0.306 7.27 4.77 13.67
1/16/2023 8:30:00 AM 1.12 34.016 0.306 7.27 5.35 13.74
1/16/2023 8:45:00 AM 1.16 34.088 0.306 7.3 5.29 13.8
1/16/2023 9:00:00 AM 1.21 34.178 0.306 7.31 5.39 13.87
1/16/2023 9:15:00 AM 1.26 34.268 0.306 7.3 5.74 13.94
1/16/2023 9:30:00 AM 1.35 34.43 0.306 7.31 5.56 14
1/16/2023 9:45:00 AM 1.45 34.61 0.306 7.34 5.55 14.07
1/16/2023 10:00:00 AM 1.57 34.826 0.306 7.35 5.7 14.11
1/16/2023 10:15:00 AM 1.71 35.078 0.306 7.35 5.75 14.15
1/16/2023 10:30:00 AM 1.86 35.348 0.305 7.35 6.3 14.18
1/16/2023 10:45:00 AM 2.01 35.618 0.305 7.37 5.74 14.22
1/16/2023 11:00:00 AM 2.17 35.906 0.305 7.37 5.81 14.25
1/16/2023 11:15:00 AM 2.33 36.194 0.305 7.4 6.33 14.29
1/16/2023 11:30:00 AM 2.49 36.482 0.305 7.39 6.01 14.31
1/16/2023 11:45:00 AM 2.64 36.752 0.305 7.41 6.9 14.33
1/16/2023 12:00:00 PM 2.8 37.04 0.304 7.43 11.53 14.34
1/16/2023 12:15:00 PM 2.95 37.31 0.304 7.41 5.7 14.35
1/16/2023 12:30:00 PM 3.12 37.616 0.304 7.47 5.96 14.36
1/16/2023 12:45:00 PM 3.29 37.922 0.304 7.43 5.8 14.36
1/16/2023 1:00:00 PM 3.45 38.21 0.304 7.47 5.59 14.36
1/16/2023 1:15:00 PM 3.61 38.498 0.303 7.46 6.13 14.35
1/16/2023 1:30:00 PM 3.77 38.786 0.303 7.46 10.88 14.32
1/16/2023 1:45:00 PM 3.9 39.02 0.303 7.51 7.27 14.3
1/16/2023 2:00:00 PM 4.03 39.254 0.303 7.51 6.47 14.26
1/16/2023 2:15:00 PM 4.14 39.452 0.303 7.48 6.06 14.22
1/16/2023 2:30:00 PM 4.23 39.614 0.303 7.5 6.75 14.19
1/16/2023 2:45:00 PM 4.32 39.776 0.303 7.53 5.56 14.15
1/16/2023 3:00:00 PM 4.36 39.848 0.303 7.54 5.45 14.11
1/16/2023 3:15:00 PM 4.4 39.92 0.303 7.5 5.89 14.06
1/16/2023 3:30:00 PM 4.42 39.956 0.303 7.53 5.45 14
1/16/2023 3:45:00 PM 4.41 39.938 0.303 7.53 5.67 13.94
1/16/2023 4:00:00 PM 4.37 39.866 0.303 7.53 8.03 13.87
1/16/2023 4:15:00 PM 4.34 39.812 0.304 7.48 6.96 13.8
1/16/2023 4:30:00 PM 4.3 39.74 0.304 7.53 6.33 13.72
1/16/2023 4:45:00 PM 4.26 39.668 0.304 7.47 8.51 13.66
1/16/2023 5:00:00 PM 4.2 39.56 0.304 7.48 6.41 13.59
1/16/2023 5:15:00 PM 4.14 39.452 0.304 7.47 5.88 13.53
1/16/2023 5:30:00 PM 4.06 39.308 0.304 7.43 5.5 13.47
1/16/2023 5:45:00 PM 3.99 39.182 0.303 7.42 6.89 13.41
1/16/2023 6:00:00 PM 3.91 39.038 0.304 7.44 5.79 13.37
1/16/2023 6:15:00 PM 3.84 38.912 0.304 7.42 5.93 13.32
1/16/2023 6:30:00 PM 3.76 38.768 0.304 7.41 5.54 13.29
1/16/2023 6:45:00 PM 3.68 38.624 0.305 7.38 5.95 13.26
1/16/2023 7:00:00 PM 3.6 38.48 0.304 7.37 5.26 13.22
1/16/2023 7:15:00 PM 3.54 38.372 0.304 7.39 4.82 13.18
1/16/2023 7:30:00 PM 3.48 38.264 0.304 7.38 5.24 13.15
1/16/2023 7:45:00 PM 3.42 38.156 0.304 7.38 6.05 13.12
1/16/2023 8:00:00 PM 3.37 38.066 0.304 7.34 5.49 13.09
1/16/2023 8:15:00 PM 3.32 37.976 0.304 7.34 5.84 13.07
1/16/2023 8:30:00 PM 3.26 37.868 0.304 7.36 6.85 13.04
1/16/2023 8:45:00 PM 3.22 37.796 0.304 7.31 6.1 13.03
1/16/2023 9:00:00 PM 3.18 37.724 0.304 7.35 5.02 13.01
1/16/2023 9:15:00 PM 3.15 37.67 0.304 7.34 5.03 13
1/16/2023 9:30:00 PM 3.12 37.616 0.304 7.31 5.4 12.98
1/16/2023 9:45:00 PM 3.11 37.598 0.304 7.33 4.73 12.95
1/16/2023 10:00:00 PM 3.09 37.562 0.304 7.29 5.11 12.94
1/16/2023 10:15:00 PM 3.09 37.562 0.304 7.34 5.13 12.92
1/16/2023 10:30:00 PM 3.08 37.544 0.304 7.33 5.17 12.91
1/16/2023 10:45:00 PM 3.08 37.544 0.304 7.29 4.74 12.9
1/16/2023 11:00:00 PM 3.08 37.544 0.304 7.31 5.22 12.89
1/16/2023 11:15:00 PM 3.07 37.526 0.304 7.32 5.31 12.87
1/16/2023 11:30:00 PM 3.06 37.508 0.304 7.31 4.73 12.86
1/16/2023 11:45:00 PM 3.05 37.49 0.304 7.27 5.35 12.85
1/17/2023 12:00:00 AM 3.03 37.454 0.304 7.3 5.39 12.85
1/17/2023 12:15:00 AM 3 37.4 0.304 7.27 5.14 12.84
1/17/2023 12:30:00 AM 2.98 37.364 0.304 7.3 5.73 12.84
1/17/2023 12:45:00 AM 2.96 37.328 0.304 7.26 5.82 12.83
1/17/2023 1:00:00 AM 2.92 37.256 0.304 7.26 5.55 12.83
1/17/2023 1:15:00 AM 2.9 37.22 0.304 7.27 5.95 12.83
1/17/2023 1:30:00 AM 2.86 37.148 0.304 7.26 5.19 12.84
1/17/2023 1:45:00 AM 2.84 37.112 0.304 7.29 4.75 12.85
1/17/2023 2:00:00 AM 2.8 37.04 0.305 7.26 5.1 12.85
1/17/2023 2:15:00 AM 2.79 37.022 0.305 7.28 4.75 12.86
1/17/2023 2:30:00 AM 2.79 37.022 0.305 7.25 4.96 12.87
1/17/2023 2:45:00 AM 2.79 37.022 0.305 7.27 5.21 12.87
1/17/2023 3:00:00 AM 2.78 37.004 0.305 7.27 5.43 12.88
1/17/2023 3:15:00 AM 2.77 36.986 0.305 7.28 5.12 12.89
1/17/2023 3:30:00 AM 2.75 36.95 0.304 7.25 5.52 12.9
1/17/2023 3:45:00 AM 2.73 36.914 0.304 7.25 5.43 12.91